<?xml version='1.0' encoding='UTF-8'?><gpx version="1.1" creator="JPX - https://github.com/jenetics/jpx" xmlns="http://www.topografix.com/GPX/1/1"><trk><trkseg><trkpt lat="45.74866080248399" lon="8.671667222544738"><ele>259.0</ele><time>2026-04-19T10:43:05.998Z</time></trkpt><trkpt lat="45.7487333556128" lon="8.671667438260029"><ele>259.0</ele><time>2026-04-19T10:43:07.998Z</time></trkpt><trkpt lat="45.74880597366963" lon="8.67168471058357"><ele>259.0</ele><time>2026-04-19T10:43:09.998Z</time></trkpt><trkpt lat="45.74887694431838" lon="8.671698912572683"><ele>259.0</ele><time>2026-04-19T10:43:11.998Z</time></trkpt><trkpt lat="45.74894867508319" lon="8.671714182430119"><ele>259.0</ele><time>2026-04-19T10:43:13.998Z</time></trkpt><trkpt lat="45.74901770143023" lon="8.671739290413818"><ele>259.0</ele><time>2026-04-19T10:43:15.998Z</time></trkpt><trkpt lat="45.749090581414855" lon="8.671753219829094"><ele>259.0</ele><time>2026-04-19T10:43:17.998Z</time></trkpt><trkpt lat="45.74916676440629" lon="8.671770634593996"><ele>259.0</ele><time>2026-04-19T10:43:19.998Z</time></trkpt><trkpt lat="45.74924504395863" lon="8.67178566776922"><ele>259.0</ele><time>2026-04-19T10:43:21.998Z</time></trkpt><trkpt lat="45.74932065571643" lon="8.671809527443429"><ele>259.0</ele><time>2026-04-19T10:43:23.998Z</time></trkpt><trkpt lat="45.749396439312676" lon="8.67183194330961"><ele>259.0</ele><time>2026-04-19T10:43:25.998Z</time></trkpt><trkpt lat="45.74947568836278" lon="8.671865192769971"><ele>259.0</ele><time>2026-04-19T10:43:27.998Z</time></trkpt><trkpt lat="45.74956097933482" lon="8.671906093030492"><ele>259.0</ele><time>2026-04-19T10:43:29.998Z</time></trkpt><trkpt lat="45.74964528898746" lon="8.671955251439865"><ele>258.4</ele><time>2026-04-19T10:43:31.998Z</time></trkpt><trkpt lat="45.74973131493379" lon="8.672005395149514"><ele>257.79999999999995</ele><time>2026-04-19T10:43:33.998Z</time></trkpt><trkpt lat="45.74981076708823" lon="8.672066468059267"><ele>257.20000000000005</ele><time>2026-04-19T10:43:35.998Z</time></trkpt><trkpt lat="45.74988886969225" lon="8.672130918368472"><ele>256.6</ele><time>2026-04-19T10:43:37.999Z</time></trkpt><trkpt lat="45.74996538851728" lon="8.67219128270632"><ele>256.0</ele><time>2026-04-19T10:43:39.999Z</time></trkpt><trkpt lat="45.75004693469965" lon="8.67224888634362"><ele>256.0</ele><time>2026-04-19T10:43:41.999Z</time></trkpt><trkpt lat="45.75012723477225" lon="8.672310143367863"><ele>256.0</ele><time>2026-04-19T10:43:43.999Z</time></trkpt><trkpt lat="45.75020312273771" lon="8.67238425904713"><ele>256.0</ele><time>2026-04-19T10:43:45.999Z</time></trkpt><trkpt lat="45.750282332081724" lon="8.672455929065372"><ele>256.0</ele><time>2026-04-19T10:43:47.999Z</time></trkpt><trkpt lat="45.7503576622719" lon="8.67252720903848"><ele>256.0</ele><time>2026-04-19T10:43:49.999Z</time></trkpt><trkpt lat="45.75042948623542" lon="8.672593370324561"><ele>255.99999999999997</ele><time>2026-04-19T10:43:51.999Z</time></trkpt><trkpt lat="45.75049616413397" lon="8.672665976073665"><ele>256.0</ele><time>2026-04-19T10:43:53.999Z</time></trkpt><trkpt lat="45.75056609353138" lon="8.672739547652029"><ele>256.0</ele><time>2026-04-19T10:43:55.999Z</time></trkpt><trkpt lat="45.75063127834286" lon="8.672813350104207"><ele>256.0</ele><time>2026-04-19T10:43:57.999Z</time></trkpt><trkpt lat="45.75069095543056" lon="8.672882934037421"><ele>255.99999999999997</ele><time>2026-04-19T10:43:59.999Z</time></trkpt><trkpt lat="45.750754933301515" lon="8.67294108265556"><ele>256.0</ele><time>2026-04-19T10:44:01.999Z</time></trkpt><trkpt lat="45.75080935882344" lon="8.673004496793181"><ele>256.0</ele><time>2026-04-19T10:44:03.999Z</time></trkpt><trkpt lat="45.75086293967869" lon="8.673067987115626"><ele>255.99999999999997</ele><time>2026-04-19T10:44:05.999Z</time></trkpt><trkpt lat="45.750911765830715" lon="8.673128873599467"><ele>256.0</ele><time>2026-04-19T10:44:07.999Z</time></trkpt><trkpt lat="45.75095165697303" lon="8.6732055746619"><ele>256.0</ele><time>2026-04-19T10:44:09.999Z</time></trkpt><trkpt lat="45.750998304338864" lon="8.673283955295146"><ele>255.99999999999997</ele><time>2026-04-19T10:44:11.999Z</time></trkpt><trkpt lat="45.751057651952344" lon="8.673346251836989"><ele>256.0</ele><time>2026-04-19T10:44:13.999Z</time></trkpt><trkpt lat="45.751116293253475" lon="8.673415524311766"><ele>256.0</ele><time>2026-04-19T10:44:15.999Z</time></trkpt><trkpt lat="45.751173948595905" lon="8.673486413624264"><ele>256.16666666666663</ele><time>2026-04-19T10:44:17.999Z</time></trkpt><trkpt lat="45.75124236263476" lon="8.673549567481633"><ele>256.3333333333333</ele><time>2026-04-19T10:44:19.999Z</time></trkpt><trkpt lat="45.751310125639016" lon="8.673609096130262"><ele>256.5</ele><time>2026-04-19T10:44:21.999Z</time></trkpt><trkpt lat="45.751377609894845" lon="8.673664041947694"><ele>256.6666666666667</ele><time>2026-04-19T10:44:23.999Z</time></trkpt><trkpt lat="45.751445013817914" lon="8.673720327570278"><ele>256.83333333333337</ele><time>2026-04-19T10:44:25.999Z</time></trkpt><trkpt lat="45.75151690075684" lon="8.673781646628049"><ele>257.0</ele><time>2026-04-19T10:44:27.999Z</time></trkpt><trkpt lat="45.75159762311588" lon="8.6738363450953"><ele>257.0</ele><time>2026-04-19T10:44:29.999Z</time></trkpt><trkpt lat="45.75165816759278" lon="8.67395309077989"><ele>257.0</ele><time>2026-04-19T10:44:31.999Z</time></trkpt><trkpt lat="45.75173851534249" lon="8.674040249349483"><ele>257.0</ele><time>2026-04-19T10:44:33.999Z</time></trkpt><trkpt lat="45.751847810782955" lon="8.674080469894418"><ele>257.0</ele><time>2026-04-19T10:44:35.999Z</time></trkpt><trkpt lat="45.751927495911424" lon="8.674182363844443"><ele>257.0</ele><time>2026-04-19T10:44:37.999Z</time></trkpt><trkpt lat="45.75192834223428" lon="8.674336855337103"><ele>257.0</ele><time>2026-04-19T10:44:39.999Z</time></trkpt><trkpt lat="45.75186450396693" lon="8.674437714275093"><ele>257.0</ele><time>2026-04-19T10:44:41.999Z</time></trkpt><trkpt lat="45.75183385376566" lon="8.67454542943695"><ele>257.0</ele><time>2026-04-19T10:44:43.999Z</time></trkpt><trkpt lat="45.75180541745287" lon="8.674627511531847"><ele>257.0</ele><time>2026-04-19T10:44:45.999Z</time></trkpt><trkpt lat="45.75179162697119" lon="8.674722989346177"><ele>257.0</ele><time>2026-04-19T10:44:47.999Z</time></trkpt><trkpt lat="45.75177771279443" lon="8.674828183064811"><ele>257.0</ele><time>2026-04-19T10:44:49.999Z</time></trkpt><trkpt lat="45.751761940564485" lon="8.674939837937014"><ele>256.6</ele><time>2026-04-19T10:44:51.999Z</time></trkpt><trkpt lat="45.751737820787135" lon="8.675059639108476"><ele>256.2</ele><time>2026-04-19T10:44:53.999Z</time></trkpt><trkpt lat="45.75170818406758" lon="8.675184862326478"><ele>255.8</ele><time>2026-04-19T10:44:55.999Z</time></trkpt><trkpt lat="45.75167691938289" lon="8.67531773443731"><ele>255.4</ele><time>2026-04-19T10:44:57.998Z</time></trkpt><trkpt lat="45.7516329305394" lon="8.675442133886722"><ele>255.0</ele><time>2026-04-19T10:44:59.998Z</time></trkpt><trkpt lat="45.751579726670265" lon="8.67555398222913"><ele>254.6</ele><time>2026-04-19T10:45:01.998Z</time></trkpt><trkpt lat="45.75153248458729" lon="8.675681770037997"><ele>254.2</ele><time>2026-04-19T10:45:03.998Z</time></trkpt><trkpt lat="45.751497698030946" lon="8.675809982354853"><ele>253.8</ele><time>2026-04-19T10:45:05.998Z</time></trkpt><trkpt lat="45.75145053955297" lon="8.675942485159062"><ele>253.4</ele><time>2026-04-19T10:45:07.998Z</time></trkpt><trkpt lat="45.75139705620668" lon="8.676072939261209"><ele>253.0</ele><time>2026-04-19T10:45:09.998Z</time></trkpt><trkpt lat="45.751367358076614" lon="8.676209623375259"><ele>252.5714285714286</ele><time>2026-04-19T10:45:11.998Z</time></trkpt><trkpt lat="45.75134309820458" lon="8.676303514782939"><ele>252.14285714285717</ele><time>2026-04-19T10:45:13.998Z</time></trkpt><trkpt lat="45.75132348375662" lon="8.676419773216857"><ele>251.71428571428572</ele><time>2026-04-19T10:45:15.998Z</time></trkpt><trkpt lat="45.751316295469586" lon="8.676524205364423"><ele>251.2857142857143</ele><time>2026-04-19T10:45:17.998Z</time></trkpt><trkpt lat="45.751312008520486" lon="8.676620704695864"><ele>250.8571428571429</ele><time>2026-04-19T10:45:19.998Z</time></trkpt><trkpt lat="45.751287157358774" lon="8.676708000323439"><ele>250.42857142857142</ele><time>2026-04-19T10:45:21.998Z</time></trkpt><trkpt lat="45.75123171081336" lon="8.676777406964337"><ele>250.0</ele><time>2026-04-19T10:45:28.998Z</time></trkpt><trkpt lat="45.75121471167291" lon="8.67690590982778"><ele>249.0</ele><time>2026-04-19T10:45:29.998Z</time></trkpt><trkpt lat="45.75121729203259" lon="8.676996901720235"><ele>248.0</ele><time>2026-04-19T10:45:31.998Z</time></trkpt><trkpt lat="45.75133576475811" lon="8.677085370640915"><ele>247.0</ele><time>2026-04-19T10:45:33.998Z</time></trkpt><trkpt lat="45.751356680973764" lon="8.677182747175745"><ele>246.0</ele><time>2026-04-19T10:45:35.998Z</time></trkpt><trkpt lat="45.75122562547834" lon="8.67728273072985"><ele>245.0</ele><time>2026-04-19T10:45:37.998Z</time></trkpt><trkpt lat="45.75118285655433" lon="8.677372573023108"><ele>245.0</ele><time>2026-04-19T10:45:39.998Z</time></trkpt><trkpt lat="45.751189133903246" lon="8.677472334652572"><ele>245.0</ele><time>2026-04-19T10:45:42.999Z</time></trkpt><trkpt lat="45.75126662154226" lon="8.677523778930505"><ele>245.0</ele><time>2026-04-19T10:45:44.999Z</time></trkpt><trkpt lat="45.751361905837086" lon="8.677567830673324"><ele>245.0</ele><time>2026-04-19T10:45:46.999Z</time></trkpt><trkpt lat="45.75166479065314" lon="8.677589089757692"><ele>245.0</ele><time>2026-04-19T10:45:48.999Z</time></trkpt><trkpt lat="45.751717245303425" lon="8.677649913432491"><ele>245.0</ele><time>2026-04-19T10:45:50.999Z</time></trkpt><trkpt lat="45.75177281353289" lon="8.677708631033491"><ele>245.0</ele><time>2026-04-19T10:45:52.999Z</time></trkpt><trkpt lat="45.7518276669497" lon="8.677770865610615"><ele>245.0</ele><time>2026-04-19T10:45:54.999Z</time></trkpt><trkpt lat="45.75188104214796" lon="8.677828836255692"><ele>245.0</ele><time>2026-04-19T10:45:56.999Z</time></trkpt><trkpt lat="45.751939455649186" lon="8.677884337948319"><ele>245.0</ele><time>2026-04-19T10:45:58.999Z</time></trkpt><trkpt lat="45.751993522919754" lon="8.677936014119247"><ele>245.0</ele><time>2026-04-19T10:46:00.999Z</time></trkpt><trkpt lat="45.75206258948667" lon="8.678014265622117"><ele>245.00000000000003</ele><time>2026-04-19T10:46:03.999Z</time></trkpt><trkpt lat="45.75213273593719" lon="8.678070252999172"><ele>245.0</ele><time>2026-04-19T10:46:06.999Z</time></trkpt><trkpt lat="45.75220402617724" lon="8.678000269522338"><ele>245.0</ele><time>2026-04-19T10:46:09.999Z</time></trkpt><trkpt lat="45.752256865107306" lon="8.677899295013694"><ele>245.0</ele><time>2026-04-19T10:46:12.999Z</time></trkpt><trkpt lat="45.75231212715668" lon="8.677805935508209"><ele>245.00000000000003</ele><time>2026-04-19T10:46:15.999Z</time></trkpt><trkpt lat="45.75236913209427" lon="8.6777180576551"><ele>245.0</ele><time>2026-04-19T10:46:18.999Z</time></trkpt><trkpt lat="45.75242702723339" lon="8.677621913556766"><ele>245.28571428571428</ele><time>2026-04-19T10:46:21.999Z</time></trkpt><trkpt lat="45.752473568802564" lon="8.677557819026578"><ele>245.57142857142856</ele><time>2026-04-19T10:46:23.999Z</time></trkpt><trkpt lat="45.7525462160798" lon="8.677578823241577"><ele>245.85714285714286</ele><time>2026-04-19T10:46:25.999Z</time></trkpt><trkpt lat="45.75261150100333" lon="8.677613940726541"><ele>246.14285714285714</ele><time>2026-04-19T10:46:27.999Z</time></trkpt><trkpt lat="45.752683674609656" lon="8.677644771343529"><ele>246.42857142857142</ele><time>2026-04-19T10:46:29.999Z</time></trkpt><trkpt lat="45.75276045153226" lon="8.67764657294176"><ele>246.71428571428572</ele><time>2026-04-19T10:46:31.999Z</time></trkpt><trkpt lat="45.75283749346201" lon="8.677662316000369"><ele>247.0</ele><time>2026-04-19T10:46:33.999Z</time></trkpt><trkpt lat="45.75290141877554" lon="8.677694040750511"><ele>247.14285714285717</ele><time>2026-04-19T10:46:35.999Z</time></trkpt><trkpt lat="45.75296090437122" lon="8.67773096965638"><ele>247.28571428571428</ele><time>2026-04-19T10:46:37.999Z</time></trkpt><trkpt lat="45.753049229529225" lon="8.677732666778999"><ele>247.42857142857144</ele><time>2026-04-19T10:46:40.999Z</time></trkpt><trkpt lat="45.75310712561393" lon="8.67769078145828"><ele>247.57142857142858</ele><time>2026-04-19T10:46:43.999Z</time></trkpt><trkpt lat="45.7531643790479" lon="8.677638550434631"><ele>247.71428571428572</ele><time>2026-04-19T10:46:49.999Z</time></trkpt><trkpt lat="45.75322607582048" lon="8.67759545395061"><ele>247.85714285714286</ele><time>2026-04-19T10:46:57.999Z</time></trkpt><trkpt lat="45.75328646660035" lon="8.677547874409285"><ele>248.0</ele><time>2026-04-19T10:47:04.999Z</time></trkpt><trkpt lat="45.7533455306396" lon="8.677480768279262"><ele>248.0</ele><time>2026-04-19T10:47:09.999Z</time></trkpt><trkpt lat="45.75340731331167" lon="8.677420196102247"><ele>248.00000000000003</ele><time>2026-04-19T10:47:15.999Z</time></trkpt><trkpt lat="45.75345801750967" lon="8.677336643017004"><ele>248.0</ele><time>2026-04-19T10:47:20.999Z</time></trkpt><trkpt lat="45.75348286702975" lon="8.67725027081192"><ele>248.0</ele><time>2026-04-19T10:47:24.999Z</time></trkpt><trkpt lat="45.75351990902952" lon="8.677161925326118"><ele>248.00000000000003</ele><time>2026-04-19T10:47:28.999Z</time></trkpt><trkpt lat="45.75357094179852" lon="8.677090750908118"><ele>248.0</ele><time>2026-04-19T10:47:32.999Z</time></trkpt><trkpt lat="45.753643326420324" lon="8.677088934412152"><ele>248.0</ele><time>2026-04-19T10:47:36.998Z</time></trkpt><trkpt lat="45.75369922941576" lon="8.677133691665343"><ele>248.33333333333334</ele><time>2026-04-19T10:47:39.998Z</time></trkpt><trkpt lat="45.75376757934719" lon="8.67719824050871"><ele>248.66666666666669</ele><time>2026-04-19T10:47:43.998Z</time></trkpt><trkpt lat="45.75383395267678" lon="8.677256678690531"><ele>249.0</ele><time>2026-04-19T10:47:48.999Z</time></trkpt><trkpt lat="45.75389823423983" lon="8.677302837259349"><ele>249.33333333333331</ele><time>2026-04-19T10:47:52.999Z</time></trkpt><trkpt lat="45.75396736945642" lon="8.677356838286084"><ele>249.66666666666666</ele><time>2026-04-19T10:47:56.999Z</time></trkpt><trkpt lat="45.75403370276001" lon="8.67741285874803"><ele>250.0</ele><time>2026-04-19T10:48:00.999Z</time></trkpt><trkpt lat="45.75409142272321" lon="8.677456707162195"><ele>250.0</ele><time>2026-04-19T10:48:03.999Z</time></trkpt><trkpt lat="45.75415058901613" lon="8.677503826925893"><ele>250.0</ele><time>2026-04-19T10:48:06.999Z</time></trkpt><trkpt lat="45.75420880028967" lon="8.677550578920862"><ele>250.0</ele><time>2026-04-19T10:48:09.999Z</time></trkpt><trkpt lat="45.75425567768212" lon="8.67761498813218"><ele>250.0</ele><time>2026-04-19T10:48:12.999Z</time></trkpt><trkpt lat="45.75428626425719" lon="8.67769959738189"><ele>250.0</ele><time>2026-04-19T10:48:24.999Z</time></trkpt><trkpt lat="45.754231569821805" lon="8.677803698348491"><ele>250.0</ele><time>2026-04-19T10:48:28.999Z</time></trkpt><trkpt lat="45.754197757404555" lon="8.677887760972066"><ele>250.0</ele><time>2026-04-19T10:48:30.999Z</time></trkpt><trkpt lat="45.75416309643627" lon="8.677980957519528"><ele>249.6</ele><time>2026-04-19T10:48:32.999Z</time></trkpt><trkpt lat="45.75411722548193" lon="8.678093199911284"><ele>249.2</ele><time>2026-04-19T10:48:34.999Z</time></trkpt><trkpt lat="45.754075720304606" lon="8.67817872449423"><ele>248.8</ele><time>2026-04-19T10:48:35.999Z</time></trkpt><trkpt lat="45.75416887283661" lon="8.678332104809625"><ele>248.4</ele><time>2026-04-19T10:48:36.999Z</time></trkpt><trkpt lat="45.75412627658043" lon="8.678437669177189"><ele>248.0</ele><time>2026-04-19T10:48:38.999Z</time></trkpt><trkpt lat="45.754088865759755" lon="8.678530864139729"><ele>247.85714285714286</ele><time>2026-04-19T10:48:40.999Z</time></trkpt><trkpt lat="45.75405365892968" lon="8.678618767069512"><ele>247.71428571428572</ele><time>2026-04-19T10:48:42.999Z</time></trkpt><trkpt lat="45.75401814954247" lon="8.67870537115212"><ele>247.57142857142858</ele><time>2026-04-19T10:48:44.999Z</time></trkpt><trkpt lat="45.75398289401014" lon="8.67879235986572"><ele>247.42857142857144</ele><time>2026-04-19T10:48:46.999Z</time></trkpt><trkpt lat="45.753947504720195" lon="8.67887967848032"><ele>247.28571428571428</ele><time>2026-04-19T10:48:48.999Z</time></trkpt><trkpt lat="45.75391084872029" lon="8.67897086084146"><ele>247.14285714285717</ele><time>2026-04-19T10:48:50.999Z</time></trkpt><trkpt lat="45.75387462529941" lon="8.679060556725723"><ele>247.0</ele><time>2026-04-19T10:48:52.999Z</time></trkpt><trkpt lat="45.753842795567614" lon="8.679139373010907"><ele>246.99999999999997</ele><time>2026-04-19T10:48:55.999Z</time></trkpt><trkpt lat="45.75382093590754" lon="8.678933107513455"><ele>247.0</ele><time>2026-04-19T10:48:56.999Z</time></trkpt><trkpt lat="45.75388676821212" lon="8.678986596127567"><ele>247.0</ele><time>2026-04-19T10:48:59.999Z</time></trkpt><trkpt lat="45.75395182682186" lon="8.679039456188745"><ele>247.0</ele><time>2026-04-19T10:49:02.999Z</time></trkpt><trkpt lat="45.75401705706877" lon="8.679092455765138"><ele>246.99999999999997</ele><time>2026-04-19T10:49:05.999Z</time></trkpt><trkpt lat="45.75408515725361" lon="8.679147787157648"><ele>247.0</ele><time>2026-04-19T10:49:08.999Z</time></trkpt><trkpt lat="45.75415468775843" lon="8.67920428069054"><ele>247.0</ele><time>2026-04-19T10:49:11.999Z</time></trkpt><trkpt lat="45.754219496123156" lon="8.679256964598492"><ele>247.0</ele><time>2026-04-19T10:49:14.999Z</time></trkpt><trkpt lat="45.75427565498817" lon="8.679302627031081"><ele>247.0</ele><time>2026-04-19T10:49:18.999Z</time></trkpt><trkpt lat="45.75433320796803" lon="8.679349423011871"><ele>247.0</ele><time>2026-04-19T10:49:45.999Z</time></trkpt><trkpt lat="45.7543931022792" lon="8.67939812271329"><ele>247.0</ele><time>2026-04-19T10:49:49.999Z</time></trkpt><trkpt lat="45.75445336163323" lon="8.679447119229241"><ele>247.0</ele><time>2026-04-19T10:49:52.999Z</time></trkpt><trkpt lat="45.75454322508527" lon="8.679520186667826"><ele>247.0</ele><time>2026-04-19T10:49:55.999Z</time></trkpt><trkpt lat="45.75460538245803" lon="8.679570726454374"><ele>246.66666666666666</ele><time>2026-04-19T10:49:57.999Z</time></trkpt><trkpt lat="45.75466202277143" lon="8.679616944439207"><ele>246.33333333333331</ele><time>2026-04-19T10:49:59.999Z</time></trkpt><trkpt lat="45.75471868232363" lon="8.679663646496817"><ele>246.0</ele><time>2026-04-19T10:50:01.999Z</time></trkpt><trkpt lat="45.754788670057394" lon="8.679721334405613"><ele>245.66666666666669</ele><time>2026-04-19T10:50:04Z</time></trkpt><trkpt lat="45.754865187218726" lon="8.67978440424991"><ele>245.33333333333334</ele><time>2026-04-19T10:50:06Z</time></trkpt><trkpt lat="45.75494536272678" lon="8.679850073001756"><ele>245.0</ele><time>2026-04-19T10:50:08Z</time></trkpt><trkpt lat="45.75503159342005" lon="8.679920503947072"><ele>245.0</ele><time>2026-04-19T10:50:10Z</time></trkpt><trkpt lat="45.75512598256516" lon="8.679997808695989"><ele>245.0</ele><time>2026-04-19T10:50:12Z</time></trkpt><trkpt lat="45.75522419535943" lon="8.680078447108457"><ele>245.0</ele><time>2026-04-19T10:50:14Z</time></trkpt><trkpt lat="45.7553216796764" lon="8.680158487296861"><ele>245.0</ele><time>2026-04-19T10:50:16Z</time></trkpt><trkpt lat="45.7554117403775" lon="8.680179806652646"><ele>245.0</ele><time>2026-04-19T10:50:18Z</time></trkpt><trkpt lat="45.75552022162907" lon="8.68022295585706"><ele>245.4</ele><time>2026-04-19T10:50:20Z</time></trkpt><trkpt lat="45.75562041027521" lon="8.680260438657648"><ele>245.8</ele><time>2026-04-19T10:50:22Z</time></trkpt><trkpt lat="45.75572504815358" lon="8.680305048920566"><ele>246.2</ele><time>2026-04-19T10:50:24Z</time></trkpt><trkpt lat="45.75581747539829" lon="8.680331000645557"><ele>246.6</ele><time>2026-04-19T10:50:26Z</time></trkpt><trkpt lat="45.75589866783671" lon="8.68032122818987"><ele>247.0</ele><time>2026-04-19T10:50:28Z</time></trkpt><trkpt lat="45.75600706145814" lon="8.680301120004227"><ele>247.39999999999998</ele><time>2026-04-19T10:50:30Z</time></trkpt><trkpt lat="45.75611291629628" lon="8.680276689972581"><ele>247.79999999999998</ele><time>2026-04-19T10:50:32Z</time></trkpt><trkpt lat="45.75621589833707" lon="8.680251821511554"><ele>248.2</ele><time>2026-04-19T10:50:34Z</time></trkpt><trkpt lat="45.756322396413154" lon="8.680230992240174"><ele>248.6</ele><time>2026-04-19T10:50:36Z</time></trkpt><trkpt lat="45.75643214495941" lon="8.680209527226985"><ele>249.0</ele><time>2026-04-19T10:50:38Z</time></trkpt><trkpt lat="45.75654752921534" lon="8.680187688999515"><ele>249.0</ele><time>2026-04-19T10:50:40Z</time></trkpt><trkpt lat="45.756662319537924" lon="8.680166564630262"><ele>249.0</ele><time>2026-04-19T10:50:42Z</time></trkpt><trkpt lat="45.756778206694904" lon="8.680145182414332"><ele>249.0</ele><time>2026-04-19T10:50:44Z</time></trkpt><trkpt lat="45.75688995535975" lon="8.680124420607887"><ele>249.0</ele><time>2026-04-19T10:50:46Z</time></trkpt><trkpt lat="45.75700356395239" lon="8.680103059476608"><ele>249.0</ele><time>2026-04-19T10:50:48Z</time></trkpt><trkpt lat="45.757115156202026" lon="8.68008197992082"><ele>249.0</ele><time>2026-04-19T10:50:50Z</time></trkpt><trkpt lat="45.75722900055838" lon="8.680060474954518"><ele>249.0</ele><time>2026-04-19T10:50:52Z</time></trkpt><trkpt lat="45.75707193759017" lon="8.68012191534813"><ele>249.0</ele><time>2026-04-19T10:50:53Z</time></trkpt><trkpt lat="45.75706827278261" lon="8.68002933463689"><ele>249.0</ele><time>2026-04-19T10:50:54Z</time></trkpt><trkpt lat="45.75706344701123" lon="8.679907425398795"><ele>249.0</ele><time>2026-04-19T10:50:56Z</time></trkpt><trkpt lat="45.75705926047606" lon="8.679801664633736"><ele>249.0</ele><time>2026-04-19T10:50:58Z</time></trkpt><trkpt lat="45.7570569992193" lon="8.67967874620651"><ele>249.0</ele><time>2026-04-19T10:51:00Z</time></trkpt><trkpt lat="45.75704826391839" lon="8.679567629525328"><ele>249.0</ele><time>2026-04-19T10:51:03Z</time></trkpt><trkpt lat="45.757039054341334" lon="8.67946240543048"><ele>249.0</ele><time>2026-04-19T10:51:06Z</time></trkpt><trkpt lat="45.75733153383916" lon="8.679332707859023"><ele>250.14285714285714</ele><time>2026-04-19T10:51:11.999Z</time></trkpt><trkpt lat="45.757403500033895" lon="8.679290938816791"><ele>251.28571428571428</ele><time>2026-04-19T10:51:15.999Z</time></trkpt><trkpt lat="45.757478809018835" lon="8.679259366530774"><ele>252.42857142857142</ele><time>2026-04-19T10:51:18.999Z</time></trkpt><trkpt lat="45.757543340159366" lon="8.679249409651709"><ele>253.57142857142856</ele><time>2026-04-19T10:51:20.999Z</time></trkpt><trkpt lat="45.75760626792151" lon="8.6792122124391"><ele>254.71428571428572</ele><time>2026-04-19T10:51:22.999Z</time></trkpt><trkpt lat="45.7576780704318" lon="8.679185409127708"><ele>255.85714285714283</ele><time>2026-04-19T10:51:24.999Z</time></trkpt><trkpt lat="45.757745846356194" lon="8.679174411467262"><ele>257.0</ele><time>2026-04-19T10:51:26.999Z</time></trkpt><trkpt lat="45.757818037005435" lon="8.679156481233862"><ele>257.42857142857144</ele><time>2026-04-19T10:51:28.999Z</time></trkpt><trkpt lat="45.75789774807413" lon="8.679131590755174"><ele>257.8571428571429</ele><time>2026-04-19T10:51:30.999Z</time></trkpt><trkpt lat="45.75796196327495" lon="8.679117564548985"><ele>258.28571428571433</ele><time>2026-04-19T10:51:32.999Z</time></trkpt><trkpt lat="45.758030568421404" lon="8.679104520055496"><ele>258.7142857142857</ele><time>2026-04-19T10:51:34.999Z</time></trkpt><trkpt lat="45.7581216577144" lon="8.679086635652382"><ele>259.14285714285717</ele><time>2026-04-19T10:51:37.999Z</time></trkpt><trkpt lat="45.75819218779525" lon="8.679073875659777"><ele>259.5714285714286</ele><time>2026-04-19T10:51:39.999Z</time></trkpt><trkpt lat="45.75825908070064" lon="8.679059435690853"><ele>260.0</ele><time>2026-04-19T10:51:41.999Z</time></trkpt><trkpt lat="45.75833804124459" lon="8.679035006416617"><ele>260.0</ele><time>2026-04-19T10:51:43.999Z</time></trkpt><trkpt lat="45.75842135793489" lon="8.679026207663965"><ele>260.0</ele><time>2026-04-19T10:51:45.999Z</time></trkpt><trkpt lat="45.75850631051167" lon="8.679011867004077"><ele>260.0</ele><time>2026-04-19T10:51:47.999Z</time></trkpt><trkpt lat="45.758584790318395" lon="8.678991581172768"><ele>260.0</ele><time>2026-04-19T10:51:49.999Z</time></trkpt><trkpt lat="45.75867010133557" lon="8.6789632025158"><ele>260.0</ele><time>2026-04-19T10:51:51.999Z</time></trkpt><trkpt lat="45.75877282278985" lon="8.678957751505191"><ele>260.0</ele><time>2026-04-19T10:51:53.999Z</time></trkpt><trkpt lat="45.75887389449088" lon="8.678953777762358"><ele>259.5</ele><time>2026-04-19T10:51:55.999Z</time></trkpt><trkpt lat="45.758971435361616" lon="8.678944951731703"><ele>259.0</ele><time>2026-04-19T10:51:57.999Z</time></trkpt><trkpt lat="45.75905158286855" lon="8.67892404384981"><ele>258.5</ele><time>2026-04-19T10:51:59.999Z</time></trkpt><trkpt lat="45.75913317811376" lon="8.678912426589559"><ele>258.0</ele><time>2026-04-19T10:52:02.001Z</time></trkpt><trkpt lat="45.759207918521135" lon="8.678895214589396"><ele>257.5</ele><time>2026-04-19T10:52:04Z</time></trkpt><trkpt lat="45.759267365512365" lon="8.678862948624687"><ele>257.0</ele><time>2026-04-19T10:52:06Z</time></trkpt><trkpt lat="45.75933274884755" lon="8.678818913638441"><ele>256.83333333333337</ele><time>2026-04-19T10:52:08Z</time></trkpt><trkpt lat="45.75938582648361" lon="8.678750033880366"><ele>256.6666666666667</ele><time>2026-04-19T10:52:10Z</time></trkpt><trkpt lat="45.759449800632204" lon="8.678694870661298"><ele>256.5</ele><time>2026-04-19T10:52:12Z</time></trkpt><trkpt lat="45.75951344768009" lon="8.678645444916892"><ele>256.3333333333333</ele><time>2026-04-19T10:52:14Z</time></trkpt><trkpt lat="45.759582123990334" lon="8.678612016773915"><ele>256.16666666666663</ele><time>2026-04-19T10:52:16Z</time></trkpt><trkpt lat="45.75966227326644" lon="8.678594949021491"><ele>256.0</ele><time>2026-04-19T10:52:18Z</time></trkpt><trkpt lat="45.75975293978757" lon="8.678581398893217"><ele>256.0</ele><time>2026-04-19T10:52:20Z</time></trkpt><trkpt lat="45.75984352254742" lon="8.67858134395516"><ele>256.0</ele><time>2026-04-19T10:52:22Z</time></trkpt><trkpt lat="45.759938421678676" lon="8.678581735950408"><ele>256.0</ele><time>2026-04-19T10:52:24Z</time></trkpt><trkpt lat="45.76003074363109" lon="8.678554265962163"><ele>256.0</ele><time>2026-04-19T10:52:26Z</time></trkpt><trkpt lat="45.76013380420543" lon="8.678510104916116"><ele>256.0</ele><time>2026-04-19T10:52:28Z</time></trkpt><trkpt lat="45.76023963502792" lon="8.678458014369069"><ele>256.75</ele><time>2026-04-19T10:52:30Z</time></trkpt><trkpt lat="45.76034484444406" lon="8.678420476614043"><ele>257.5</ele><time>2026-04-19T10:52:32Z</time></trkpt><trkpt lat="45.76044276828434" lon="8.67840260557678"><ele>258.25</ele><time>2026-04-19T10:52:34Z</time></trkpt><trkpt lat="45.76050796347231" lon="8.678196587375819"><ele>259.0</ele><time>2026-04-19T10:52:35Z</time></trkpt><trkpt lat="45.760697769817504" lon="8.67827409254153"><ele>259.0</ele><time>2026-04-19T10:52:40Z</time></trkpt><trkpt lat="45.76075018554926" lon="8.678352202810627"><ele>259.0</ele><time>2026-04-19T10:52:43.999Z</time></trkpt><trkpt lat="45.760820527854335" lon="8.678402947257212"><ele>259.0</ele><time>2026-04-19T10:52:49.999Z</time></trkpt><trkpt lat="45.76094141066295" lon="8.677975370086202"><ele>259.0</ele><time>2026-04-19T10:52:52.999Z</time></trkpt><trkpt lat="45.76103964973893" lon="8.67796164366638"><ele>259.0</ele><time>2026-04-19T10:52:55.999Z</time></trkpt><trkpt lat="45.761106334188796" lon="8.67795232619766"><ele>259.0</ele><time>2026-04-19T10:52:57.999Z</time></trkpt><trkpt lat="45.761184434968655" lon="8.677941413596443"><ele>259.0</ele><time>2026-04-19T10:52:59.999Z</time></trkpt><trkpt lat="45.761266030346555" lon="8.677930012714123"><ele>259.0</ele><time>2026-04-19T10:53:01.999Z</time></trkpt><trkpt lat="45.76134876984928" lon="8.677918451965672"><ele>259.0</ele><time>2026-04-19T10:53:03.999Z</time></trkpt><trkpt lat="45.76142784910482" lon="8.677907402642072"><ele>259.0</ele><time>2026-04-19T10:53:05.999Z</time></trkpt><trkpt lat="45.7615171439618" lon="8.67789492595663"><ele>259.0</ele><time>2026-04-19T10:53:07.999Z</time></trkpt><trkpt lat="45.761608552449744" lon="8.677882153935707"><ele>259.0</ele><time>2026-04-19T10:53:09.999Z</time></trkpt><trkpt lat="45.76169767377835" lon="8.677869728198745"><ele>259.0</ele><time>2026-04-19T10:53:11.999Z</time></trkpt><trkpt lat="45.7617857489558" lon="8.677857506986914"><ele>259.0</ele><time>2026-04-19T10:53:13.999Z</time></trkpt><trkpt lat="45.76186336817214" lon="8.677846736626194"><ele>259.0</ele><time>2026-04-19T10:53:15.999Z</time></trkpt><trkpt lat="45.76193690155203" lon="8.67783653321111"><ele>258.57142857142856</ele><time>2026-04-19T10:53:17.999Z</time></trkpt><trkpt lat="45.76200340939336" lon="8.677827304652983"><ele>258.1428571428571</ele><time>2026-04-19T10:53:19.999Z</time></trkpt><trkpt lat="45.76207770808729" lon="8.677816995048339"><ele>257.7142857142857</ele><time>2026-04-19T10:53:21.999Z</time></trkpt><trkpt lat="45.76214394464437" lon="8.677807804128317"><ele>257.2857142857143</ele><time>2026-04-19T10:53:23.999Z</time></trkpt><trkpt lat="45.76222365122622" lon="8.677796744131433"><ele>256.85714285714283</ele><time>2026-04-19T10:53:25.999Z</time></trkpt><trkpt lat="45.762300267450065" lon="8.67778611294513"><ele>256.42857142857144</ele><time>2026-04-19T10:53:27.999Z</time></trkpt><trkpt lat="45.76238324513091" lon="8.677774599052478"><ele>256.0</ele><time>2026-04-19T10:53:29.999Z</time></trkpt><trkpt lat="45.76244242773084" lon="8.678033275491828"><ele>255.99999999999997</ele><time>2026-04-19T10:53:30.999Z</time></trkpt><trkpt lat="45.762527843208844" lon="8.678028787140342"><ele>256.0</ele><time>2026-04-19T10:53:32.999Z</time></trkpt><trkpt lat="45.76261645269962" lon="8.678016351393998"><ele>256.0</ele><time>2026-04-19T10:53:34.999Z</time></trkpt><trkpt lat="45.76270245660466" lon="8.678000397988141"><ele>256.0</ele><time>2026-04-19T10:53:36.999Z</time></trkpt><trkpt lat="45.76278322614451" lon="8.677972400387464"><ele>255.99999999999997</ele><time>2026-04-19T10:53:38.999Z</time></trkpt><trkpt lat="45.76286175942808" lon="8.67794070568348"><ele>256.0</ele><time>2026-04-19T10:53:40.999Z</time></trkpt><trkpt lat="45.762937255998025" lon="8.67792875277643"><ele>255.33333333333331</ele><time>2026-04-19T10:53:42.999Z</time></trkpt><trkpt lat="45.763005909364075" lon="8.67790874849827"><ele>254.66666666666666</ele><time>2026-04-19T10:53:44.999Z</time></trkpt><trkpt lat="45.76308675485553" lon="8.677871139825754"><ele>254.0</ele><time>2026-04-19T10:53:47.999Z</time></trkpt><trkpt lat="45.763173970859256" lon="8.677812066979092"><ele>253.33333333333331</ele><time>2026-04-19T10:53:50.999Z</time></trkpt><trkpt lat="45.76325024465084" lon="8.677780940884178"><ele>252.66666666666666</ele><time>2026-04-19T10:53:52.999Z</time></trkpt><trkpt lat="45.763322349467934" lon="8.6777216772538"><ele>252.0</ele><time>2026-04-19T10:53:54.999Z</time></trkpt><trkpt lat="45.7634054117432" lon="8.677701910704402"><ele>254.16666666666666</ele><time>2026-04-19T10:53:56.999Z</time></trkpt><trkpt lat="45.763493983245084" lon="8.677693444546565"><ele>256.3333333333333</ele><time>2026-04-19T10:53:58.999Z</time></trkpt><trkpt lat="45.763581743585746" lon="8.677678022209966"><ele>258.5</ele><time>2026-04-19T10:54:00.999Z</time></trkpt><trkpt lat="45.763671451858585" lon="8.677662571962955"><ele>260.66666666666663</ele><time>2026-04-19T10:54:02.999Z</time></trkpt><trkpt lat="45.76375834520691" lon="8.677657159520301"><ele>262.8333333333333</ele><time>2026-04-19T10:54:04.999Z</time></trkpt><trkpt lat="45.763840926411845" lon="8.677654378927107"><ele>265.0</ele><time>2026-04-19T10:54:07Z</time></trkpt><trkpt lat="45.763946811795364" lon="8.67764655918397"><ele>265.0</ele><time>2026-04-19T10:54:09Z</time></trkpt><trkpt lat="45.764072986158794" lon="8.6776436143487"><ele>265.0</ele><time>2026-04-19T10:54:11Z</time></trkpt><trkpt lat="45.76418949338718" lon="8.677631605101059"><ele>265.0</ele><time>2026-04-19T10:54:13Z</time></trkpt><trkpt lat="45.76425470931987" lon="8.677621439297516"><ele>265.0</ele><time>2026-04-19T10:54:14Z</time></trkpt><trkpt lat="45.76431888440401" lon="8.677615471788359"><ele>265.0</ele><time>2026-04-19T10:54:15Z</time></trkpt><trkpt lat="45.76439195264914" lon="8.677606386266822"><ele>265.0</ele><time>2026-04-19T10:54:16Z</time></trkpt><trkpt lat="45.764468127284815" lon="8.67758946338553"><ele>264.5</ele><time>2026-04-19T10:54:17Z</time></trkpt><trkpt lat="45.764545378862564" lon="8.677573324630753"><ele>264.0</ele><time>2026-04-19T10:54:18Z</time></trkpt><trkpt lat="45.764627773412805" lon="8.677562139253721"><ele>263.5</ele><time>2026-04-19T10:54:19Z</time></trkpt><trkpt lat="45.76471153614662" lon="8.677553531728245"><ele>263.0</ele><time>2026-04-19T10:54:20Z</time></trkpt><trkpt lat="45.764795974067695" lon="8.677542615804782"><ele>262.5</ele><time>2026-04-19T10:54:21Z</time></trkpt><trkpt lat="45.764877769262256" lon="8.677538284116245"><ele>262.0</ele><time>2026-04-19T10:54:22Z</time></trkpt><trkpt lat="45.76495744397293" lon="8.677533783731672"><ele>262.0</ele><time>2026-04-19T10:54:23Z</time></trkpt><trkpt lat="45.76503800074051" lon="8.677526045856247"><ele>262.0</ele><time>2026-04-19T10:54:24Z</time></trkpt><trkpt lat="45.7651200460517" lon="8.677518535200107"><ele>262.0</ele><time>2026-04-19T10:54:25Z</time></trkpt><trkpt lat="45.76519604147529" lon="8.67739076391056"><ele>262.0</ele><time>2026-04-19T10:54:26Z</time></trkpt><trkpt lat="45.76527941803301" lon="8.677382305204345"><ele>262.0</ele><time>2026-04-19T10:54:27Z</time></trkpt><trkpt lat="45.76536323962084" lon="8.6773746792905"><ele>262.0</ele><time>2026-04-19T10:54:28Z</time></trkpt><trkpt lat="45.765449376037864" lon="8.677372637080763"><ele>260.8</ele><time>2026-04-19T10:54:29Z</time></trkpt><trkpt lat="45.76553457521443" lon="8.67737440268647"><ele>259.6</ele><time>2026-04-19T10:54:30Z</time></trkpt><trkpt lat="45.765621740503605" lon="8.677379680025041"><ele>258.40000000000003</ele><time>2026-04-19T10:54:31Z</time></trkpt><trkpt lat="45.765713580890015" lon="8.677389781295057"><ele>257.2</ele><time>2026-04-19T10:54:32Z</time></trkpt><trkpt lat="45.76581465169221" lon="8.67740258931601"><ele>256.0</ele><time>2026-04-19T10:54:33Z</time></trkpt><trkpt lat="45.76590572756186" lon="8.677416938286262"><ele>255.99999999999997</ele><time>2026-04-19T10:54:34Z</time></trkpt><trkpt lat="45.76599079865889" lon="8.677434901828052"><ele>256.0</ele><time>2026-04-19T10:54:35Z</time></trkpt><trkpt lat="45.766071541750385" lon="8.677453107352855"><ele>256.0</ele><time>2026-04-19T10:54:36Z</time></trkpt><trkpt lat="45.76615076251563" lon="8.677476409478045"><ele>256.0</ele><time>2026-04-19T10:54:37Z</time></trkpt><trkpt lat="45.76622993062226" lon="8.677501515538367"><ele>255.99999999999997</ele><time>2026-04-19T10:54:38Z</time></trkpt><trkpt lat="45.76630243914413" lon="8.677525666359536"><ele>256.0</ele><time>2026-04-19T10:54:39Z</time></trkpt><trkpt lat="45.76637152406837" lon="8.677552090354636"><ele>256.40000000000003</ele><time>2026-04-19T10:54:40Z</time></trkpt><trkpt lat="45.76648215298053" lon="8.677599003721793"><ele>256.8</ele><time>2026-04-19T10:54:42Z</time></trkpt><trkpt lat="45.76655530643964" lon="8.677632591400553"><ele>257.20000000000005</ele><time>2026-04-19T10:54:44Z</time></trkpt><trkpt lat="45.766550882302354" lon="8.677886811090783"><ele>257.6</ele><time>2026-04-19T10:54:47Z</time></trkpt><trkpt lat="45.76650027051532" lon="8.677969568052443"><ele>258.0</ele><time>2026-04-19T10:54:49Z</time></trkpt><trkpt lat="45.766468488677724" lon="8.678063731097145"><ele>258.0</ele><time>2026-04-19T10:54:51Z</time></trkpt><trkpt lat="45.76643101344824" lon="8.67816988865822"><ele>258.0</ele><time>2026-04-19T10:54:53Z</time></trkpt><trkpt lat="45.76639520605287" lon="8.67828501087452"><ele>258.0</ele><time>2026-04-19T10:54:55Z</time></trkpt><trkpt lat="45.766370221013865" lon="8.678410487655285"><ele>258.0</ele><time>2026-04-19T10:54:57Z</time></trkpt><trkpt lat="45.76636091357661" lon="8.678545466539376"><ele>258.0</ele><time>2026-04-19T10:54:59Z</time></trkpt><trkpt lat="45.76643896071308" lon="8.678681822262988"><ele>257.2</ele><time>2026-04-19T10:55:01Z</time></trkpt><trkpt lat="45.76653232610647" lon="8.678792211755793"><ele>256.4</ele><time>2026-04-19T10:55:03Z</time></trkpt><trkpt lat="45.76659638702774" lon="8.67890692088485"><ele>255.59999999999997</ele><time>2026-04-19T10:55:05Z</time></trkpt><trkpt lat="45.76666028171519" lon="8.67901081368716"><ele>254.79999999999998</ele><time>2026-04-19T10:55:07Z</time></trkpt><trkpt lat="45.76670512423463" lon="8.679123428690666"><ele>254.0</ele><time>2026-04-19T10:55:09Z</time></trkpt><trkpt lat="45.76676458378228" lon="8.679209923835897"><ele>254.00000000000003</ele><time>2026-04-19T10:55:11Z</time></trkpt><trkpt lat="45.766839081668714" lon="8.679241505668749"><ele>254.0</ele><time>2026-04-19T10:55:13Z</time></trkpt><trkpt lat="45.76690135523973" lon="8.679257908571774"><ele>254.0</ele><time>2026-04-19T10:55:15Z</time></trkpt><trkpt lat="45.76698249668703" lon="8.679281334763612"><ele>254.0</ele><time>2026-04-19T10:55:17.999Z</time></trkpt><trkpt lat="45.76704549191839" lon="8.679300680456599"><ele>254.00000000000003</ele><time>2026-04-19T10:55:19.999Z</time></trkpt><trkpt lat="45.76712562300069" lon="8.67933132675944"><ele>254.0</ele><time>2026-04-19T10:55:21.999Z</time></trkpt><trkpt lat="45.76721896966376" lon="8.67941236750564"><ele>254.39999999999998</ele><time>2026-04-19T10:55:23.999Z</time></trkpt><trkpt lat="45.76729388755835" lon="8.67952818316749"><ele>254.79999999999998</ele><time>2026-04-19T10:55:25.999Z</time></trkpt><trkpt lat="45.76736759164841" lon="8.679672607686106"><ele>255.20000000000002</ele><time>2026-04-19T10:55:27.999Z</time></trkpt><trkpt lat="45.76739889667381" lon="8.679751095906695"><ele>255.60000000000002</ele><time>2026-04-19T10:55:28.999Z</time></trkpt><trkpt lat="45.76744311497647" lon="8.67990984141037"><ele>256.0</ele><time>2026-04-19T10:55:30.999Z</time></trkpt><trkpt lat="45.76748300807908" lon="8.680031327619222"><ele>256.0</ele><time>2026-04-19T10:55:32.999Z</time></trkpt><trkpt lat="45.767501506308385" lon="8.68012519176563"><ele>255.99999999999997</ele><time>2026-04-19T10:55:34.999Z</time></trkpt><trkpt lat="45.76752686271146" lon="8.680218769448016"><ele>256.0</ele><time>2026-04-19T10:55:36.999Z</time></trkpt><trkpt lat="45.76752076769159" lon="8.680311797777991"><ele>256.0</ele><time>2026-04-19T10:55:38.999Z</time></trkpt><trkpt lat="45.767521718625176" lon="8.680406374425681"><ele>255.99999999999997</ele><time>2026-04-19T10:55:40.999Z</time></trkpt><trkpt lat="45.767528063780254" lon="8.68050612340471"><ele>256.0</ele><time>2026-04-19T10:55:42.999Z</time></trkpt><trkpt lat="45.76753545879099" lon="8.680607118742403"><ele>256.0</ele><time>2026-04-19T10:55:44.999Z</time></trkpt><trkpt lat="45.76753480723264" lon="8.680705091004112"><ele>256.1428571428571</ele><time>2026-04-19T10:55:46.999Z</time></trkpt><trkpt lat="45.76753614084884" lon="8.680800678075968"><ele>256.2857142857143</ele><time>2026-04-19T10:55:48.999Z</time></trkpt><trkpt lat="45.76753977742222" lon="8.68089921104395"><ele>256.42857142857144</ele><time>2026-04-19T10:55:50.999Z</time></trkpt><trkpt lat="45.76753567966101" lon="8.680998923862818"><ele>256.57142857142856</ele><time>2026-04-19T10:55:52.999Z</time></trkpt><trkpt lat="45.76752909530073" lon="8.681092814849167"><ele>256.7142857142857</ele><time>2026-04-19T10:55:54.999Z</time></trkpt><trkpt lat="45.76756480944842" lon="8.681195359120846"><ele>256.85714285714283</ele><time>2026-04-19T10:55:57.999Z</time></trkpt><trkpt lat="45.76765787602636" lon="8.681215734190774"><ele>257.0</ele><time>2026-04-19T10:56:00.999Z</time></trkpt><trkpt lat="45.767749014699874" lon="8.681224461887355"><ele>257.0</ele><time>2026-04-19T10:56:03.999Z</time></trkpt><trkpt lat="45.7678121335206" lon="8.68124525896921"><ele>257.0</ele><time>2026-04-19T10:56:05.999Z</time></trkpt><trkpt lat="45.76787699405525" lon="8.681266127757429"><ele>257.0</ele><time>2026-04-19T10:56:07.999Z</time></trkpt><trkpt lat="45.76794067097988" lon="8.681286112085012"><ele>257.0</ele><time>2026-04-19T10:56:09.999Z</time></trkpt><trkpt lat="45.76800523525993" lon="8.68131411863405"><ele>257.0</ele><time>2026-04-19T10:56:11.999Z</time></trkpt><trkpt lat="45.76807107001873" lon="8.681351269910364"><ele>257.0</ele><time>2026-04-19T10:56:14.001Z</time></trkpt><trkpt lat="45.76813942982447" lon="8.681371913918179"><ele>257.0</ele><time>2026-04-19T10:56:16.001Z</time></trkpt><trkpt lat="45.76821147769478" lon="8.681369594822078"><ele>257.0</ele><time>2026-04-19T10:56:18.001Z</time></trkpt><trkpt lat="45.768279487133995" lon="8.681405915711904"><ele>257.0</ele><time>2026-04-19T10:56:20.001Z</time></trkpt><trkpt lat="45.768349626936335" lon="8.681410063339937"><ele>257.0</ele><time>2026-04-19T10:56:22.001Z</time></trkpt><trkpt lat="45.768435701191535" lon="8.681410187792157"><ele>257.0</ele><time>2026-04-19T10:56:25.001Z</time></trkpt><trkpt lat="45.76846540615076" lon="8.68151496104191"><ele>257.0</ele><time>2026-04-19T10:56:28.001Z</time></trkpt><trkpt lat="45.768436419195744" lon="8.681640364370677"><ele>257.0</ele><time>2026-04-19T10:56:31Z</time></trkpt><trkpt lat="45.76842283547655" lon="8.681769469783067"><ele>257.0</ele><time>2026-04-19T10:56:34Z</time></trkpt><trkpt lat="45.768413194825975" lon="8.681884586645962"><ele>257.0</ele><time>2026-04-19T10:56:37Z</time></trkpt><trkpt lat="45.76842929480613" lon="8.681982560603984"><ele>257.0</ele><time>2026-04-19T10:56:40Z</time></trkpt><trkpt lat="45.76842164701773" lon="8.682108922538596"><ele>257.0</ele><time>2026-04-19T10:56:43Z</time></trkpt><trkpt lat="45.76841454611041" lon="8.682246193015864"><ele>257.0</ele><time>2026-04-19T10:56:46Z</time></trkpt><trkpt lat="45.768400100555596" lon="8.682368873849256"><ele>257.0</ele><time>2026-04-19T10:56:49Z</time></trkpt><trkpt lat="45.768411817747364" lon="8.68247437700931"><ele>257.1428571428571</ele><time>2026-04-19T10:56:51Z</time></trkpt><trkpt lat="45.76839742519588" lon="8.682580162950858"><ele>257.2857142857143</ele><time>2026-04-19T10:56:53Z</time></trkpt><trkpt lat="45.768402786295056" lon="8.68267939153189"><ele>257.42857142857144</ele><time>2026-04-19T10:56:55Z</time></trkpt><trkpt lat="45.7684034786232" lon="8.682772409967525"><ele>257.57142857142856</ele><time>2026-04-19T10:56:57Z</time></trkpt><trkpt lat="45.768405623662794" lon="8.682863997173378"><ele>257.7142857142857</ele><time>2026-04-19T10:56:59Z</time></trkpt><trkpt lat="45.7684076432103" lon="8.682959895523709"><ele>257.85714285714283</ele><time>2026-04-19T10:57:01Z</time></trkpt><trkpt lat="45.768403565128054" lon="8.683055859285444"><ele>258.0</ele><time>2026-04-19T10:57:03Z</time></trkpt><trkpt lat="45.768403033931904" lon="8.683162652075083"><ele>257.8333333333333</ele><time>2026-04-19T10:57:05Z</time></trkpt><trkpt lat="45.76839511159289" lon="8.683270952463053"><ele>257.6666666666667</ele><time>2026-04-19T10:57:07Z</time></trkpt><trkpt lat="45.768386458017716" lon="8.683370064274678"><ele>257.5</ele><time>2026-04-19T10:57:09Z</time></trkpt><trkpt lat="45.768378387868296" lon="8.683475133453175"><ele>257.33333333333337</ele><time>2026-04-19T10:57:11Z</time></trkpt><trkpt lat="45.76835466230026" lon="8.683578948859376"><ele>257.1666666666667</ele><time>2026-04-19T10:57:13Z</time></trkpt><trkpt lat="45.76835424289002" lon="8.68369324371268"><ele>257.0</ele><time>2026-04-19T10:57:15Z</time></trkpt><trkpt lat="45.768337087967566" lon="8.683797656364673"><ele>257.0</ele><time>2026-04-19T10:57:17Z</time></trkpt><trkpt lat="45.768319744037726" lon="8.683899348700102"><ele>257.0</ele><time>2026-04-19T10:57:19Z</time></trkpt><trkpt lat="45.7683063749181" lon="8.684006862283466"><ele>257.0</ele><time>2026-04-19T10:57:21Z</time></trkpt><trkpt lat="45.76829887274162" lon="8.684111333795423"><ele>257.0</ele><time>2026-04-19T10:57:23Z</time></trkpt><trkpt lat="45.76829433001168" lon="8.684207713372874"><ele>257.0</ele><time>2026-04-19T10:57:25Z</time></trkpt><trkpt lat="45.76827417538553" lon="8.68430187943909"><ele>257.0</ele><time>2026-04-19T10:57:27Z</time></trkpt><trkpt lat="45.76843549773001" lon="8.684384923813317"><ele>257.0</ele><time>2026-04-19T10:57:33Z</time></trkpt><trkpt lat="45.76851318287676" lon="8.684375384227717"><ele>257.0</ele><time>2026-04-19T10:57:45Z</time></trkpt><trkpt lat="45.768588483482716" lon="8.684386836876339"><ele>257.0</ele><time>2026-04-19T10:57:47.999Z</time></trkpt><trkpt lat="45.768679407413984" lon="8.684392530930976"><ele>257.0</ele><time>2026-04-19T10:57:50.999Z</time></trkpt><trkpt lat="45.76877054221389" lon="8.684413739538302"><ele>257.0</ele><time>2026-04-19T10:57:53.999Z</time></trkpt><trkpt lat="45.76883477589173" lon="8.684418938495009"><ele>257.0</ele><time>2026-04-19T10:57:55.999Z</time></trkpt><trkpt lat="45.76892751115974" lon="8.684431295827954"><ele>257.2857142857143</ele><time>2026-04-19T10:57:58.999Z</time></trkpt><trkpt lat="45.76899253566372" lon="8.684444936642814"><ele>257.57142857142856</ele><time>2026-04-19T10:58:00.999Z</time></trkpt><trkpt lat="45.7690576245433" lon="8.684443907191012"><ele>257.8571428571429</ele><time>2026-04-19T10:58:02.999Z</time></trkpt><trkpt lat="45.7691239245308" lon="8.684454584200045"><ele>258.1428571428571</ele><time>2026-04-19T10:58:04.999Z</time></trkpt><trkpt lat="45.76919054068017" lon="8.684453451635555"><ele>258.42857142857144</ele><time>2026-04-19T10:58:06.999Z</time></trkpt><trkpt lat="45.769277241989315" lon="8.684464859916728"><ele>258.7142857142857</ele><time>2026-04-19T10:58:09.999Z</time></trkpt><trkpt lat="45.76934232590283" lon="8.684469122356946"><ele>259.0</ele><time>2026-04-19T10:58:11.999Z</time></trkpt><trkpt lat="45.76941511315224" lon="8.684480454424019"><ele>259.0</ele><time>2026-04-19T10:58:13.999Z</time></trkpt><trkpt lat="45.76949708088504" lon="8.684474947699501"><ele>259.0</ele><time>2026-04-19T10:58:15.999Z</time></trkpt><trkpt lat="45.76958459233464" lon="8.684483678878888"><ele>259.0</ele><time>2026-04-19T10:58:17.999Z</time></trkpt><trkpt lat="45.769674107021885" lon="8.684489270070246"><ele>259.0</ele><time>2026-04-19T10:58:20.001Z</time></trkpt><trkpt lat="45.769766616103595" lon="8.684496654839613"><ele>259.0</ele><time>2026-04-19T10:58:22.001Z</time></trkpt><trkpt lat="45.76986202099518" lon="8.684507525564431"><ele>259.0</ele><time>2026-04-19T10:58:24.001Z</time></trkpt><trkpt lat="45.76995719773539" lon="8.68450981527889"><ele>259.0</ele><time>2026-04-19T10:58:26.001Z</time></trkpt><trkpt lat="45.770048528193385" lon="8.684501273623102"><ele>259.0</ele><time>2026-04-19T10:58:28.001Z</time></trkpt><trkpt lat="45.770140927176364" lon="8.68452776341276"><ele>259.0</ele><time>2026-04-19T10:58:30.001Z</time></trkpt><trkpt lat="45.77021733804851" lon="8.684597982277152"><ele>259.0</ele><time>2026-04-19T10:58:32.001Z</time></trkpt><trkpt lat="45.770192211115585" lon="8.684744503810318"><ele>259.0</ele><time>2026-04-19T10:58:34.001Z</time></trkpt><trkpt lat="45.77020999797922" lon="8.684887777682869"><ele>259.0</ele><time>2026-04-19T10:58:36.001Z</time></trkpt><trkpt lat="45.77020493576362" lon="8.685035772331034"><ele>259.0</ele><time>2026-04-19T10:58:38.001Z</time></trkpt><trkpt lat="45.77019007253777" lon="8.685175349566785"><ele>259.0</ele><time>2026-04-19T10:58:40.001Z</time></trkpt><trkpt lat="45.77017513544722" lon="8.685316447594975"><ele>259.0</ele><time>2026-04-19T10:58:42.001Z</time></trkpt><trkpt lat="45.77015480255129" lon="8.685457213279882"><ele>259.0</ele><time>2026-04-19T10:58:44Z</time></trkpt><trkpt lat="45.77013805029343" lon="8.68560855464496"><ele>258.8</ele><time>2026-04-19T10:58:46Z</time></trkpt><trkpt lat="45.770116883437204" lon="8.685758400858335"><ele>258.59999999999997</ele><time>2026-04-19T10:58:48Z</time></trkpt><trkpt lat="45.770100778486984" lon="8.685902834440448"><ele>258.4</ele><time>2026-04-19T10:58:50Z</time></trkpt><trkpt lat="45.770085727163305" lon="8.686035780261795"><ele>258.2</ele><time>2026-04-19T10:58:52Z</time></trkpt><trkpt lat="45.770078126021545" lon="8.686139868860838"><ele>258.0</ele><time>2026-04-19T10:58:54Z</time></trkpt><trkpt lat="45.7700656384653" lon="8.686259854666094"><ele>258.0</ele><time>2026-04-19T10:58:56Z</time></trkpt><trkpt lat="45.77005534226888" lon="8.686411950964857"><ele>258.0</ele><time>2026-04-19T10:58:58Z</time></trkpt><trkpt lat="45.7700523047634" lon="8.686565840734739"><ele>258.0</ele><time>2026-04-19T10:59:00Z</time></trkpt><trkpt lat="45.77004082428858" lon="8.686715864270633"><ele>258.0</ele><time>2026-04-19T10:59:02Z</time></trkpt><trkpt lat="45.77003003732989" lon="8.686864734966019"><ele>258.0</ele><time>2026-04-19T10:59:04Z</time></trkpt><trkpt lat="45.770022529064214" lon="8.687011254353253"><ele>258.2</ele><time>2026-04-19T10:59:06Z</time></trkpt><trkpt lat="45.770020970514175" lon="8.687154458023086"><ele>258.4</ele><time>2026-04-19T10:59:08Z</time></trkpt><trkpt lat="45.77002395635472" lon="8.687307379866215"><ele>258.59999999999997</ele><time>2026-04-19T10:59:10Z</time></trkpt><trkpt lat="45.77003006167003" lon="8.687457213456044"><ele>258.8</ele><time>2026-04-19T10:59:12Z</time></trkpt><trkpt lat="45.770032164299856" lon="8.687620842415704"><ele>259.0</ele><time>2026-04-19T10:59:14Z</time></trkpt><trkpt lat="45.77002387358852" lon="8.687711200020054"><ele>258.5</ele><time>2026-04-19T10:59:15Z</time></trkpt><trkpt lat="45.77002785775732" lon="8.687893735404675"><ele>258.0</ele><time>2026-04-19T10:59:17Z</time></trkpt><trkpt lat="45.77003611348099" lon="8.68798950287302"><ele>257.5</ele><time>2026-04-19T10:59:18Z</time></trkpt><trkpt lat="45.77004845682854" lon="8.688090496091839"><ele>257.0</ele><time>2026-04-19T10:59:19Z</time></trkpt><trkpt lat="45.770068314679634" lon="8.688192532956434"><ele>256.5</ele><time>2026-04-19T10:59:20Z</time></trkpt><trkpt lat="45.77009032166015" lon="8.688294142420123"><ele>256.0</ele><time>2026-04-19T10:59:21Z</time></trkpt><trkpt lat="45.770115875918066" lon="8.68839083704777"><ele>255.99999999999997</ele><time>2026-04-19T10:59:22Z</time></trkpt><trkpt lat="45.770141895720705" lon="8.688487156615334"><ele>256.0</ele><time>2026-04-19T10:59:23Z</time></trkpt><trkpt lat="45.77016777274937" lon="8.688579333528349"><ele>256.0</ele><time>2026-04-19T10:59:24Z</time></trkpt><trkpt lat="45.77019615293228" lon="8.688661439248595"><ele>256.0</ele><time>2026-04-19T10:59:25Z</time></trkpt><trkpt lat="45.77024840878263" lon="8.68880149524834"><ele>255.99999999999997</ele><time>2026-04-19T10:59:27Z</time></trkpt><trkpt lat="45.77030024534713" lon="8.688953334764642"><ele>256.0</ele><time>2026-04-19T10:59:29Z</time></trkpt><trkpt lat="45.77034732004171" lon="8.68911721130383"><ele>255.83333333333331</ele><time>2026-04-19T10:59:31Z</time></trkpt><trkpt lat="45.7704129761161" lon="8.689276916198734"><ele>255.66666666666666</ele><time>2026-04-19T10:59:33Z</time></trkpt><trkpt lat="45.770464010568574" lon="8.689347404821703"><ele>255.5</ele><time>2026-04-19T10:59:34Z</time></trkpt><trkpt lat="45.77053324365888" lon="8.689400796495756"><ele>255.33333333333331</ele><time>2026-04-19T10:59:35Z</time></trkpt><trkpt lat="45.77060186304508" lon="8.68944821349885"><ele>255.16666666666666</ele><time>2026-04-19T10:59:36Z</time></trkpt><trkpt lat="45.77066461206265" lon="8.689483555492911"><ele>255.0</ele><time>2026-04-19T10:59:37Z</time></trkpt><trkpt lat="45.770721712168246" lon="8.689539731845342"><ele>253.83333333333334</ele><time>2026-04-19T10:59:38Z</time></trkpt><trkpt lat="45.77076999531239" lon="8.689610765892601"><ele>252.66666666666669</ele><time>2026-04-19T10:59:39Z</time></trkpt><trkpt lat="45.770816059977676" lon="8.689684159818494"><ele>251.5</ele><time>2026-04-19T10:59:40Z</time></trkpt><trkpt lat="45.77086649601833" lon="8.689749404361054"><ele>250.33333333333334</ele><time>2026-04-19T10:59:41Z</time></trkpt><trkpt lat="45.77093279563144" lon="8.689790490882466"><ele>249.16666666666669</ele><time>2026-04-19T10:59:42Z</time></trkpt><trkpt lat="45.77105120008106" lon="8.689816275154465"><ele>248.0</ele><time>2026-04-19T10:59:44Z</time></trkpt><trkpt lat="45.77116383409554" lon="8.689795096410307"><ele>247.4</ele><time>2026-04-19T10:59:46Z</time></trkpt><trkpt lat="45.771282944012206" lon="8.689786916065449"><ele>246.8</ele><time>2026-04-19T10:59:48Z</time></trkpt><trkpt lat="45.77134645363866" lon="8.68977790400422"><ele>246.2</ele><time>2026-04-19T10:59:49Z</time></trkpt><trkpt lat="45.77146484131081" lon="8.689757935163843"><ele>245.6</ele><time>2026-04-19T10:59:51Z</time></trkpt><trkpt lat="45.77158027194334" lon="8.689743013909359"><ele>245.0</ele><time>2026-04-19T10:59:52.999Z</time></trkpt><trkpt lat="45.77169014161657" lon="8.689679174447223"><ele>245.00000000000003</ele><time>2026-04-19T10:59:54.999Z</time></trkpt><trkpt lat="45.771734858581056" lon="8.689611994365643"><ele>245.0</ele><time>2026-04-19T10:59:55.999Z</time></trkpt><trkpt lat="45.771775304549706" lon="8.689539305742832"><ele>245.0</ele><time>2026-04-19T10:59:56.999Z</time></trkpt><trkpt lat="45.771826859321465" lon="8.68947439824952"><ele>245.0</ele><time>2026-04-19T10:59:57.999Z</time></trkpt><trkpt lat="45.77193451237701" lon="8.689388048089139"><ele>245.00000000000003</ele><time>2026-04-19T10:59:59.999Z</time></trkpt><trkpt lat="45.77200621345002" lon="8.689253221377419"><ele>245.0</ele><time>2026-04-19T11:00:01.999Z</time></trkpt><trkpt lat="45.772038280053195" lon="8.68911892742632"><ele>244.83333333333334</ele><time>2026-04-19T11:00:03.999Z</time></trkpt><trkpt lat="45.77206403984048" lon="8.688968421580334"><ele>244.66666666666669</ele><time>2026-04-19T11:00:05.999Z</time></trkpt><trkpt lat="45.772066126137055" lon="8.688843203617209"><ele>244.5</ele><time>2026-04-19T11:00:07.999Z</time></trkpt><trkpt lat="45.772083262950005" lon="8.688755391469408"><ele>244.33333333333331</ele><time>2026-04-19T11:00:09.999Z</time></trkpt><trkpt lat="45.772126547069064" lon="8.688687221248092"><ele>244.16666666666666</ele><time>2026-04-19T11:00:12.999Z</time></trkpt><trkpt lat="45.772168727374044" lon="8.68859785823426"><ele>244.0</ele><time>2026-04-19T11:00:15.999Z</time></trkpt><trkpt lat="45.77221337635715" lon="8.688499205768144"><ele>245.16666666666666</ele><time>2026-04-19T11:00:18.999Z</time></trkpt><trkpt lat="45.77226554060115" lon="8.688409314078244"><ele>246.33333333333331</ele><time>2026-04-19T11:00:21.999Z</time></trkpt><trkpt lat="45.77232045763867" lon="8.688343604130393"><ele>247.5</ele><time>2026-04-19T11:00:25.001Z</time></trkpt><trkpt lat="45.77240053138309" lon="8.688333082408938"><ele>248.66666666666669</ele><time>2026-04-19T11:00:28.001Z</time></trkpt><trkpt lat="45.77248152648725" lon="8.688333825399264"><ele>249.83333333333334</ele><time>2026-04-19T11:00:31.001Z</time></trkpt><trkpt lat="45.77256253371407" lon="8.688333531594772"><ele>251.0</ele><time>2026-04-19T11:00:34.001Z</time></trkpt><trkpt lat="45.772643577472984" lon="8.688324961841648"><ele>251.00000000000003</ele><time>2026-04-19T11:00:37.001Z</time></trkpt><trkpt lat="45.772724365708136" lon="8.688312655449176"><ele>251.0</ele><time>2026-04-19T11:00:40.001Z</time></trkpt><trkpt lat="45.772800686487884" lon="8.688292678789677"><ele>251.0</ele><time>2026-04-19T11:00:43.001Z</time></trkpt><trkpt lat="45.77287553836582" lon="8.688266670142989"><ele>251.0</ele><time>2026-04-19T11:00:46.001Z</time></trkpt><trkpt lat="45.77295612488624" lon="8.688248258061597"><ele>251.00000000000003</ele><time>2026-04-19T11:00:49.001Z</time></trkpt><trkpt lat="45.77303285867304" lon="8.68821524266693"><ele>251.0</ele><time>2026-04-19T11:00:52.001Z</time></trkpt><trkpt lat="45.77311691024608" lon="8.688190080026322"><ele>251.00000000000003</ele><time>2026-04-19T11:00:55Z</time></trkpt><trkpt lat="45.773191150123374" lon="8.688158033864795"><ele>251.0</ele><time>2026-04-19T11:00:58Z</time></trkpt><trkpt lat="45.773266848262566" lon="8.688128597642994"><ele>251.0</ele><time>2026-04-19T11:01:01Z</time></trkpt><trkpt lat="45.773338978896206" lon="8.688088675121456"><ele>251.0</ele><time>2026-04-19T11:01:04Z</time></trkpt><trkpt lat="45.77341811333778" lon="8.688044047033099"><ele>251.00000000000003</ele><time>2026-04-19T11:01:07Z</time></trkpt><trkpt lat="45.7734986157664" lon="8.68799733926247"><ele>251.0</ele><time>2026-04-19T11:01:10Z</time></trkpt><trkpt lat="45.77357503692059" lon="8.687944287176554"><ele>249.66666666666669</ele><time>2026-04-19T11:01:13Z</time></trkpt><trkpt lat="45.77366159068475" lon="8.687903052065279"><ele>248.33333333333334</ele><time>2026-04-19T11:01:16Z</time></trkpt><trkpt lat="45.77374354251051" lon="8.687845187277945"><ele>247.0</ele><time>2026-04-19T11:01:19Z</time></trkpt><trkpt lat="45.773818292160755" lon="8.687793413823965"><ele>245.66666666666669</ele><time>2026-04-19T11:01:22Z</time></trkpt><trkpt lat="45.77389380868943" lon="8.687731826588386"><ele>244.33333333333334</ele><time>2026-04-19T11:01:25Z</time></trkpt><trkpt lat="45.773966727124304" lon="8.687675151393616"><ele>243.0</ele><time>2026-04-19T11:01:28Z</time></trkpt><trkpt lat="45.77403954383059" lon="8.687621275400108"><ele>243.0</ele><time>2026-04-19T11:01:31Z</time></trkpt><trkpt lat="45.77411058739414" lon="8.687561071158564"><ele>243.0</ele><time>2026-04-19T11:01:34Z</time></trkpt><trkpt lat="45.77417430488284" lon="8.687508101132519"><ele>243.0</ele><time>2026-04-19T11:01:37Z</time></trkpt><trkpt lat="45.77423726168276" lon="8.687463314837855"><ele>243.0</ele><time>2026-04-19T11:01:40Z</time></trkpt><trkpt lat="45.77429381502307" lon="8.687410192620392"><ele>243.0</ele><time>2026-04-19T11:01:43Z</time></trkpt><trkpt lat="45.77435217768741" lon="8.687368433969015"><ele>243.0</ele><time>2026-04-19T11:02:28.999Z</time></trkpt><trkpt lat="45.77441924925868" lon="8.687308219833653"><ele>243.0</ele><time>2026-04-19T11:02:34Z</time></trkpt><trkpt lat="45.77447559633735" lon="8.687246366946226"><ele>243.0</ele><time>2026-04-19T11:02:37Z</time></trkpt><trkpt lat="45.77453350307174" lon="8.687186367242285"><ele>243.0</ele><time>2026-04-19T11:02:40Z</time></trkpt><trkpt lat="45.77459007187856" lon="8.687124538988634"><ele>243.0</ele><time>2026-04-19T11:02:43Z</time></trkpt><trkpt lat="45.77464302167348" lon="8.687061145705286"><ele>243.0</ele><time>2026-04-19T11:02:46Z</time></trkpt><trkpt lat="45.77469717446851" lon="8.686995708890105"><ele>243.0</ele><time>2026-04-19T11:02:49Z</time></trkpt><trkpt lat="45.77475873751513" lon="8.686931085590158"><ele>243.0</ele><time>2026-04-19T11:02:52Z</time></trkpt><trkpt lat="45.77482447532591" lon="8.686880142277206"><ele>243.0</ele><time>2026-04-19T11:02:55Z</time></trkpt><trkpt lat="45.77490869556538" lon="8.686860510496114"><ele>245.14285714285714</ele><time>2026-04-19T11:02:58Z</time></trkpt><trkpt lat="45.77499135352493" lon="8.686824698296334"><ele>247.28571428571428</ele><time>2026-04-19T11:03:01Z</time></trkpt><trkpt lat="45.775053496968795" lon="8.686800767937086"><ele>249.42857142857142</ele><time>2026-04-19T11:03:03Z</time></trkpt><trkpt lat="45.775117831836155" lon="8.68678151205007"><ele>251.57142857142856</ele><time>2026-04-19T11:03:05Z</time></trkpt><trkpt lat="45.77518245861042" lon="8.686759776224486"><ele>253.71428571428572</ele><time>2026-04-19T11:03:07Z</time></trkpt><trkpt lat="45.775245338865155" lon="8.686731203889849"><ele>255.85714285714283</ele><time>2026-04-19T11:03:09Z</time></trkpt><trkpt lat="45.775309227407" lon="8.686706915799048"><ele>258.0</ele><time>2026-04-19T11:03:11Z</time></trkpt><trkpt lat="45.77537348529876" lon="8.686696232965256"><ele>257.99999999999994</ele><time>2026-04-19T11:03:13Z</time></trkpt><trkpt lat="45.77543748471058" lon="8.686703178014357"><ele>258.0</ele><time>2026-04-19T11:03:15Z</time></trkpt><trkpt lat="45.77552756452579" lon="8.686708834411176"><ele>258.0</ele><time>2026-04-19T11:03:18Z</time></trkpt><trkpt lat="45.77561723868132" lon="8.686713709215114"><ele>258.0</ele><time>2026-04-19T11:03:21Z</time></trkpt><trkpt lat="45.77564868075099" lon="8.686623988879411"><ele>258.0</ele><time>2026-04-19T11:03:24Z</time></trkpt><trkpt lat="45.775660845893206" lon="8.686533703396268"><ele>257.99999999999994</ele><time>2026-04-19T11:03:27Z</time></trkpt><trkpt lat="45.77571726181767" lon="8.686479277902139"><ele>258.0</ele><time>2026-04-19T11:03:31.999Z</time></trkpt><trkpt lat="45.775782920501214" lon="8.68645029747801"><ele>258.0</ele><time>2026-04-19T11:03:35.999Z</time></trkpt><trkpt lat="45.77586325522106" lon="8.686428406602738"><ele>258.0</ele><time>2026-04-19T11:03:39.999Z</time></trkpt><trkpt lat="45.77593324965586" lon="8.686398336958122"><ele>258.0</ele><time>2026-04-19T11:03:42.999Z</time></trkpt><trkpt lat="45.77601000098309" lon="8.686376603142547"><ele>258.0</ele><time>2026-04-19T11:03:45.999Z</time></trkpt><trkpt lat="45.77607722516414" lon="8.686341147106873"><ele>258.0</ele><time>2026-04-19T11:03:48.999Z</time></trkpt><trkpt lat="45.776151931637536" lon="8.6863225319125"><ele>258.0</ele><time>2026-04-19T11:03:51.999Z</time></trkpt><trkpt lat="45.77623415670334" lon="8.686305390239847"><ele>257.8</ele><time>2026-04-19T11:03:54.999Z</time></trkpt><trkpt lat="45.77630720378968" lon="8.686262706121"><ele>257.6</ele><time>2026-04-19T11:03:56.999Z</time></trkpt><trkpt lat="45.776410408469715" lon="8.686241269099506"><ele>257.4</ele><time>2026-04-19T11:03:58.999Z</time></trkpt><trkpt lat="45.77653432584583" lon="8.68627880241911"><ele>257.2</ele><time>2026-04-19T11:04:00.999Z</time></trkpt><trkpt lat="45.77666199504033" lon="8.68627618330914"><ele>257.0</ele><time>2026-04-19T11:04:02.999Z</time></trkpt><trkpt lat="45.776731700350055" lon="8.686260824667533"><ele>257.0</ele><time>2026-04-19T11:04:03.999Z</time></trkpt><trkpt lat="45.776801653520344" lon="8.686262242520073"><ele>257.0</ele><time>2026-04-19T11:04:04.999Z</time></trkpt><trkpt lat="45.776864806020406" lon="8.686283830594725"><ele>257.0</ele><time>2026-04-19T11:04:05.999Z</time></trkpt><trkpt lat="45.77692796004151" lon="8.686308232221343"><ele>257.0</ele><time>2026-04-19T11:04:06.999Z</time></trkpt><trkpt lat="45.77699438717745" lon="8.686322030044677"><ele>257.0</ele><time>2026-04-19T11:04:07.999Z</time></trkpt><trkpt lat="45.77705931975365" lon="8.686330491111905"><ele>257.0</ele><time>2026-04-19T11:04:08.999Z</time></trkpt><trkpt lat="45.777127643043684" lon="8.686338021435398"><ele>257.0</ele><time>2026-04-19T11:04:09.999Z</time></trkpt><trkpt lat="45.777194107462144" lon="8.686352661798766"><ele>256.7142857142857</ele><time>2026-04-19T11:04:10.999Z</time></trkpt><trkpt lat="45.77725960766036" lon="8.686361687796323"><ele>256.42857142857144</ele><time>2026-04-19T11:04:11.999Z</time></trkpt><trkpt lat="45.77732426198305" lon="8.686372200667305"><ele>256.14285714285717</ele><time>2026-04-19T11:04:12.999Z</time></trkpt><trkpt lat="45.77739118823691" lon="8.686384715251389"><ele>255.85714285714286</ele><time>2026-04-19T11:04:13.999Z</time></trkpt><trkpt lat="45.777457365970896" lon="8.686396132402399"><ele>255.5714285714286</ele><time>2026-04-19T11:04:14.999Z</time></trkpt><trkpt lat="45.77752021594164" lon="8.686407340820162"><ele>255.2857142857143</ele><time>2026-04-19T11:04:15.999Z</time></trkpt><trkpt lat="45.77764091884537" lon="8.68641680998131"><ele>255.0</ele><time>2026-04-19T11:04:17.999Z</time></trkpt><trkpt lat="45.777746112461436" lon="8.68642836464046"><ele>256.7142857142857</ele><time>2026-04-19T11:04:19.999Z</time></trkpt><trkpt lat="45.777832788772756" lon="8.686445652258751"><ele>258.42857142857144</ele><time>2026-04-19T11:04:21.999Z</time></trkpt><trkpt lat="45.777898099820945" lon="8.686455501002705"><ele>260.14285714285717</ele><time>2026-04-19T11:04:23.999Z</time></trkpt><trkpt lat="45.777977613092524" lon="8.686460374983442"><ele>261.8571428571429</ele><time>2026-04-19T11:04:27.999Z</time></trkpt><trkpt lat="45.77804928084523" lon="8.686469250592333"><ele>263.57142857142856</ele><time>2026-04-19T11:04:31.999Z</time></trkpt><trkpt lat="45.77811621728067" lon="8.68647016532062"><ele>265.28571428571433</ele><time>2026-04-19T11:04:34.999Z</time></trkpt><trkpt lat="45.77818538623596" lon="8.68646655870203"><ele>267.0</ele><time>2026-04-19T11:04:37.999Z</time></trkpt><trkpt lat="45.778257445919415" lon="8.68647868637535"><ele>267.0</ele><time>2026-04-19T11:04:40.999Z</time></trkpt><trkpt lat="45.778329580460046" lon="8.68650700721353"><ele>267.0</ele><time>2026-04-19T11:04:44.999Z</time></trkpt><trkpt lat="45.778358997665094" lon="8.686591573589618"><ele>267.0</ele><time>2026-04-19T11:05:11.999Z</time></trkpt><trkpt lat="45.77836893839947" lon="8.686682994528626"><ele>267.0</ele><time>2026-04-19T11:05:15.999Z</time></trkpt><trkpt lat="45.7783568938769" lon="8.68678385070284"><ele>267.0</ele><time>2026-04-19T11:05:17.999Z</time></trkpt><trkpt lat="45.778493363729815" lon="8.686790728229647"><ele>267.0</ele><time>2026-04-19T11:05:18.999Z</time></trkpt><trkpt lat="45.77850705120069" lon="8.686902509228453"><ele>266.6666666666667</ele><time>2026-04-19T11:05:21.999Z</time></trkpt><trkpt lat="45.77851911079172" lon="8.68700099588303"><ele>266.33333333333337</ele><time>2026-04-19T11:05:24.999Z</time></trkpt><trkpt lat="45.77855815417024" lon="8.68686521750272"><ele>266.0</ele><time>2026-04-19T11:05:25.999Z</time></trkpt><trkpt lat="45.778278064084375" lon="8.687315004896814"><ele>263.83333333333337</ele><time>2026-04-19T11:05:32.999Z</time></trkpt><trkpt lat="45.778262730909844" lon="8.68741618656692"><ele>261.6666666666667</ele><time>2026-04-19T11:05:34.999Z</time></trkpt><trkpt lat="45.77824005541733" lon="8.687562839988594"><ele>259.5</ele><time>2026-04-19T11:05:36.999Z</time></trkpt><trkpt lat="45.77818981219708" lon="8.68770554217957"><ele>257.3333333333333</ele><time>2026-04-19T11:05:38.999Z</time></trkpt><trkpt lat="45.77819814684649" lon="8.687799562030634"><ele>255.16666666666666</ele><time>2026-04-19T11:05:39.999Z</time></trkpt><trkpt lat="45.77822629732209" lon="8.687886534966996"><ele>253.0</ele><time>2026-04-19T11:05:40.999Z</time></trkpt><trkpt lat="45.77826828153087" lon="8.6879722420639"><ele>252.5714285714286</ele><time>2026-04-19T11:05:41.999Z</time></trkpt><trkpt lat="45.778312014391226" lon="8.688042385362925"><ele>252.14285714285717</ele><time>2026-04-19T11:05:42.999Z</time></trkpt><trkpt lat="45.77835930357266" lon="8.688112103998954"><ele>251.71428571428572</ele><time>2026-04-19T11:05:43.999Z</time></trkpt><trkpt lat="45.778404261654806" lon="8.68818707074242"><ele>251.2857142857143</ele><time>2026-04-19T11:05:44.999Z</time></trkpt><trkpt lat="45.77843648904095" lon="8.688267396796366"><ele>250.8571428571429</ele><time>2026-04-19T11:05:45.999Z</time></trkpt><trkpt lat="45.77848630450825" lon="8.68834426437723"><ele>250.42857142857142</ele><time>2026-04-19T11:05:46.999Z</time></trkpt><trkpt lat="45.778537431674586" lon="8.688413419488334"><ele>250.0</ele><time>2026-04-19T11:05:47.999Z</time></trkpt><trkpt lat="45.77861063705383" lon="8.688565915811699"><ele>250.99999999999997</ele><time>2026-04-19T11:05:49.999Z</time></trkpt><trkpt lat="45.77865512955556" lon="8.688638722717243"><ele>252.0</ele><time>2026-04-19T11:05:50.999Z</time></trkpt><trkpt lat="45.778707874578345" lon="8.688703592074303"><ele>253.0</ele><time>2026-04-19T11:05:51.999Z</time></trkpt><trkpt lat="45.77875369432856" lon="8.688771269859371"><ele>254.0</ele><time>2026-04-19T11:05:52.999Z</time></trkpt><trkpt lat="45.77879525103934" lon="8.688841173421476"><ele>254.99999999999997</ele><time>2026-04-19T11:05:53.999Z</time></trkpt><trkpt lat="45.77883340971919" lon="8.688913392132244"><ele>256.0</ele><time>2026-04-19T11:05:54.999Z</time></trkpt><trkpt lat="45.77890159345353" lon="8.689064675569579"><ele>256.0</ele><time>2026-04-19T11:05:56.999Z</time></trkpt><trkpt lat="45.77895992370264" lon="8.689214642280382"><ele>256.0</ele><time>2026-04-19T11:05:58.999Z</time></trkpt><trkpt lat="45.77901897738393" lon="8.689344172545754"><ele>256.0</ele><time>2026-04-19T11:06:00.999Z</time></trkpt><trkpt lat="45.779063876067404" lon="8.689459563426098"><ele>256.0</ele><time>2026-04-19T11:06:02.999Z</time></trkpt><trkpt lat="45.77910375954516" lon="8.68955687399943"><ele>256.0</ele><time>2026-04-19T11:06:04.999Z</time></trkpt><trkpt lat="45.77913667157459" lon="8.689660307289301"><ele>254.99999999999997</ele><time>2026-04-19T11:06:06.999Z</time></trkpt><trkpt lat="45.77916803469311" lon="8.689763774759355"><ele>254.0</ele><time>2026-04-19T11:06:08.999Z</time></trkpt><trkpt lat="45.779202030445006" lon="8.689863722558938"><ele>253.0</ele><time>2026-04-19T11:06:10.999Z</time></trkpt><trkpt lat="45.77923296532994" lon="8.689966520834963"><ele>252.0</ele><time>2026-04-19T11:06:12.999Z</time></trkpt><trkpt lat="45.77926738281264" lon="8.69008611155893"><ele>250.99999999999997</ele><time>2026-04-19T11:06:14.999Z</time></trkpt><trkpt lat="45.77920277341144" lon="8.690210425191523"><ele>250.0</ele><time>2026-04-19T11:06:16.999Z</time></trkpt><trkpt lat="45.77915647294467" lon="8.690299489568675"><ele>248.0</ele><time>2026-04-19T11:06:20.999Z</time></trkpt><trkpt lat="45.77917074583665" lon="8.690390646958706"><ele>248.0</ele><time>2026-04-19T11:06:22.999Z</time></trkpt><trkpt lat="45.779156535505095" lon="8.690292405453336"><ele>248.0</ele><time>2026-04-19T11:06:31.999Z</time></trkpt><trkpt lat="45.77909159722408" lon="8.690287592860154"><ele>248.0</ele><time>2026-04-19T11:06:35.998Z</time></trkpt><trkpt lat="45.779027907887375" lon="8.690325320551082"><ele>248.0</ele><time>2026-04-19T11:06:38.998Z</time></trkpt><trkpt lat="45.77896483138279" lon="8.690345828747082"><ele>248.0</ele><time>2026-04-19T11:06:41.998Z</time></trkpt></trkseg><trkseg><trkpt lat="45.77903745292941" lon="8.690325482112236"><ele>248.0</ele><time>2026-04-19T12:31:56.999Z</time></trkpt><trkpt lat="45.779080597721304" lon="8.690245034911307"><ele>248.00000000000003</ele><time>2026-04-19T12:32:30.999Z</time></trkpt><trkpt lat="45.77914910076999" lon="8.690238784773571"><ele>248.0</ele><time>2026-04-19T12:32:34.999Z</time></trkpt><trkpt lat="45.77916868064509" lon="8.690340089603609"><ele>248.0</ele><time>2026-04-19T12:32:39.999Z</time></trkpt><trkpt lat="45.779196464024295" lon="8.690423678171326"><ele>248.00000000000003</ele><time>2026-04-19T12:32:44.999Z</time></trkpt><trkpt lat="45.77922023330293" lon="8.690517196143574"><ele>248.0</ele><time>2026-04-19T12:32:48.999Z</time></trkpt><trkpt lat="45.77924935802525" lon="8.690600020346624"><ele>248.0</ele><time>2026-04-19T12:32:52.999Z</time></trkpt><trkpt lat="45.77926381385886" lon="8.690690034381666"><ele>248.0</ele><time>2026-04-19T12:32:56.999Z</time></trkpt><trkpt lat="45.779275958677125" lon="8.690778729545682"><ele>248.00000000000003</ele><time>2026-04-19T12:32:59.999Z</time></trkpt><trkpt lat="45.7793025092769" lon="8.690862597909755"><ele>248.0</ele><time>2026-04-19T12:33:02.999Z</time></trkpt><trkpt lat="45.779320087315334" lon="8.690958007058374"><ele>248.0</ele><time>2026-04-19T12:33:06.999Z</time></trkpt><trkpt lat="45.77935855513141" lon="8.691057902551394"><ele>248.00000000000003</ele><time>2026-04-19T12:33:10.999Z</time></trkpt><trkpt lat="45.7793979310391" lon="8.691160656900674"><ele>248.0</ele><time>2026-04-19T12:33:14.999Z</time></trkpt><trkpt lat="45.779433127806776" lon="8.691244742634552"><ele>248.0</ele><time>2026-04-19T12:33:19.999Z</time></trkpt><trkpt lat="45.77947131403754" lon="8.691326019624558"><ele>248.66666666666669</ele><time>2026-04-19T12:33:24.999Z</time></trkpt><trkpt lat="45.779539322136344" lon="8.69137879510648"><ele>249.33333333333334</ele><time>2026-04-19T12:33:29.999Z</time></trkpt><trkpt lat="45.77961428760094" lon="8.691362173030095"><ele>250.0</ele><time>2026-04-19T12:33:33.999Z</time></trkpt><trkpt lat="45.77968686595783" lon="8.691374105403138"><ele>250.66666666666669</ele><time>2026-04-19T12:33:37.999Z</time></trkpt><trkpt lat="45.77975313828334" lon="8.691439987930108"><ele>251.33333333333334</ele><time>2026-04-19T12:33:41.999Z</time></trkpt><trkpt lat="45.77980268116509" lon="8.691567234898667"><ele>252.0</ele><time>2026-04-19T12:33:44.999Z</time></trkpt><trkpt lat="45.77982749211681" lon="8.691681740162794"><ele>252.0</ele><time>2026-04-19T12:33:46.999Z</time></trkpt><trkpt lat="45.7798479087003" lon="8.691782985323467"><ele>252.0</ele><time>2026-04-19T12:33:48.999Z</time></trkpt><trkpt lat="45.77986434696608" lon="8.6918813661252"><ele>252.0</ele><time>2026-04-19T12:33:51Z</time></trkpt><trkpt lat="45.77989019702684" lon="8.692013462281201"><ele>252.0</ele><time>2026-04-19T12:33:54Z</time></trkpt><trkpt lat="45.779911705800124" lon="8.692110446743364"><ele>252.0</ele><time>2026-04-19T12:33:56Z</time></trkpt><trkpt lat="45.779936657020386" lon="8.692219463786564"><ele>252.0</ele><time>2026-04-19T12:33:59Z</time></trkpt><trkpt lat="45.779956491516764" lon="8.692318575688066"><ele>251.57142857142856</ele><time>2026-04-19T12:34:02Z</time></trkpt><trkpt lat="45.77997140297877" lon="8.692413902978725"><ele>251.14285714285714</ele><time>2026-04-19T12:34:05Z</time></trkpt><trkpt lat="45.78000391856384" lon="8.69252303641471"><ele>250.71428571428572</ele><time>2026-04-19T12:34:09Z</time></trkpt><trkpt lat="45.78002455567636" lon="8.69261111393173"><ele>250.28571428571428</ele><time>2026-04-19T12:34:12Z</time></trkpt><trkpt lat="45.78004943936274" lon="8.692706292191971"><ele>249.85714285714283</ele><time>2026-04-19T12:34:15Z</time></trkpt><trkpt lat="45.78007298207398" lon="8.692811818907925"><ele>249.42857142857142</ele><time>2026-04-19T12:34:18Z</time></trkpt><trkpt lat="45.780094333674015" lon="8.692914173296986"><ele>249.0</ele><time>2026-04-19T12:34:21Z</time></trkpt><trkpt lat="45.78011193062717" lon="8.693009273047785"><ele>249.0</ele><time>2026-04-19T12:34:24Z</time></trkpt><trkpt lat="45.78013406556004" lon="8.69311244687242"><ele>248.99999999999997</ele><time>2026-04-19T12:34:28Z</time></trkpt><trkpt lat="45.780176990142245" lon="8.693192591175956"><ele>249.0</ele><time>2026-04-19T12:34:33Z</time></trkpt><trkpt lat="45.78021020958589" lon="8.693284160753029"><ele>249.0</ele><time>2026-04-19T12:34:39Z</time></trkpt><trkpt lat="45.780223654594955" lon="8.693186774211366"><ele>248.99999999999997</ele><time>2026-04-19T12:34:48Z</time></trkpt><trkpt lat="45.78020888686129" lon="8.693081324762659"><ele>249.0</ele><time>2026-04-19T12:34:51.999Z</time></trkpt><trkpt lat="45.78024216868717" lon="8.692994341171795"><ele>249.0</ele><time>2026-04-19T12:34:56.999Z</time></trkpt><trkpt lat="45.78020632671744" lon="8.693094850087295"><ele>249.57142857142856</ele><time>2026-04-19T12:40:22.998Z</time></trkpt><trkpt lat="45.78021731877289" lon="8.6931920135997"><ele>250.1428571428571</ele><time>2026-04-19T12:40:26.998Z</time></trkpt><trkpt lat="45.78021536804218" lon="8.69328242484297"><ele>250.71428571428572</ele><time>2026-04-19T12:40:31.999Z</time></trkpt><trkpt lat="45.7802173647379" lon="8.693381818750103"><ele>251.28571428571428</ele><time>2026-04-19T12:40:35.999Z</time></trkpt><trkpt lat="45.7802428226253" lon="8.69348341364955"><ele>251.85714285714286</ele><time>2026-04-19T12:40:39.999Z</time></trkpt><trkpt lat="45.780263631539775" lon="8.69358643806596"><ele>252.42857142857144</ele><time>2026-04-19T12:40:42.999Z</time></trkpt><trkpt lat="45.780274879085226" lon="8.69369455560146"><ele>253.00000000000003</ele><time>2026-04-19T12:40:45.999Z</time></trkpt><trkpt lat="45.7802795727519" lon="8.693808765099762"><ele>253.00000000000003</ele><time>2026-04-19T12:40:48.999Z</time></trkpt><trkpt lat="45.78029771012393" lon="8.693919101450797"><ele>253.0</ele><time>2026-04-19T12:40:51.999Z</time></trkpt><trkpt lat="45.780345217342244" lon="8.693997400928838"><ele>253.00000000000003</ele><time>2026-04-19T12:40:54.999Z</time></trkpt><trkpt lat="45.78039766167519" lon="8.694061599006627"><ele>253.00000000000003</ele><time>2026-04-19T12:40:58.999Z</time></trkpt><trkpt lat="45.78043864954128" lon="8.694132652364125"><ele>253.0</ele><time>2026-04-19T12:41:01.999Z</time></trkpt><trkpt lat="45.780473623078805" lon="8.6942127937682"><ele>253.00000000000003</ele><time>2026-04-19T12:41:04.999Z</time></trkpt><trkpt lat="45.78048159319351" lon="8.694308333552394"><ele>253.00000000000003</ele><time>2026-04-19T12:41:07.999Z</time></trkpt><trkpt lat="45.78047946229168" lon="8.694426317537658"><ele>252.83333333333331</ele><time>2026-04-19T12:41:11.999Z</time></trkpt><trkpt lat="45.780472869281574" lon="8.694550242554676"><ele>252.66666666666666</ele><time>2026-04-19T12:41:15.999Z</time></trkpt><trkpt lat="45.78044820985295" lon="8.694648819453024"><ele>252.5</ele><time>2026-04-19T12:41:18.999Z</time></trkpt><trkpt lat="45.78042638873034" lon="8.694748870747615"><ele>252.33333333333331</ele><time>2026-04-19T12:41:21.999Z</time></trkpt><trkpt lat="45.78040761503426" lon="8.694861170357033"><ele>252.16666666666666</ele><time>2026-04-19T12:41:24.999Z</time></trkpt><trkpt lat="45.780386878354605" lon="8.694968476779543"><ele>252.0</ele><time>2026-04-19T12:41:27.999Z</time></trkpt><trkpt lat="45.780373974209006" lon="8.69507892754155"><ele>252.0</ele><time>2026-04-19T12:41:30.999Z</time></trkpt><trkpt lat="45.78034401484839" lon="8.695204433309549"><ele>252.0</ele><time>2026-04-19T12:41:33.999Z</time></trkpt><trkpt lat="45.780312607650295" lon="8.695319459352483"><ele>252.0</ele><time>2026-04-19T12:41:36.999Z</time></trkpt><trkpt lat="45.78029495509979" lon="8.695406957644224"><ele>252.0</ele><time>2026-04-19T12:41:41.999Z</time></trkpt><trkpt lat="45.78027744461104" lon="8.695520376576255"><ele>252.0</ele><time>2026-04-19T12:41:46.999Z</time></trkpt><trkpt lat="45.780260050699724" lon="8.695633602769764"><ele>252.0</ele><time>2026-04-19T12:41:50.999Z</time></trkpt><trkpt lat="45.780244450226625" lon="8.695731429522633"><ele>251.83333333333334</ele><time>2026-04-19T12:41:54.999Z</time></trkpt><trkpt lat="45.78023339275326" lon="8.695823230265853"><ele>251.66666666666669</ele><time>2026-04-19T12:41:58.999Z</time></trkpt><trkpt lat="45.78021301342434" lon="8.695932127763395"><ele>251.5</ele><time>2026-04-19T12:42:02.999Z</time></trkpt><trkpt lat="45.780198232087976" lon="8.696021559308251"><ele>251.33333333333334</ele><time>2026-04-19T12:42:05.998Z</time></trkpt><trkpt lat="45.7801907815841" lon="8.696136852064681"><ele>251.16666666666669</ele><time>2026-04-19T12:42:09.998Z</time></trkpt><trkpt lat="45.78019222360126" lon="8.696251164852383"><ele>251.0</ele><time>2026-04-19T12:42:15.999Z</time></trkpt><trkpt lat="45.780198912330256" lon="8.696378209080194"><ele>250.99999999999997</ele><time>2026-04-19T12:42:18.999Z</time></trkpt><trkpt lat="45.7801985950022" lon="8.696481222887655"><ele>251.0</ele><time>2026-04-19T12:42:21.999Z</time></trkpt><trkpt lat="45.780193545406455" lon="8.696578957180357"><ele>250.99999999999997</ele><time>2026-04-19T12:42:24.999Z</time></trkpt><trkpt lat="45.78017715026493" lon="8.696671769649843"><ele>250.99999999999997</ele><time>2026-04-19T12:42:27.999Z</time></trkpt><trkpt lat="45.78017853836236" lon="8.696765579993757"><ele>251.0</ele><time>2026-04-19T12:42:30.999Z</time></trkpt><trkpt lat="45.78021795600774" lon="8.696837135641623"><ele>250.99999999999997</ele><time>2026-04-19T12:42:33.999Z</time></trkpt><trkpt lat="45.78024875525629" lon="8.696927708563992"><ele>250.99999999999997</ele><time>2026-04-19T12:42:38.999Z</time></trkpt><trkpt lat="45.78031383136539" lon="8.696978776931129"><ele>250.85714285714283</ele><time>2026-04-19T12:42:42.999Z</time></trkpt><trkpt lat="45.780384758916085" lon="8.697004693429886"><ele>250.71428571428572</ele><time>2026-04-19T12:42:45.999Z</time></trkpt><trkpt lat="45.78044560650288" lon="8.697038679594908"><ele>250.57142857142856</ele><time>2026-04-19T12:42:49.999Z</time></trkpt><trkpt lat="45.78045913434203" lon="8.697133025590093"><ele>250.42857142857142</ele><time>2026-04-19T12:42:58.999Z</time></trkpt><trkpt lat="45.78041433517814" lon="8.697225926389798"><ele>250.28571428571428</ele><time>2026-04-19T12:43:02.999Z</time></trkpt><trkpt lat="45.78037605384042" lon="8.697307004521504"><ele>250.14285714285714</ele><time>2026-04-19T12:43:05.999Z</time></trkpt><trkpt lat="45.78031654673833" lon="8.697370560730763"><ele>250.0</ele><time>2026-04-19T12:43:08.999Z</time></trkpt><trkpt lat="45.78027206191568" lon="8.69744915197296"><ele>249.99999999999997</ele><time>2026-04-19T12:43:12Z</time></trkpt><trkpt lat="45.78022831143316" lon="8.697546886387444"><ele>250.0</ele><time>2026-04-19T12:43:15Z</time></trkpt><trkpt lat="45.780183710228386" lon="8.69763721565683"><ele>250.0</ele><time>2026-04-19T12:43:18Z</time></trkpt><trkpt lat="45.78014864161763" lon="8.697723750138046"><ele>250.0</ele><time>2026-04-19T12:43:21Z</time></trkpt><trkpt lat="45.780131245134555" lon="8.697812429845323"><ele>249.99999999999997</ele><time>2026-04-19T12:43:24Z</time></trkpt><trkpt lat="45.78004962539531" lon="8.697841218904578"><ele>250.0</ele><time>2026-04-19T12:43:28Z</time></trkpt><trkpt lat="45.779968207897376" lon="8.697830038567893"><ele>250.33333333333331</ele><time>2026-04-19T12:43:31Z</time></trkpt><trkpt lat="45.77988355611285" lon="8.697816378930257"><ele>250.66666666666666</ele><time>2026-04-19T12:43:34Z</time></trkpt><trkpt lat="45.779795653257636" lon="8.697821781472092"><ele>251.0</ele><time>2026-04-19T12:43:37Z</time></trkpt><trkpt lat="45.779711104583704" lon="8.697830878346513"><ele>251.33333333333331</ele><time>2026-04-19T12:43:40Z</time></trkpt><trkpt lat="45.77963260963665" lon="8.697849547681203"><ele>251.66666666666666</ele><time>2026-04-19T12:43:43Z</time></trkpt><trkpt lat="45.77955883168349" lon="8.697854798719327"><ele>252.0</ele><time>2026-04-19T12:43:46Z</time></trkpt><trkpt lat="45.77948725884367" lon="8.6978594849618"><ele>252.0</ele><time>2026-04-19T12:43:49Z</time></trkpt><trkpt lat="45.779418016979456" lon="8.697863050795643"><ele>252.0</ele><time>2026-04-19T12:43:52Z</time></trkpt><trkpt lat="45.779353306776564" lon="8.697877063809779"><ele>252.0</ele><time>2026-04-19T12:43:55Z</time></trkpt><trkpt lat="45.779289886354775" lon="8.697890573442024"><ele>252.0</ele><time>2026-04-19T12:43:58Z</time></trkpt><trkpt lat="45.77921925200069" lon="8.697896446573166"><ele>252.0</ele><time>2026-04-19T12:44:01Z</time></trkpt><trkpt lat="45.77914522293191" lon="8.69789317340963"><ele>252.0</ele><time>2026-04-19T12:44:04Z</time></trkpt><trkpt lat="45.77906935617596" lon="8.697880916446772"><ele>252.0</ele><time>2026-04-19T12:44:07Z</time></trkpt><trkpt lat="45.77900406243132" lon="8.69781075778653"><ele>251.5</ele><time>2026-04-19T12:44:10Z</time></trkpt><trkpt lat="45.77895009971972" lon="8.697701414106344"><ele>251.0</ele><time>2026-04-19T12:44:13Z</time></trkpt><trkpt lat="45.778912615787824" lon="8.697623670859636"><ele>250.5</ele><time>2026-04-19T12:44:15Z</time></trkpt><trkpt lat="45.77888020450905" lon="8.697542926721088"><ele>250.0</ele><time>2026-04-19T12:44:17Z</time></trkpt><trkpt lat="45.77883242983779" lon="8.69742808839631"><ele>249.5</ele><time>2026-04-19T12:44:20Z</time></trkpt><trkpt lat="45.77874874817936" lon="8.697396997522967"><ele>249.0</ele><time>2026-04-19T12:44:23Z</time></trkpt><trkpt lat="45.77866329194198" lon="8.697487020711856"><ele>249.0</ele><time>2026-04-19T12:44:25Z</time></trkpt><trkpt lat="45.77860429858455" lon="8.697565305581255"><ele>248.99999999999997</ele><time>2026-04-19T12:44:27Z</time></trkpt><trkpt lat="45.77854586402721" lon="8.697626907523848"><ele>249.0</ele><time>2026-04-19T12:44:29Z</time></trkpt><trkpt lat="45.77849434561675" lon="8.697687868830478"><ele>249.0</ele><time>2026-04-19T12:44:31Z</time></trkpt><trkpt lat="45.77844774781248" lon="8.697758509324899"><ele>248.99999999999997</ele><time>2026-04-19T12:44:33Z</time></trkpt><trkpt lat="45.77840004113022" lon="8.697840674804262"><ele>249.0</ele><time>2026-04-19T12:44:35Z</time></trkpt><trkpt lat="45.778364534629766" lon="8.697923354248049"><ele>249.0</ele><time>2026-04-19T12:44:37Z</time></trkpt><trkpt lat="45.77838527467794" lon="8.698037309518897"><ele>249.33333333333334</ele><time>2026-04-19T12:44:40Z</time></trkpt><trkpt lat="45.778446538978145" lon="8.698118490213046"><ele>249.66666666666669</ele><time>2026-04-19T12:44:43Z</time></trkpt><trkpt lat="45.778468599362334" lon="8.698208547305402"><ele>250.0</ele><time>2026-04-19T12:44:46Z</time></trkpt><trkpt lat="45.77842061447831" lon="8.698287653881017"><ele>250.33333333333334</ele><time>2026-04-19T12:44:49Z</time></trkpt><trkpt lat="45.7783416314552" lon="8.69833847138973"><ele>250.66666666666669</ele><time>2026-04-19T12:44:52Z</time></trkpt><trkpt lat="45.778259468022455" lon="8.698401239858907"><ele>251.0</ele><time>2026-04-19T12:44:55Z</time></trkpt><trkpt lat="45.77818442802124" lon="8.698439552267738"><ele>251.00000000000003</ele><time>2026-04-19T12:44:57Z</time></trkpt><trkpt lat="45.77810238714956" lon="8.698462001688746"><ele>251.0</ele><time>2026-04-19T12:44:59Z</time></trkpt><trkpt lat="45.778017459016915" lon="8.6984896434853"><ele>251.0</ele><time>2026-04-19T12:45:01Z</time></trkpt><trkpt lat="45.77793450662798" lon="8.698506830147345"><ele>251.0</ele><time>2026-04-19T12:45:03Z</time></trkpt><trkpt lat="45.777866838761064" lon="8.698569340012016"><ele>251.00000000000003</ele><time>2026-04-19T12:45:05Z</time></trkpt><trkpt lat="45.777788629156056" lon="8.69862767365549"><ele>251.0</ele><time>2026-04-19T12:45:07Z</time></trkpt><trkpt lat="45.77772036509121" lon="8.698698973891794"><ele>251.16666666666669</ele><time>2026-04-19T12:45:09Z</time></trkpt><trkpt lat="45.77767261351539" lon="8.698786963522345"><ele>251.33333333333334</ele><time>2026-04-19T12:45:11Z</time></trkpt><trkpt lat="45.777641402260215" lon="8.698865762472398"><ele>251.5</ele><time>2026-04-19T12:45:13Z</time></trkpt><trkpt lat="45.77761306953183" lon="8.698962828227373"><ele>251.66666666666669</ele><time>2026-04-19T12:45:16Z</time></trkpt><trkpt lat="45.777565541290556" lon="8.699066576083585"><ele>251.83333333333334</ele><time>2026-04-19T12:45:21Z</time></trkpt><trkpt lat="45.77749927089941" lon="8.699093769164469"><ele>252.0</ele><time>2026-04-19T12:45:25Z</time></trkpt><trkpt lat="45.77747030780415" lon="8.698967674185512"><ele>252.0</ele><time>2026-04-19T12:45:33Z</time></trkpt><trkpt lat="45.77744315384953" lon="8.698802822296557"><ele>252.0</ele><time>2026-04-19T12:45:35Z</time></trkpt><trkpt lat="45.77742152181759" lon="8.698711935851383"><ele>252.0</ele><time>2026-04-19T12:45:36Z</time></trkpt><trkpt lat="45.777391547416485" lon="8.698623851636144"><ele>252.0</ele><time>2026-04-19T12:45:37Z</time></trkpt><trkpt lat="45.777326298636545" lon="8.698577148433536"><ele>252.0</ele><time>2026-04-19T12:45:38Z</time></trkpt><trkpt lat="45.7772423524634" lon="8.698613870885545"><ele>252.0</ele><time>2026-04-19T12:45:39Z</time></trkpt><trkpt lat="45.77717426628512" lon="8.698668667973013"><ele>252.0</ele><time>2026-04-19T12:45:40Z</time></trkpt><trkpt lat="45.77711092241728" lon="8.698717029620418"><ele>252.0</ele><time>2026-04-19T12:45:41Z</time></trkpt><trkpt lat="45.777047598151405" lon="8.69873391038499"><ele>252.0</ele><time>2026-04-19T12:45:42Z</time></trkpt><trkpt lat="45.77693169307631" lon="8.698711601365574"><ele>252.0</ele><time>2026-04-19T12:45:44Z</time></trkpt><trkpt lat="45.77682554775861" lon="8.698726855221308"><ele>252.0</ele><time>2026-04-19T12:45:46Z</time></trkpt><trkpt lat="45.77672523235593" lon="8.698727278501346"><ele>251.33333333333334</ele><time>2026-04-19T12:45:48Z</time></trkpt><trkpt lat="45.776634429997" lon="8.698741338048908"><ele>250.66666666666669</ele><time>2026-04-19T12:45:50Z</time></trkpt><trkpt lat="45.7765472319903" lon="8.698739861921057"><ele>250.0</ele><time>2026-04-19T12:45:52Z</time></trkpt><trkpt lat="45.776471029491816" lon="8.698757469965045"><ele>249.33333333333334</ele><time>2026-04-19T12:45:54Z</time></trkpt><trkpt lat="45.77640562951158" lon="8.6987618725345"><ele>248.66666666666669</ele><time>2026-04-19T12:45:56Z</time></trkpt><trkpt lat="45.776332630029664" lon="8.698775788172531"><ele>248.0</ele><time>2026-04-19T12:45:59Z</time></trkpt><trkpt lat="45.77624655371677" lon="8.698803187830157"><ele>248.00000000000003</ele><time>2026-04-19T12:46:02Z</time></trkpt><trkpt lat="45.77615571843705" lon="8.698858766015753"><ele>248.0</ele><time>2026-04-19T12:46:05Z</time></trkpt><trkpt lat="45.77607024900503" lon="8.698898591991156"><ele>248.0</ele><time>2026-04-19T12:46:08Z</time></trkpt><trkpt lat="45.77599063721017" lon="8.69889195431728"><ele>248.0</ele><time>2026-04-19T12:46:10Z</time></trkpt><trkpt lat="45.77590595001199" lon="8.69891629273325"><ele>248.00000000000003</ele><time>2026-04-19T12:46:12Z</time></trkpt><trkpt lat="45.775828158195814" lon="8.69896374096552"><ele>248.0</ele><time>2026-04-19T12:46:14Z</time></trkpt><trkpt lat="45.7757704649712" lon="8.699033551270812"><ele>247.66666666666669</ele><time>2026-04-19T12:46:16Z</time></trkpt><trkpt lat="45.77570519201003" lon="8.699105113575095"><ele>247.33333333333334</ele><time>2026-04-19T12:46:18Z</time></trkpt><trkpt lat="45.775623576373036" lon="8.699145446805879"><ele>247.0</ele><time>2026-04-19T12:46:20Z</time></trkpt><trkpt lat="45.77553454253511" lon="8.699155903039692"><ele>246.66666666666669</ele><time>2026-04-19T12:46:22Z</time></trkpt><trkpt lat="45.775442800504706" lon="8.699163471256636"><ele>246.33333333333334</ele><time>2026-04-19T12:46:24Z</time></trkpt><trkpt lat="45.775348842625334" lon="8.699181570420572"><ele>246.0</ele><time>2026-04-19T12:46:26Z</time></trkpt><trkpt lat="45.77526015737045" lon="8.699205292598137"><ele>246.00000000000003</ele><time>2026-04-19T12:46:28Z</time></trkpt><trkpt lat="45.77518876129559" lon="8.699221555389364"><ele>246.0</ele><time>2026-04-19T12:46:30Z</time></trkpt><trkpt lat="45.775130959277405" lon="8.699291293918721"><ele>246.00000000000003</ele><time>2026-04-19T12:46:32Z</time></trkpt><trkpt lat="45.7750572865668" lon="8.699297813231569"><ele>246.00000000000003</ele><time>2026-04-19T12:46:34Z</time></trkpt><trkpt lat="45.774981403839085" lon="8.699290021846904"><ele>246.0</ele><time>2026-04-19T12:46:36Z</time></trkpt><trkpt lat="45.77491270896509" lon="8.699285484229623"><ele>246.00000000000003</ele><time>2026-04-19T12:46:38Z</time></trkpt><trkpt lat="45.77484379651578" lon="8.69930065177237"><ele>246.00000000000003</ele><time>2026-04-19T12:46:40Z</time></trkpt><trkpt lat="45.774778941276345" lon="8.699309105380639"><ele>245.66666666666666</ele><time>2026-04-19T12:46:42Z</time></trkpt><trkpt lat="45.77470815207886" lon="8.699326471139065"><ele>245.33333333333331</ele><time>2026-04-19T12:46:44Z</time></trkpt><trkpt lat="45.774639698754854" lon="8.69934575239877"><ele>245.0</ele><time>2026-04-19T12:46:46Z</time></trkpt><trkpt lat="45.774560131309336" lon="8.6993627881843"><ele>244.66666666666666</ele><time>2026-04-19T12:46:49Z</time></trkpt><trkpt lat="45.77447139618578" lon="8.699384447147773"><ele>244.33333333333331</ele><time>2026-04-19T12:46:52Z</time></trkpt><trkpt lat="45.77438083409903" lon="8.699413703077392"><ele>244.0</ele><time>2026-04-19T12:46:55Z</time></trkpt><trkpt lat="45.77430024842379" lon="8.69945520060222"><ele>244.83333333333331</ele><time>2026-04-19T12:46:58Z</time></trkpt><trkpt lat="45.774285882619886" lon="8.699560051075808"><ele>245.66666666666666</ele><time>2026-04-19T12:47:01Z</time></trkpt><trkpt lat="45.774289949515556" lon="8.699677160938876"><ele>246.5</ele><time>2026-04-19T12:47:04Z</time></trkpt><trkpt lat="45.774262736638526" lon="8.699786282973443"><ele>247.33333333333331</ele><time>2026-04-19T12:47:07Z</time></trkpt><trkpt lat="45.774190106090956" lon="8.699848070182908"><ele>248.16666666666666</ele><time>2026-04-19T12:47:11Z</time></trkpt><trkpt lat="45.77415843945197" lon="8.699958257481399"><ele>249.0</ele><time>2026-04-19T12:47:14.001Z</time></trkpt><trkpt lat="45.774094318764526" lon="8.700038204621825"><ele>249.0</ele><time>2026-04-19T12:47:17.001Z</time></trkpt><trkpt lat="45.774016085347924" lon="8.70009220883491"><ele>249.0</ele><time>2026-04-19T12:47:20.001Z</time></trkpt><trkpt lat="45.773933827141875" lon="8.700124048733194"><ele>249.0</ele><time>2026-04-19T12:47:23.001Z</time></trkpt><trkpt lat="45.77386742155961" lon="8.700148603580626"><ele>249.0</ele><time>2026-04-19T12:47:25.001Z</time></trkpt><trkpt lat="45.77376359429066" lon="8.700148639647221"><ele>249.0</ele><time>2026-04-19T12:47:28.001Z</time></trkpt><trkpt lat="45.77368987524775" lon="8.700181275352445"><ele>249.0</ele><time>2026-04-19T12:47:30.001Z</time></trkpt><trkpt lat="45.77362790705312" lon="8.700163768033605"><ele>249.0</ele><time>2026-04-19T12:47:32.001Z</time></trkpt><trkpt lat="45.77354024021132" lon="8.7001167915713"><ele>249.0</ele><time>2026-04-19T12:47:35.001Z</time></trkpt><trkpt lat="45.77348370842835" lon="8.700060144592646"><ele>249.0</ele><time>2026-04-19T12:47:37.001Z</time></trkpt><trkpt lat="45.77340233108694" lon="8.700000021720662"><ele>249.0</ele><time>2026-04-19T12:47:39.001Z</time></trkpt><trkpt lat="45.773291912005476" lon="8.6999559601243"><ele>249.0</ele><time>2026-04-19T12:47:41.001Z</time></trkpt><trkpt lat="45.77321469591133" lon="8.699935442037273"><ele>249.0</ele><time>2026-04-19T12:47:43.001Z</time></trkpt><trkpt lat="45.77315382087796" lon="8.699996589762092"><ele>248.85714285714283</ele><time>2026-04-19T12:47:46.001Z</time></trkpt><trkpt lat="45.77310621042726" lon="8.700061698715716"><ele>248.7142857142857</ele><time>2026-04-19T12:47:53.001Z</time></trkpt><trkpt lat="45.7731684778019" lon="8.700078776936198"><ele>248.57142857142856</ele><time>2026-04-19T12:48:02.001Z</time></trkpt><trkpt lat="45.77317200920129" lon="8.69997485532057"><ele>248.42857142857144</ele><time>2026-04-19T12:50:09Z</time></trkpt><trkpt lat="45.77310185995793" lon="8.69995621601557"><ele>248.2857142857143</ele><time>2026-04-19T12:50:14Z</time></trkpt><trkpt lat="45.77305123757424" lon="8.700040061907224"><ele>248.14285714285717</ele><time>2026-04-19T12:50:18Z</time></trkpt><trkpt lat="45.77297143060762" lon="8.700087765884682"><ele>248.0</ele><time>2026-04-19T12:50:22Z</time></trkpt><trkpt lat="45.77289836968554" lon="8.700114651794648"><ele>248.00000000000003</ele><time>2026-04-19T12:50:24.001Z</time></trkpt><trkpt lat="45.772846970749185" lon="8.700199746996798"><ele>248.0</ele><time>2026-04-19T12:50:27.001Z</time></trkpt><trkpt lat="45.77277945392126" lon="8.700261887402702"><ele>248.0</ele><time>2026-04-19T12:50:32.001Z</time></trkpt><trkpt lat="45.772695608008426" lon="8.700272936714585"><ele>248.0</ele><time>2026-04-19T12:50:35.001Z</time></trkpt><trkpt lat="45.77260662253623" lon="8.7003186756275"><ele>248.00000000000003</ele><time>2026-04-19T12:50:38.001Z</time></trkpt><trkpt lat="45.7725400530359" lon="8.700333634527794"><ele>248.0</ele><time>2026-04-19T12:50:40.001Z</time></trkpt><trkpt lat="45.772450567933895" lon="8.700325234835551"><ele>249.00000000000003</ele><time>2026-04-19T12:50:43.001Z</time></trkpt><trkpt lat="45.7723828197545" lon="8.700284440757102"><ele>250.0</ele><time>2026-04-19T12:50:46.001Z</time></trkpt><trkpt lat="45.77232288163711" lon="8.700251160456913"><ele>251.0</ele><time>2026-04-19T12:50:50.001Z</time></trkpt><trkpt lat="45.77224304121992" lon="8.700262623967674"><ele>252.0</ele><time>2026-04-19T12:50:54.001Z</time></trkpt><trkpt lat="45.77220377524924" lon="8.700345234827337"><ele>253.00000000000003</ele><time>2026-04-19T12:50:57.001Z</time></trkpt><trkpt lat="45.77214455624207" lon="8.70042179633204"><ele>254.0</ele><time>2026-04-19T12:51:00.001Z</time></trkpt><trkpt lat="45.77205950218873" lon="8.70046564064724"><ele>254.0</ele><time>2026-04-19T12:51:03.001Z</time></trkpt><trkpt lat="45.771992468949904" lon="8.700480901367184"><ele>254.0</ele><time>2026-04-19T12:51:05.001Z</time></trkpt><trkpt lat="45.771924093620356" lon="8.700493057897067"><ele>254.0</ele><time>2026-04-19T12:51:07.001Z</time></trkpt><trkpt lat="45.77185309867547" lon="8.700501876436796"><ele>254.0</ele><time>2026-04-19T12:51:09.001Z</time></trkpt><trkpt lat="45.7717856043083" lon="8.700513757836191"><ele>254.0</ele><time>2026-04-19T12:51:11.001Z</time></trkpt><trkpt lat="45.77171660618428" lon="8.70051894531008"><ele>254.0</ele><time>2026-04-19T12:51:13.001Z</time></trkpt><trkpt lat="45.77165156881516" lon="8.700531598417438"><ele>254.0</ele><time>2026-04-19T12:51:15.001Z</time></trkpt><trkpt lat="45.771589659855856" lon="8.700549196118521"><ele>253.6</ele><time>2026-04-19T12:51:17.001Z</time></trkpt><trkpt lat="45.77150102512745" lon="8.700554291464556"><ele>253.2</ele><time>2026-04-19T12:51:20.001Z</time></trkpt><trkpt lat="45.771419814744824" lon="8.700569507815992"><ele>252.79999999999998</ele><time>2026-04-19T12:51:23.001Z</time></trkpt><trkpt lat="45.77133795429639" lon="8.700581586439194"><ele>252.39999999999998</ele><time>2026-04-19T12:51:26.001Z</time></trkpt><trkpt lat="45.77126026488347" lon="8.700607583358066"><ele>252.0</ele><time>2026-04-19T12:51:29.001Z</time></trkpt><trkpt lat="45.77113897696949" lon="8.700642392798816"><ele>252.0</ele><time>2026-04-19T12:51:34.001Z</time></trkpt><trkpt lat="45.77104264370867" lon="8.70063548849668"><ele>252.0</ele><time>2026-04-19T12:51:37.001Z</time></trkpt><trkpt lat="45.77096685746508" lon="8.70063510966392"><ele>252.0</ele><time>2026-04-19T12:51:39.001Z</time></trkpt><trkpt lat="45.77089154100667" lon="8.700640087241775"><ele>252.0</ele><time>2026-04-19T12:51:41.001Z</time></trkpt><trkpt lat="45.77081622294477" lon="8.70063794222699"><ele>252.0</ele><time>2026-04-19T12:51:43.001Z</time></trkpt><trkpt lat="45.770738985171384" lon="8.700640996232506"><ele>252.0</ele><time>2026-04-19T12:51:45.001Z</time></trkpt><trkpt lat="45.77066435860165" lon="8.70064156602195"><ele>251.42857142857144</ele><time>2026-04-19T12:51:47.001Z</time></trkpt><trkpt lat="45.77058902193468" lon="8.700644927606774"><ele>250.85714285714286</ele><time>2026-04-19T12:51:49.001Z</time></trkpt><trkpt lat="45.770513273225994" lon="8.700647940802465"><ele>250.28571428571428</ele><time>2026-04-19T12:51:51.001Z</time></trkpt><trkpt lat="45.770440235432524" lon="8.700652360520667"><ele>249.71428571428572</ele><time>2026-04-19T12:51:53.001Z</time></trkpt><trkpt lat="45.77036821714881" lon="8.70066079911736"><ele>249.14285714285717</ele><time>2026-04-19T12:51:55.001Z</time></trkpt><trkpt lat="45.770298570028636" lon="8.700643174671855"><ele>248.57142857142858</ele><time>2026-04-19T12:51:57.001Z</time></trkpt><trkpt lat="45.770226417952024" lon="8.700676161153654"><ele>248.0</ele><time>2026-04-19T12:51:59.001Z</time></trkpt><trkpt lat="45.770208331938996" lon="8.700780078023262"><ele>248.00000000000003</ele><time>2026-04-19T12:52:01.001Z</time></trkpt><trkpt lat="45.770198377622926" lon="8.700887348856536"><ele>248.0</ele><time>2026-04-19T12:52:04.001Z</time></trkpt><trkpt lat="45.77014402173349" lon="8.70093673389549"><ele>248.0</ele><time>2026-04-19T12:52:06.001Z</time></trkpt><trkpt lat="45.7700954113272" lon="8.701010557890006"><ele>248.0</ele><time>2026-04-19T12:52:08.001Z</time></trkpt><trkpt lat="45.770040415150675" lon="8.701106359249735"><ele>248.00000000000003</ele><time>2026-04-19T12:52:11.001Z</time></trkpt><trkpt lat="45.76996041145116" lon="8.701170003217804"><ele>248.0</ele><time>2026-04-19T12:52:13.001Z</time></trkpt><trkpt lat="45.76989533175963" lon="8.70123140897532"><ele>248.50000000000003</ele><time>2026-04-19T12:52:15.001Z</time></trkpt><trkpt lat="45.76983156021269" lon="8.701279983478942"><ele>249.0</ele><time>2026-04-19T12:52:17.001Z</time></trkpt><trkpt lat="45.76976375785412" lon="8.701325175588877"><ele>249.5</ele><time>2026-04-19T12:52:19.001Z</time></trkpt><trkpt lat="45.76969963600413" lon="8.701390974701292"><ele>250.0</ele><time>2026-04-19T12:52:21.001Z</time></trkpt><trkpt lat="45.76962785357226" lon="8.701432550694431"><ele>250.50000000000003</ele><time>2026-04-19T12:52:23.001Z</time></trkpt><trkpt lat="45.76956420817324" lon="8.701497884159254"><ele>251.0</ele><time>2026-04-19T12:52:25.001Z</time></trkpt><trkpt lat="45.769498132255464" lon="8.701561767336784"><ele>250.99999999999997</ele><time>2026-04-19T12:52:27.001Z</time></trkpt><trkpt lat="45.769436620523926" lon="8.701628544892182"><ele>251.0</ele><time>2026-04-19T12:52:29.001Z</time></trkpt><trkpt lat="45.76937817537504" lon="8.701683691177957"><ele>250.99999999999997</ele><time>2026-04-19T12:52:31.001Z</time></trkpt><trkpt lat="45.76932794614025" lon="8.701745600888561"><ele>250.99999999999997</ele><time>2026-04-19T12:52:33.001Z</time></trkpt><trkpt lat="45.76926448605059" lon="8.701804081197297"><ele>251.0</ele><time>2026-04-19T12:52:35.001Z</time></trkpt><trkpt lat="45.76920413932333" lon="8.701865158426415"><ele>250.99999999999997</ele><time>2026-04-19T12:52:37.001Z</time></trkpt><trkpt lat="45.769148265839654" lon="8.701915215378833"><ele>250.99999999999997</ele><time>2026-04-19T12:52:39.001Z</time></trkpt><trkpt lat="45.76909897935305" lon="8.701982124442743"><ele>250.50000000000003</ele><time>2026-04-19T12:52:41.001Z</time></trkpt><trkpt lat="45.7690352684043" lon="8.702072283943908"><ele>250.0</ele><time>2026-04-19T12:52:44.001Z</time></trkpt><trkpt lat="45.76897640099106" lon="8.702126101065577"><ele>249.5</ele><time>2026-04-19T12:52:46.001Z</time></trkpt><trkpt lat="45.768896091959306" lon="8.702212073344649"><ele>249.0</ele><time>2026-04-19T12:52:48.001Z</time></trkpt><trkpt lat="45.76880508285842" lon="8.702328820520417"><ele>248.50000000000003</ele><time>2026-04-19T12:52:50.001Z</time></trkpt><trkpt lat="45.768752794573096" lon="8.702389755458848"><ele>248.0</ele><time>2026-04-19T12:52:51.001Z</time></trkpt><trkpt lat="45.76869263159227" lon="8.702436121737678"><ele>248.00000000000003</ele><time>2026-04-19T12:52:52.001Z</time></trkpt><trkpt lat="45.76864066580018" lon="8.702487527371737"><ele>248.0</ele><time>2026-04-19T12:52:53.001Z</time></trkpt><trkpt lat="45.768554923271196" lon="8.702598112803855"><ele>248.0</ele><time>2026-04-19T12:52:55.001Z</time></trkpt><trkpt lat="45.76849859352772" lon="8.702665168722033"><ele>248.0</ele><time>2026-04-19T12:52:57.001Z</time></trkpt><trkpt lat="45.76844014359398" lon="8.702733446742656"><ele>248.00000000000003</ele><time>2026-04-19T12:53:01.001Z</time></trkpt><trkpt lat="45.76837814469484" lon="8.7028053702267"><ele>248.0</ele><time>2026-04-19T12:53:05.001Z</time></trkpt><trkpt lat="45.768324591555064" lon="8.702861908040191"><ele>248.00000000000003</ele><time>2026-04-19T12:53:07.001Z</time></trkpt><trkpt lat="45.768269197652174" lon="8.702938388165704"><ele>248.0</ele><time>2026-04-19T12:53:09.001Z</time></trkpt><trkpt lat="45.768205818262864" lon="8.703018926608612"><ele>248.0</ele><time>2026-04-19T12:53:11.001Z</time></trkpt><trkpt lat="45.76813972419782" lon="8.70307280985144"><ele>248.0</ele><time>2026-04-19T12:53:13.001Z</time></trkpt><trkpt lat="45.768077762612734" lon="8.703137321081247"><ele>248.00000000000003</ele><time>2026-04-19T12:53:15.001Z</time></trkpt><trkpt lat="45.767997726709666" lon="8.7031759369421"><ele>248.0</ele><time>2026-04-19T12:53:17.001Z</time></trkpt><trkpt lat="45.7679143911008" lon="8.703241032777179"><ele>248.0</ele><time>2026-04-19T12:53:19.001Z</time></trkpt><trkpt lat="45.76783020634609" lon="8.703313193688592"><ele>248.0</ele><time>2026-04-19T12:53:21.001Z</time></trkpt><trkpt lat="45.767744008154274" lon="8.70338981236743"><ele>248.0</ele><time>2026-04-19T12:53:23.001Z</time></trkpt><trkpt lat="45.767664486148846" lon="8.703466554807225"><ele>248.0</ele><time>2026-04-19T12:53:25.001Z</time></trkpt><trkpt lat="45.76759535068149" lon="8.703532793471114"><ele>248.0</ele><time>2026-04-19T12:53:27.001Z</time></trkpt><trkpt lat="45.767530561306785" lon="8.703587516705191"><ele>248.50000000000003</ele><time>2026-04-19T12:53:29.001Z</time></trkpt><trkpt lat="45.76747391469531" lon="8.703645968701878"><ele>249.0</ele><time>2026-04-19T12:53:31.001Z</time></trkpt><trkpt lat="45.7674049890586" lon="8.703704188360094"><ele>249.5</ele><time>2026-04-19T12:53:35.001Z</time></trkpt><trkpt lat="45.767347859065055" lon="8.703749719878386"><ele>250.0</ele><time>2026-04-19T12:53:39.001Z</time></trkpt><trkpt lat="45.76728684403611" lon="8.7036746680759"><ele>250.50000000000003</ele><time>2026-04-19T12:53:43.001Z</time></trkpt><trkpt lat="45.76724181785813" lon="8.70355775381997"><ele>251.0</ele><time>2026-04-19T12:53:46.001Z</time></trkpt><trkpt lat="45.76718364213871" lon="8.703445228847388"><ele>250.00000000000003</ele><time>2026-04-19T12:53:49.001Z</time></trkpt><trkpt lat="45.76715264712727" lon="8.703363435836817"><ele>249.0</ele><time>2026-04-19T12:53:51Z</time></trkpt><trkpt lat="45.76710202067979" lon="8.703281210726892"><ele>248.0</ele><time>2026-04-19T12:53:53Z</time></trkpt><trkpt lat="45.767054996411304" lon="8.703188473910096"><ele>247.0</ele><time>2026-04-19T12:53:55Z</time></trkpt><trkpt lat="45.76700173917051" lon="8.70310808908799"><ele>246.00000000000003</ele><time>2026-04-19T12:53:57Z</time></trkpt><trkpt lat="45.766936418918874" lon="8.703030382612907"><ele>245.0</ele><time>2026-04-19T12:53:59Z</time></trkpt><trkpt lat="45.76687389352086" lon="8.702977169128204"><ele>245.33333333333334</ele><time>2026-04-19T12:54:01Z</time></trkpt><trkpt lat="45.76681553478432" lon="8.702919639146097"><ele>245.66666666666669</ele><time>2026-04-19T12:54:03Z</time></trkpt><trkpt lat="45.76675174194877" lon="8.702864135758157"><ele>246.0</ele><time>2026-04-19T12:54:05Z</time></trkpt><trkpt lat="45.76668656078942" lon="8.702816492934637"><ele>246.33333333333331</ele><time>2026-04-19T12:54:07Z</time></trkpt><trkpt lat="45.7666092708186" lon="8.702777069730152"><ele>246.66666666666666</ele><time>2026-04-19T12:54:09Z</time></trkpt><trkpt lat="45.76652990509491" lon="8.702752197093067"><ele>247.0</ele><time>2026-04-19T12:54:11Z</time></trkpt><trkpt lat="45.76644810778012" lon="8.702722845413433"><ele>246.99999999999997</ele><time>2026-04-19T12:54:13Z</time></trkpt><trkpt lat="45.766367042969854" lon="8.702701196661605"><ele>247.0</ele><time>2026-04-19T12:54:15Z</time></trkpt><trkpt lat="45.7662919340254" lon="8.702672998455448"><ele>247.0</ele><time>2026-04-19T12:54:17Z</time></trkpt><trkpt lat="45.76622132534864" lon="8.702647845819618"><ele>247.0</ele><time>2026-04-19T12:54:19Z</time></trkpt><trkpt lat="45.76613830635953" lon="8.70260360627718"><ele>246.99999999999997</ele><time>2026-04-19T12:54:22Z</time></trkpt><trkpt lat="45.766079716885166" lon="8.702559692029038"><ele>247.0</ele><time>2026-04-19T12:54:24Z</time></trkpt><trkpt lat="45.76601695067132" lon="8.702517865916823"><ele>246.83333333333331</ele><time>2026-04-19T12:54:26Z</time></trkpt><trkpt lat="45.76595163634519" lon="8.70246850437877"><ele>246.66666666666666</ele><time>2026-04-19T12:54:28Z</time></trkpt><trkpt lat="45.76589026180154" lon="8.702419063371071"><ele>246.5</ele><time>2026-04-19T12:54:30Z</time></trkpt><trkpt lat="45.76582236817866" lon="8.702368915253677"><ele>246.33333333333331</ele><time>2026-04-19T12:54:32Z</time></trkpt><trkpt lat="45.765780137531465" lon="8.702275110425616"><ele>246.16666666666666</ele><time>2026-04-19T12:54:34Z</time></trkpt><trkpt lat="45.76572822567301" lon="8.702193038320532"><ele>246.0</ele><time>2026-04-19T12:54:36Z</time></trkpt><trkpt lat="45.76567652158178" lon="8.702111876978623"><ele>246.0</ele><time>2026-04-19T12:54:38Z</time></trkpt><trkpt lat="45.76561385813156" lon="8.702078868445126"><ele>246.0</ele><time>2026-04-19T12:54:40.001Z</time></trkpt><trkpt lat="45.7655480598121" lon="8.702089508037304"><ele>246.0</ele><time>2026-04-19T12:54:42.001Z</time></trkpt><trkpt lat="45.76546026622904" lon="8.702090433830984"><ele>246.0</ele><time>2026-04-19T12:54:45.001Z</time></trkpt><trkpt lat="45.76537834461578" lon="8.702054307218239"><ele>246.0</ele><time>2026-04-19T12:54:48.001Z</time></trkpt><trkpt lat="45.7652893261636" lon="8.702019186382799"><ele>246.0</ele><time>2026-04-19T12:54:51.001Z</time></trkpt><trkpt lat="45.76522063346605" lon="8.702003380179136"><ele>246.0</ele><time>2026-04-19T12:54:53.001Z</time></trkpt><trkpt lat="45.765151431322735" lon="8.701976163944751"><ele>246.0</ele><time>2026-04-19T12:54:55.001Z</time></trkpt><trkpt lat="45.76508291718337" lon="8.701936750048985"><ele>246.0</ele><time>2026-04-19T12:54:57.001Z</time></trkpt><trkpt lat="45.76502011151821" lon="8.701887635734582"><ele>246.0</ele><time>2026-04-19T12:54:59.001Z</time></trkpt><trkpt lat="45.76494960852906" lon="8.701861458153779"><ele>246.0</ele><time>2026-04-19T12:55:01.001Z</time></trkpt><trkpt lat="45.76485165590986" lon="8.701835395946329"><ele>246.0</ele><time>2026-04-19T12:55:03.001Z</time></trkpt><trkpt lat="45.76477638682024" lon="8.701783465361755"><ele>246.0</ele><time>2026-04-19T12:55:05.001Z</time></trkpt><trkpt lat="45.76466499089447" lon="8.701756150948489"><ele>246.00000000000003</ele><time>2026-04-19T12:55:07.001Z</time></trkpt><trkpt lat="45.76455957265755" lon="8.701687227627083"><ele>246.00000000000003</ele><time>2026-04-19T12:55:09.001Z</time></trkpt><trkpt lat="45.76446396366709" lon="8.701635087651239"><ele>246.0</ele><time>2026-04-19T12:55:11.001Z</time></trkpt><trkpt lat="45.76439315281651" lon="8.701593401068251"><ele>246.0</ele><time>2026-04-19T12:55:13.001Z</time></trkpt><trkpt lat="45.76431702818575" lon="8.70154881777103"><ele>246.66666666666666</ele><time>2026-04-19T12:55:16.001Z</time></trkpt><trkpt lat="45.764246395760715" lon="8.701514191139545"><ele>247.33333333333331</ele><time>2026-04-19T12:55:21.001Z</time></trkpt><trkpt lat="45.76416798051171" lon="8.701485710882347"><ele>248.0</ele><time>2026-04-19T12:55:24.001Z</time></trkpt><trkpt lat="45.764095743331744" lon="8.701455402490302"><ele>248.66666666666666</ele><time>2026-04-19T12:55:26.001Z</time></trkpt><trkpt lat="45.76402133205583" lon="8.701417384329249"><ele>249.33333333333331</ele><time>2026-04-19T12:55:28.001Z</time></trkpt><trkpt lat="45.76393456274056" lon="8.701394976228054"><ele>250.0</ele><time>2026-04-19T12:55:30.001Z</time></trkpt><trkpt lat="45.76384876757861" lon="8.70129808132545"><ele>250.0</ele><time>2026-04-19T12:55:32.001Z</time></trkpt><trkpt lat="45.763768973223655" lon="8.70120676462075"><ele>250.0</ele><time>2026-04-19T12:55:34.001Z</time></trkpt><trkpt lat="45.76369573986806" lon="8.7011118932717"><ele>250.0</ele><time>2026-04-19T12:55:36Z</time></trkpt><trkpt lat="45.763623465483384" lon="8.701029001901357"><ele>250.0</ele><time>2026-04-19T12:55:38Z</time></trkpt><trkpt lat="45.763547988879715" lon="8.700937940491507"><ele>250.0</ele><time>2026-04-19T12:55:40Z</time></trkpt><trkpt lat="45.76346478202506" lon="8.700850652693179"><ele>249.2</ele><time>2026-04-19T12:55:42Z</time></trkpt><trkpt lat="45.76336366087131" lon="8.700785448972095"><ele>248.4</ele><time>2026-04-19T12:55:44Z</time></trkpt><trkpt lat="45.763256505734994" lon="8.700754617156786"><ele>247.60000000000002</ele><time>2026-04-19T12:55:46Z</time></trkpt><trkpt lat="45.76315461040584" lon="8.70081693178308"><ele>246.8</ele><time>2026-04-19T12:55:48Z</time></trkpt><trkpt lat="45.76312627209819" lon="8.700902752778836"><ele>246.0</ele><time>2026-04-19T12:55:49Z</time></trkpt><trkpt lat="45.76310309702551" lon="8.70098784208011"><ele>246.5</ele><time>2026-04-19T12:55:50Z</time></trkpt><trkpt lat="45.76304734070981" lon="8.701125763861167"><ele>247.0</ele><time>2026-04-19T12:55:52Z</time></trkpt><trkpt lat="45.7629741603214" lon="8.701210943193757"><ele>247.5</ele><time>2026-04-19T12:55:54Z</time></trkpt><trkpt lat="45.76292683927201" lon="8.701275491855304"><ele>248.0</ele><time>2026-04-19T12:55:56Z</time></trkpt><trkpt lat="45.76286319601947" lon="8.7013410182233"><ele>248.5</ele><time>2026-04-19T12:55:59Z</time></trkpt><trkpt lat="45.76282737557157" lon="8.701444547865512"><ele>249.0</ele><time>2026-04-19T12:56:02Z</time></trkpt><trkpt lat="45.762747996525746" lon="8.70142858609117"><ele>249.28571428571428</ele><time>2026-04-19T12:56:07Z</time></trkpt><trkpt lat="45.76268302161398" lon="8.701401905597182"><ele>249.57142857142856</ele><time>2026-04-19T12:56:10Z</time></trkpt><trkpt lat="45.762612334698595" lon="8.701368273969806"><ele>249.85714285714283</ele><time>2026-04-19T12:56:13Z</time></trkpt><trkpt lat="45.7625436584127" lon="8.701336499096156"><ele>250.1428571428571</ele><time>2026-04-19T12:56:17Z</time></trkpt><trkpt lat="45.762481093116584" lon="8.701298841432546"><ele>250.42857142857142</ele><time>2026-04-19T12:56:20Z</time></trkpt><trkpt lat="45.762400258738126" lon="8.701271700314178"><ele>250.71428571428567</ele><time>2026-04-19T12:56:23Z</time></trkpt><trkpt lat="45.76233579275625" lon="8.701228872665245"><ele>250.99999999999997</ele><time>2026-04-19T12:56:25Z</time></trkpt><trkpt lat="45.76226201648737" lon="8.701198253167906"><ele>251.0</ele><time>2026-04-19T12:56:27Z</time></trkpt><trkpt lat="45.76217644732468" lon="8.701133280597759"><ele>251.00000000000003</ele><time>2026-04-19T12:56:29Z</time></trkpt><trkpt lat="45.76209552030844" lon="8.701036627736705"><ele>251.00000000000003</ele><time>2026-04-19T12:56:31Z</time></trkpt><trkpt lat="45.761994055810156" lon="8.700934516926432"><ele>251.0</ele><time>2026-04-19T12:56:33Z</time></trkpt><trkpt lat="45.76189738817868" lon="8.70084692655032"><ele>251.0</ele><time>2026-04-19T12:56:35Z</time></trkpt><trkpt lat="45.76180592311454" lon="8.700794387337561"><ele>250.8</ele><time>2026-04-19T12:56:37Z</time></trkpt><trkpt lat="45.761725712948355" lon="8.70073053642912"><ele>250.60000000000002</ele><time>2026-04-19T12:56:39Z</time></trkpt><trkpt lat="45.76165371529263" lon="8.700670500705684"><ele>250.4</ele><time>2026-04-19T12:56:41Z</time></trkpt><trkpt lat="45.7615626950196" lon="8.7006119797942"><ele>250.2</ele><time>2026-04-19T12:56:43Z</time></trkpt><trkpt lat="45.76145916956198" lon="8.700536879127588"><ele>250.0</ele><time>2026-04-19T12:56:45.001Z</time></trkpt><trkpt lat="45.76140662614016" lon="8.700479785243694"><ele>249.99999999999997</ele><time>2026-04-19T12:56:47.001Z</time></trkpt><trkpt lat="45.76131004369353" lon="8.700419736078647"><ele>250.0</ele><time>2026-04-19T12:56:49.001Z</time></trkpt><trkpt lat="45.76123743240265" lon="8.700358313095013"><ele>250.0</ele><time>2026-04-19T12:56:51.001Z</time></trkpt><trkpt lat="45.76116750514237" lon="8.700301472201025"><ele>250.0</ele><time>2026-04-19T12:56:53.001Z</time></trkpt><trkpt lat="45.76110183419068" lon="8.70024971835801"><ele>249.99999999999997</ele><time>2026-04-19T12:56:55.001Z</time></trkpt><trkpt lat="45.76103654920857" lon="8.700188926167597"><ele>250.0</ele><time>2026-04-19T12:56:57.001Z</time></trkpt><trkpt lat="45.760973552574484" lon="8.700141129855092"><ele>250.16666666666666</ele><time>2026-04-19T12:56:59.001Z</time></trkpt><trkpt lat="45.76088897052565" lon="8.700150502621518"><ele>250.33333333333331</ele><time>2026-04-19T12:57:02.001Z</time></trkpt><trkpt lat="45.760827070793006" lon="8.700180031635675"><ele>250.5</ele><time>2026-04-19T12:57:05.001Z</time></trkpt><trkpt lat="45.76076357335884" lon="8.700207599733558"><ele>250.66666666666669</ele><time>2026-04-19T12:57:08Z</time></trkpt><trkpt lat="45.76070573316012" lon="8.700303587022535"><ele>250.83333333333334</ele><time>2026-04-19T12:57:12Z</time></trkpt><trkpt lat="45.76063481862688" lon="8.70037786394907"><ele>251.0</ele><time>2026-04-19T12:57:15Z</time></trkpt><trkpt lat="45.760572359368474" lon="8.700345005100436"><ele>251.00000000000003</ele><time>2026-04-19T12:57:17Z</time></trkpt><trkpt lat="45.76051059609657" lon="8.700313953955636"><ele>251.0</ele><time>2026-04-19T12:57:19Z</time></trkpt><trkpt lat="45.76043975144008" lon="8.70028753459163"><ele>251.0</ele><time>2026-04-19T12:57:21Z</time></trkpt><trkpt lat="45.76036137956149" lon="8.700270984844462"><ele>251.0</ele><time>2026-04-19T12:57:23Z</time></trkpt><trkpt lat="45.76027645342312" lon="8.700243275058257"><ele>251.00000000000003</ele><time>2026-04-19T12:57:25Z</time></trkpt><trkpt lat="45.76019049262836" lon="8.700225631388523"><ele>251.0</ele><time>2026-04-19T12:57:27Z</time></trkpt><trkpt lat="45.76010308113892" lon="8.700198961010909"><ele>251.8</ele><time>2026-04-19T12:57:29Z</time></trkpt><trkpt lat="45.760021888251316" lon="8.700160076337182"><ele>252.60000000000002</ele><time>2026-04-19T12:57:31Z</time></trkpt><trkpt lat="45.75993588870639" lon="8.700124425198846"><ele>253.4</ele><time>2026-04-19T12:57:33Z</time></trkpt><trkpt lat="45.759852611615344" lon="8.700071121147197"><ele>254.2</ele><time>2026-04-19T12:57:35Z</time></trkpt><trkpt lat="45.75975610581829" lon="8.700026699811838"><ele>255.0</ele><time>2026-04-19T12:57:37Z</time></trkpt><trkpt lat="45.759637555326" lon="8.69999762818102"><ele>255.0</ele><time>2026-04-19T12:57:39Z</time></trkpt><trkpt lat="45.75957426174215" lon="8.699983385830146"><ele>255.0</ele><time>2026-04-19T12:57:40Z</time></trkpt><trkpt lat="45.759506468580526" lon="8.699974192693611"><ele>255.0</ele><time>2026-04-19T12:57:41Z</time></trkpt><trkpt lat="45.75940522167194" lon="8.700003141820162"><ele>255.0</ele><time>2026-04-19T12:57:43Z</time></trkpt><trkpt lat="45.7593323405472" lon="8.700002289797046"><ele>255.0</ele><time>2026-04-19T12:57:45Z</time></trkpt><trkpt lat="45.759255906817785" lon="8.69998364670046"><ele>255.0</ele><time>2026-04-19T12:57:47Z</time></trkpt><trkpt lat="45.759184522380565" lon="8.69997644928596"><ele>255.2857142857143</ele><time>2026-04-19T12:57:49Z</time></trkpt><trkpt lat="45.75911453115569" lon="8.699960839536438"><ele>255.5714285714286</ele><time>2026-04-19T12:57:51Z</time></trkpt><trkpt lat="45.759039478152474" lon="8.699950916967692"><ele>255.85714285714286</ele><time>2026-04-19T12:57:53Z</time></trkpt><trkpt lat="45.75897002337178" lon="8.699936006421474"><ele>256.14285714285717</ele><time>2026-04-19T12:57:55Z</time></trkpt><trkpt lat="45.758899815190894" lon="8.699927322393274"><ele>256.42857142857144</ele><time>2026-04-19T12:57:57Z</time></trkpt><trkpt lat="45.75882883804302" lon="8.699910458641428"><ele>256.7142857142857</ele><time>2026-04-19T12:57:59Z</time></trkpt><trkpt lat="45.75875603748656" lon="8.6999049573609"><ele>257.0</ele><time>2026-04-19T12:58:01Z</time></trkpt><trkpt lat="45.75868426943801" lon="8.69989121726918"><ele>257.0</ele><time>2026-04-19T12:58:03Z</time></trkpt><trkpt lat="45.75860911115118" lon="8.699878851814798"><ele>257.0</ele><time>2026-04-19T12:58:05Z</time></trkpt><trkpt lat="45.75853500154274" lon="8.69986314087653"><ele>257.0</ele><time>2026-04-19T12:58:07Z</time></trkpt><trkpt lat="45.75846238667902" lon="8.699854544884847"><ele>257.0</ele><time>2026-04-19T12:58:09Z</time></trkpt><trkpt lat="45.75838837193477" lon="8.699846452659889"><ele>257.0</ele><time>2026-04-19T12:58:11Z</time></trkpt><trkpt lat="45.75831811773071" lon="8.699833155607072"><ele>257.0</ele><time>2026-04-19T12:58:13Z</time></trkpt><trkpt lat="45.75825103213502" lon="8.699830735516256"><ele>257.0</ele><time>2026-04-19T12:58:15Z</time></trkpt><trkpt lat="45.7581805962062" lon="8.699828350219194"><ele>258.1428571428571</ele><time>2026-04-19T12:58:17Z</time></trkpt><trkpt lat="45.75811309964157" lon="8.699808203692317"><ele>259.2857142857143</ele><time>2026-04-19T12:58:19Z</time></trkpt><trkpt lat="45.758049740941416" lon="8.699795022587566"><ele>260.42857142857144</ele><time>2026-04-19T12:58:21Z</time></trkpt><trkpt lat="45.75798667813898" lon="8.699784407450311"><ele>261.57142857142856</ele><time>2026-04-19T12:58:23Z</time></trkpt><trkpt lat="45.75792251299638" lon="8.699780932819436"><ele>262.7142857142857</ele><time>2026-04-19T12:58:25Z</time></trkpt><trkpt lat="45.75782701050492" lon="8.69976583550638"><ele>263.85714285714283</ele><time>2026-04-19T12:58:28Z</time></trkpt><trkpt lat="45.75776277559523" lon="8.699758698101734"><ele>265.0</ele><time>2026-04-19T12:58:30Z</time></trkpt><trkpt lat="45.75769398262357" lon="8.699748281646547"><ele>265.66666666666663</ele><time>2026-04-19T12:58:32Z</time></trkpt><trkpt lat="45.75762754457112" lon="8.699744532408658"><ele>266.3333333333333</ele><time>2026-04-19T12:58:34Z</time></trkpt><trkpt lat="45.75756361506895" lon="8.699732737859774"><ele>267.0</ele><time>2026-04-19T12:58:36Z</time></trkpt><trkpt lat="45.75749819533044" lon="8.69969527513988"><ele>267.6666666666667</ele><time>2026-04-19T12:58:38Z</time></trkpt><trkpt lat="45.75740470864012" lon="8.699648389881101"><ele>268.33333333333337</ele><time>2026-04-19T12:58:40Z</time></trkpt><trkpt lat="45.757286144439156" lon="8.699614350120184"><ele>269.0</ele><time>2026-04-19T12:58:42Z</time></trkpt><trkpt lat="45.757185554089986" lon="8.699582478068061"><ele>269.0</ele><time>2026-04-19T12:58:44Z</time></trkpt><trkpt lat="45.75710047116662" lon="8.699539516261925"><ele>269.0</ele><time>2026-04-19T12:58:46Z</time></trkpt><trkpt lat="45.757016299907825" lon="8.699499935670033"><ele>269.0</ele><time>2026-04-19T12:58:48Z</time></trkpt><trkpt lat="45.75692382885528" lon="8.699467295823748"><ele>269.0</ele><time>2026-04-19T12:58:50Z</time></trkpt><trkpt lat="45.75683856007296" lon="8.699439590146861"><ele>269.0</ele><time>2026-04-19T12:58:52.001Z</time></trkpt><trkpt lat="45.756736332283445" lon="8.69939055571655"><ele>267.2</ele><time>2026-04-19T12:58:54.001Z</time></trkpt><trkpt lat="45.75664398896955" lon="8.699339666371754"><ele>265.4</ele><time>2026-04-19T12:58:56.001Z</time></trkpt><trkpt lat="45.75655181775483" lon="8.699282625376105"><ele>263.6</ele><time>2026-04-19T12:58:58.001Z</time></trkpt><trkpt lat="45.7564604437908" lon="8.699233530759814"><ele>261.8</ele><time>2026-04-19T12:59:00.001Z</time></trkpt><trkpt lat="45.75638282308453" lon="8.699159907652305"><ele>260.0</ele><time>2026-04-19T12:59:02.001Z</time></trkpt><trkpt lat="45.756308732382465" lon="8.699082925988957"><ele>260.0</ele><time>2026-04-19T12:59:04.001Z</time></trkpt><trkpt lat="45.75623510986778" lon="8.699046031889603"><ele>260.0</ele><time>2026-04-19T12:59:06.001Z</time></trkpt><trkpt lat="45.75617618974861" lon="8.698995792305722"><ele>260.0</ele><time>2026-04-19T12:59:10.001Z</time></trkpt><trkpt lat="45.756114575987716" lon="8.698906783329583"><ele>260.0</ele><time>2026-04-19T12:59:13Z</time></trkpt><trkpt lat="45.75606219307093" lon="8.698826903075412"><ele>260.0</ele><time>2026-04-19T12:59:15Z</time></trkpt><trkpt lat="45.755999885886396" lon="8.69873960957398"><ele>260.0</ele><time>2026-04-19T12:59:17Z</time></trkpt><trkpt lat="45.755923783948724" lon="8.69866305417673"><ele>260.5</ele><time>2026-04-19T12:59:19Z</time></trkpt><trkpt lat="45.75584266911033" lon="8.698632620346759"><ele>261.0</ele><time>2026-04-19T12:59:21Z</time></trkpt><trkpt lat="45.755768458454234" lon="8.69861157072366"><ele>261.5</ele><time>2026-04-19T12:59:23Z</time></trkpt><trkpt lat="45.75569569866521" lon="8.698570455438341"><ele>262.0</ele><time>2026-04-19T12:59:25Z</time></trkpt><trkpt lat="45.75563638275775" lon="8.698505411597273"><ele>262.5</ele><time>2026-04-19T12:59:27Z</time></trkpt><trkpt lat="45.75557725165881" lon="8.698440416728765"><ele>263.0</ele><time>2026-04-19T12:59:29Z</time></trkpt><trkpt lat="45.75551705700529" lon="8.698384851686187"><ele>263.0</ele><time>2026-04-19T12:59:31Z</time></trkpt><trkpt lat="45.75546354140043" lon="8.698330638824704"><ele>263.0</ele><time>2026-04-19T12:59:33Z</time></trkpt><trkpt lat="45.755387689671196" lon="8.698264165507764"><ele>263.0</ele><time>2026-04-19T12:59:36Z</time></trkpt><trkpt lat="45.75533455010345" lon="8.698214555179478"><ele>263.0</ele><time>2026-04-19T12:59:38Z</time></trkpt><trkpt lat="45.75528254016659" lon="8.69815579605577"><ele>263.0</ele><time>2026-04-19T12:59:40Z</time></trkpt><trkpt lat="45.75523050435381" lon="8.69810252047671"><ele>263.0</ele><time>2026-04-19T12:59:42Z</time></trkpt><trkpt lat="45.75517832901543" lon="8.698032383123302"><ele>263.0</ele><time>2026-04-19T12:59:44Z</time></trkpt><trkpt lat="45.75511770261436" lon="8.697979148267896"><ele>263.0</ele><time>2026-04-19T12:59:46Z</time></trkpt><trkpt lat="45.755061932229964" lon="8.697883276843932"><ele>263.0</ele><time>2026-04-19T12:59:48Z</time></trkpt><trkpt lat="45.75502567216655" lon="8.697729208991747"><ele>263.0</ele><time>2026-04-19T12:59:50Z</time></trkpt><trkpt lat="45.754985233567034" lon="8.697558886941515"><ele>263.0</ele><time>2026-04-19T12:59:52Z</time></trkpt><trkpt lat="45.755022094361166" lon="8.697453688681424"><ele>263.0</ele><time>2026-04-19T12:59:53Z</time></trkpt><trkpt lat="45.75508869376988" lon="8.69734766371314"><ele>263.0</ele><time>2026-04-19T12:59:54Z</time></trkpt><trkpt lat="45.75514873847046" lon="8.697242431829954"><ele>263.0</ele><time>2026-04-19T12:59:55Z</time></trkpt><trkpt lat="45.75519311540336" lon="8.697120778963221"><ele>263.0</ele><time>2026-04-19T12:59:56Z</time></trkpt><trkpt lat="45.75524877957829" lon="8.697025362476325"><ele>263.0</ele><time>2026-04-19T12:59:57Z</time></trkpt><trkpt lat="45.755308204386495" lon="8.696945588906576"><ele>263.0</ele><time>2026-04-19T12:59:58Z</time></trkpt><trkpt lat="45.755362356109146" lon="8.696818512559481"><ele>261.8</ele><time>2026-04-19T13:00:00Z</time></trkpt><trkpt lat="45.755320954835014" lon="8.696748390911962"><ele>260.6</ele><time>2026-04-19T13:00:01Z</time></trkpt><trkpt lat="45.755227570314815" lon="8.696659585036649"><ele>259.4</ele><time>2026-04-19T13:00:03Z</time></trkpt><trkpt lat="45.755143892458236" lon="8.696592534142074"><ele>258.2</ele><time>2026-04-19T13:00:05Z</time></trkpt><trkpt lat="45.755048830022595" lon="8.696537275113961"><ele>257.0</ele><time>2026-04-19T13:00:07Z</time></trkpt><trkpt lat="45.75493581271447" lon="8.696472975075002"><ele>257.0</ele><time>2026-04-19T13:00:09Z</time></trkpt><trkpt lat="45.754824642461976" lon="8.696401130060071"><ele>257.0</ele><time>2026-04-19T13:00:11Z</time></trkpt><trkpt lat="45.754721653230376" lon="8.696326070893683"><ele>257.0</ele><time>2026-04-19T13:00:13Z</time></trkpt><trkpt lat="45.75463130022444" lon="8.696261187095619"><ele>257.0</ele><time>2026-04-19T13:00:15Z</time></trkpt><trkpt lat="45.75453660550143" lon="8.69621626179959"><ele>257.0</ele><time>2026-04-19T13:00:17Z</time></trkpt><trkpt lat="45.75446072540263" lon="8.696162370095513"><ele>257.6</ele><time>2026-04-19T13:00:19Z</time></trkpt><trkpt lat="45.75437055162355" lon="8.696113806565725"><ele>258.2</ele><time>2026-04-19T13:00:21Z</time></trkpt><trkpt lat="45.7542737993564" lon="8.696082045745095"><ele>258.8</ele><time>2026-04-19T13:00:23Z</time></trkpt><trkpt lat="45.75419617775842" lon="8.695990403593163"><ele>259.4</ele><time>2026-04-19T13:00:25Z</time></trkpt><trkpt lat="45.75410574659536" lon="8.695924800799661"><ele>260.0</ele><time>2026-04-19T13:00:27Z</time></trkpt><trkpt lat="45.75401872900615" lon="8.695863134224581"><ele>258.83333333333337</ele><time>2026-04-19T13:00:29Z</time></trkpt><trkpt lat="45.75393743709739" lon="8.69576736398922"><ele>257.6666666666667</ele><time>2026-04-19T13:00:31Z</time></trkpt><trkpt lat="45.75386325265394" lon="8.695649878686343"><ele>256.5</ele><time>2026-04-19T13:00:33Z</time></trkpt><trkpt lat="45.75380587546349" lon="8.69559395315601"><ele>255.33333333333331</ele><time>2026-04-19T13:00:34Z</time></trkpt><trkpt lat="45.753743001714646" lon="8.695544501595062"><ele>254.16666666666666</ele><time>2026-04-19T13:00:35Z</time></trkpt><trkpt lat="45.75368651799635" lon="8.695478162483775"><ele>253.0</ele><time>2026-04-19T13:00:36Z</time></trkpt><trkpt lat="45.753637443035785" lon="8.695412401786962"><ele>252.99999999999997</ele><time>2026-04-19T13:00:37Z</time></trkpt><trkpt lat="45.753585506571014" lon="8.695333974915421"><ele>253.0</ele><time>2026-04-19T13:00:38Z</time></trkpt><trkpt lat="45.753525359890915" lon="8.695274675150918"><ele>253.0</ele><time>2026-04-19T13:00:39Z</time></trkpt><trkpt lat="45.753458054995264" lon="8.695216613000044"><ele>253.0</ele><time>2026-04-19T13:00:40Z</time></trkpt><trkpt lat="45.75340429915853" lon="8.695161180389814"><ele>252.99999999999997</ele><time>2026-04-19T13:00:41Z</time></trkpt><trkpt lat="45.753318414968895" lon="8.695093771005352"><ele>253.0</ele><time>2026-04-19T13:00:43Z</time></trkpt><trkpt lat="45.75325996830044" lon="8.69504655547387"><ele>252.66666666666666</ele><time>2026-04-19T13:00:46Z</time></trkpt><trkpt lat="45.75319598492486" lon="8.694989626364995"><ele>252.33333333333331</ele><time>2026-04-19T13:00:49Z</time></trkpt><trkpt lat="45.75312662090237" lon="8.694927550975722"><ele>252.0</ele><time>2026-04-19T13:00:52Z</time></trkpt><trkpt lat="45.753055446636395" lon="8.69486899947785"><ele>251.66666666666669</ele><time>2026-04-19T13:00:55Z</time></trkpt><trkpt lat="45.752985790181334" lon="8.694811595094523"><ele>251.33333333333334</ele><time>2026-04-19T13:00:58.001Z</time></trkpt><trkpt lat="45.75292215967688" lon="8.694751396330311"><ele>251.0</ele><time>2026-04-19T13:01:01.001Z</time></trkpt><trkpt lat="45.75286107490607" lon="8.694699290463548"><ele>251.00000000000003</ele><time>2026-04-19T13:01:04Z</time></trkpt><trkpt lat="45.75280025524928" lon="8.69465448060553"><ele>251.0</ele><time>2026-04-19T13:01:07Z</time></trkpt><trkpt lat="45.752757413969405" lon="8.694559453140696"><ele>251.0</ele><time>2026-04-19T13:01:10Z</time></trkpt><trkpt lat="45.75268209097353" lon="8.694533518395364"><ele>251.0</ele><time>2026-04-19T13:01:14Z</time></trkpt><trkpt lat="45.75263149176787" lon="8.694474893868806"><ele>251.00000000000003</ele><time>2026-04-19T13:01:18Z</time></trkpt><trkpt lat="45.752685051007724" lon="8.694378824047078"><ele>251.0</ele><time>2026-04-19T13:01:23Z</time></trkpt><trkpt lat="45.75275207884304" lon="8.694322973027"><ele>250.8</ele><time>2026-04-19T13:01:24.999Z</time></trkpt><trkpt lat="45.75282257261056" lon="8.694243347655778"><ele>250.60000000000002</ele><time>2026-04-19T13:01:26.999Z</time></trkpt><trkpt lat="45.752900719910045" lon="8.694140343107305"><ele>250.4</ele><time>2026-04-19T13:01:28.999Z</time></trkpt><trkpt lat="45.75297284605944" lon="8.694041415080354"><ele>250.2</ele><time>2026-04-19T13:01:30.999Z</time></trkpt><trkpt lat="45.75304572212793" lon="8.693948172731167"><ele>250.0</ele><time>2026-04-19T13:01:32.999Z</time></trkpt><trkpt lat="45.75310023333623" lon="8.69383351605641"><ele>249.99999999999997</ele><time>2026-04-19T13:01:34.999Z</time></trkpt><trkpt lat="45.75319138690377" lon="8.693755807170511"><ele>250.0</ele><time>2026-04-19T13:01:36.999Z</time></trkpt><trkpt lat="45.753273393370016" lon="8.693627862296092"><ele>250.0</ele><time>2026-04-19T13:01:38.999Z</time></trkpt><trkpt lat="45.75331816831963" lon="8.693562014138015"><ele>250.0</ele><time>2026-04-19T13:01:39.999Z</time></trkpt><trkpt lat="45.75336146741092" lon="8.693495131409396"><ele>249.99999999999997</ele><time>2026-04-19T13:01:40.999Z</time></trkpt><trkpt lat="45.753403000876105" lon="8.69342191212893"><ele>250.0</ele><time>2026-04-19T13:01:41.999Z</time></trkpt><trkpt lat="45.75348722859678" lon="8.693333859196382"><ele>249.99999999999997</ele><time>2026-04-19T13:01:43.999Z</time></trkpt><trkpt lat="45.75354485248674" lon="8.69323122303497"><ele>250.0</ele><time>2026-04-19T13:01:45.999Z</time></trkpt><trkpt lat="45.753552654720984" lon="8.693106277063892"><ele>250.0</ele><time>2026-04-19T13:01:47.999Z</time></trkpt><trkpt lat="45.75354956852386" lon="8.692990230869432"><ele>250.0</ele><time>2026-04-19T13:01:49.999Z</time></trkpt><trkpt lat="45.753507036236186" lon="8.69289986986885"><ele>249.99999999999997</ele><time>2026-04-19T13:01:51.999Z</time></trkpt><trkpt lat="45.75343834289241" lon="8.692829633130675"><ele>250.0</ele><time>2026-04-19T13:01:54.999Z</time></trkpt><trkpt lat="45.75337211949182" lon="8.692783719854766"><ele>250.0</ele><time>2026-04-19T13:01:57.999Z</time></trkpt><trkpt lat="45.75330054736436" lon="8.692739236458058"><ele>250.0</ele><time>2026-04-19T13:02:00.999Z</time></trkpt><trkpt lat="45.753231234962236" lon="8.692700661024244"><ele>250.0</ele><time>2026-04-19T13:02:03.999Z</time></trkpt><trkpt lat="45.75316142965617" lon="8.692661823859352"><ele>250.0</ele><time>2026-04-19T13:02:06.999Z</time></trkpt><trkpt lat="45.75309613572168" lon="8.69262549279061"><ele>250.0</ele><time>2026-04-19T13:02:09.999Z</time></trkpt><trkpt lat="45.75303259405579" lon="8.692589838076342"><ele>250.0</ele><time>2026-04-19T13:02:12.999Z</time></trkpt><trkpt lat="45.75296814131007" lon="8.692553672154503"><ele>250.0</ele><time>2026-04-19T13:02:15.999Z</time></trkpt><trkpt lat="45.752902744108724" lon="8.692516707080786"><ele>249.99999999999997</ele><time>2026-04-19T13:02:18.999Z</time></trkpt><trkpt lat="45.75283711969215" lon="8.692478496980112"><ele>250.0</ele><time>2026-04-19T13:02:21.999Z</time></trkpt><trkpt lat="45.75276821692545" lon="8.692438378052346"><ele>250.0</ele><time>2026-04-19T13:02:24.999Z</time></trkpt><trkpt lat="45.75270207947731" lon="8.69239924717576"><ele>250.0</ele><time>2026-04-19T13:02:27.999Z</time></trkpt><trkpt lat="45.752636687096484" lon="8.692360467661317"><ele>249.99999999999997</ele><time>2026-04-19T13:02:30.999Z</time></trkpt><trkpt lat="45.7525689918002" lon="8.692318610940129"><ele>250.0</ele><time>2026-04-19T13:02:33.999Z</time></trkpt><trkpt lat="45.752600176053605" lon="8.692115397302814"><ele>250.16666666666666</ele><time>2026-04-19T13:02:40.999Z</time></trkpt><trkpt lat="45.75261601068913" lon="8.692013781276426"><ele>250.33333333333331</ele><time>2026-04-19T13:02:43.999Z</time></trkpt><trkpt lat="45.7525776161608" lon="8.691903446971136"><ele>250.5</ele><time>2026-04-19T13:02:46.999Z</time></trkpt><trkpt lat="45.75254237981799" lon="8.691779809657373"><ele>250.66666666666669</ele><time>2026-04-19T13:02:49.999Z</time></trkpt><trkpt lat="45.752524703178494" lon="8.691690013319297"><ele>250.83333333333334</ele><time>2026-04-19T13:02:51.999Z</time></trkpt><trkpt lat="45.75249662552829" lon="8.69159705611186"><ele>251.0</ele><time>2026-04-19T13:02:53.999Z</time></trkpt><trkpt lat="45.752473629706806" lon="8.691492684555467"><ele>250.71428571428567</ele><time>2026-04-19T13:02:55.999Z</time></trkpt><trkpt lat="45.75243666523535" lon="8.691399732221544"><ele>250.42857142857142</ele><time>2026-04-19T13:02:57.999Z</time></trkpt><trkpt lat="45.752393975149495" lon="8.691316072884414"><ele>250.1428571428571</ele><time>2026-04-19T13:02:59.999Z</time></trkpt><trkpt lat="45.75234659067571" lon="8.691239903158923"><ele>249.85714285714283</ele><time>2026-04-19T13:03:01.999Z</time></trkpt><trkpt lat="45.75230434650953" lon="8.691166870619801"><ele>249.57142857142856</ele><time>2026-04-19T13:03:04Z</time></trkpt><trkpt lat="45.75226447796015" lon="8.691089960343191"><ele>249.28571428571428</ele><time>2026-04-19T13:03:06Z</time></trkpt><trkpt lat="45.752225229114764" lon="8.691006698581543"><ele>249.0</ele><time>2026-04-19T13:03:08Z</time></trkpt><trkpt lat="45.752188403476524" lon="8.690918322031665"><ele>248.66666666666666</ele><time>2026-04-19T13:03:10Z</time></trkpt><trkpt lat="45.75214510214464" lon="8.69083421743587"><ele>248.33333333333331</ele><time>2026-04-19T13:03:12Z</time></trkpt><trkpt lat="45.752159621670515" lon="8.690693839779836"><ele>248.0</ele><time>2026-04-19T13:03:14Z</time></trkpt><trkpt lat="45.75211397645623" lon="8.690616895724308"><ele>247.66666666666666</ele><time>2026-04-19T13:03:16Z</time></trkpt><trkpt lat="45.75205605325161" lon="8.690529926533758"><ele>247.33333333333331</ele><time>2026-04-19T13:03:19Z</time></trkpt><trkpt lat="45.7520777264172" lon="8.690399139880391"><ele>247.0</ele><time>2026-04-19T13:03:24Z</time></trkpt><trkpt lat="45.75212338149985" lon="8.69029693210165"><ele>247.16666666666666</ele><time>2026-04-19T13:03:26Z</time></trkpt><trkpt lat="45.75215564998984" lon="8.6902052951518"><ele>247.33333333333331</ele><time>2026-04-19T13:03:28Z</time></trkpt><trkpt lat="45.7521825362724" lon="8.690114013242885"><ele>247.5</ele><time>2026-04-19T13:03:31Z</time></trkpt><trkpt lat="45.75219391140781" lon="8.690023704305753"><ele>247.66666666666669</ele><time>2026-04-19T13:03:34Z</time></trkpt><trkpt lat="45.75218078391687" lon="8.689904147784615"><ele>247.83333333333334</ele><time>2026-04-19T13:03:38Z</time></trkpt><trkpt lat="45.75213864558182" lon="8.689814921252484"><ele>248.0</ele><time>2026-04-19T13:03:43Z</time></trkpt><trkpt lat="45.75208437338985" lon="8.689712838990745"><ele>248.0</ele><time>2026-04-19T13:03:46Z</time></trkpt><trkpt lat="45.75205404773902" lon="8.689602004802365"><ele>248.0</ele><time>2026-04-19T13:03:49Z</time></trkpt><trkpt lat="45.752029057435244" lon="8.689516715649138"><ele>248.0</ele><time>2026-04-19T13:03:52Z</time></trkpt><trkpt lat="45.752033981038004" lon="8.68941796717196"><ele>248.0</ele><time>2026-04-19T13:03:56Z</time></trkpt><trkpt lat="45.75204200529867" lon="8.689230675952198"><ele>248.0</ele><time>2026-04-19T13:04:02Z</time></trkpt><trkpt lat="45.75238623146081" lon="8.689112117910094"><ele>247.75</ele><time>2026-04-19T13:04:49.999Z</time></trkpt><trkpt lat="45.75234631901867" lon="8.689190352079772"><ele>247.5</ele><time>2026-04-19T13:04:55.999Z</time></trkpt><trkpt lat="45.75231114799677" lon="8.689265999796541"><ele>247.25</ele><time>2026-04-19T13:05:00.999Z</time></trkpt><trkpt lat="45.75225769054946" lon="8.689326260859968"><ele>247.0</ele><time>2026-04-19T13:05:03.999Z</time></trkpt><trkpt lat="45.75166887337096" lon="8.688586365803609"><ele>247.0</ele><time>2026-04-19T13:07:25.999Z</time></trkpt><trkpt lat="45.75164217822918" lon="8.688488954145122"><ele>247.0</ele><time>2026-04-19T13:07:34.999Z</time></trkpt><trkpt lat="45.75170468355496" lon="8.688445184008643"><ele>247.0</ele><time>2026-04-19T13:07:39.999Z</time></trkpt></trkseg><trkseg><trkpt lat="45.751504310729864" lon="8.688258049277081"><ele>247.0</ele><time>2026-04-19T13:26:53.999Z</time></trkpt><trkpt lat="45.751444058394505" lon="8.688310400943513"><ele>247.0</ele><time>2026-04-19T13:26:57.999Z</time></trkpt><trkpt lat="45.7514073840504" lon="8.688393298176564"><ele>247.0</ele><time>2026-04-19T13:27:00.999Z</time></trkpt><trkpt lat="45.751352221087664" lon="8.688461611384655"><ele>247.0</ele><time>2026-04-19T13:27:03.999Z</time></trkpt><trkpt lat="45.75130593673258" lon="8.688549588171814"><ele>247.0</ele><time>2026-04-19T13:27:06.999Z</time></trkpt><trkpt lat="45.75124618987517" lon="8.688638486930142"><ele>247.0</ele><time>2026-04-19T13:27:10.999Z</time></trkpt><trkpt lat="45.75118900672074" lon="8.688687266427726"><ele>247.0</ele><time>2026-04-19T13:27:13.999Z</time></trkpt><trkpt lat="45.75112694825264" lon="8.68863216077098"><ele>247.0</ele><time>2026-04-19T13:27:17.999Z</time></trkpt><trkpt lat="45.75106930694203" lon="8.688574873381901"><ele>247.0</ele><time>2026-04-19T13:27:20.999Z</time></trkpt><trkpt lat="45.750989776956644" lon="8.688596702599492"><ele>247.0</ele><time>2026-04-19T13:27:23.999Z</time></trkpt><trkpt lat="45.750917594758036" lon="8.688656769305288"><ele>247.0</ele><time>2026-04-19T13:27:26.999Z</time></trkpt><trkpt lat="45.75085135995397" lon="8.688635858609075"><ele>247.0</ele><time>2026-04-19T13:27:28.999Z</time></trkpt><trkpt lat="45.750792083354106" lon="8.68859721665147"><ele>247.0</ele><time>2026-04-19T13:27:30.999Z</time></trkpt><trkpt lat="45.75072497985493" lon="8.688538970670193"><ele>247.0</ele><time>2026-04-19T13:27:33.999Z</time></trkpt><trkpt lat="45.750662912448924" lon="8.68845510001818"><ele>247.66666666666666</ele><time>2026-04-19T13:27:36.998Z</time></trkpt><trkpt lat="45.750615283205995" lon="8.688389782457683"><ele>248.33333333333331</ele><time>2026-04-19T13:27:38.998Z</time></trkpt><trkpt lat="45.75057161393315" lon="8.688321273938637"><ele>249.0</ele><time>2026-04-19T13:27:40.998Z</time></trkpt><trkpt lat="45.75052341067775" lon="8.688259556496385"><ele>249.66666666666669</ele><time>2026-04-19T13:27:42.998Z</time></trkpt><trkpt lat="45.750464140239686" lon="8.688159894889216"><ele>250.33333333333334</ele><time>2026-04-19T13:27:45.998Z</time></trkpt><trkpt lat="45.75039890889411" lon="8.688071554526816"><ele>251.0</ele><time>2026-04-19T13:27:48.998Z</time></trkpt><trkpt lat="45.750328258419486" lon="8.68797929930506"><ele>251.00000000000003</ele><time>2026-04-19T13:27:51.998Z</time></trkpt><trkpt lat="45.75027461266229" lon="8.687906885014753"><ele>251.0</ele><time>2026-04-19T13:27:53.998Z</time></trkpt><trkpt lat="45.75021943184585" lon="8.687821958682584"><ele>251.0</ele><time>2026-04-19T13:27:55.998Z</time></trkpt><trkpt lat="45.750180187040804" lon="8.687727294238394"><ele>251.0</ele><time>2026-04-19T13:27:57.998Z</time></trkpt><trkpt lat="45.75012839457245" lon="8.687643415920778"><ele>251.00000000000003</ele><time>2026-04-19T13:28:00.998Z</time></trkpt><trkpt lat="45.75010959392719" lon="8.687553754918723"><ele>251.0</ele><time>2026-04-19T13:28:05.998Z</time></trkpt><trkpt lat="45.7501578475462" lon="8.687468483059693"><ele>250.50000000000003</ele><time>2026-04-19T13:28:09.998Z</time></trkpt><trkpt lat="45.75021127406711" lon="8.687378070340976"><ele>250.0</ele><time>2026-04-19T13:28:12.998Z</time></trkpt><trkpt lat="45.75019788016913" lon="8.68725548425281"><ele>249.5</ele><time>2026-04-19T13:28:14.999Z</time></trkpt><trkpt lat="45.750136795025746" lon="8.687201362923679"><ele>249.0</ele><time>2026-04-19T13:28:16.999Z</time></trkpt><trkpt lat="45.750070028555854" lon="8.687117460250766"><ele>248.50000000000003</ele><time>2026-04-19T13:28:19.999Z</time></trkpt><trkpt lat="45.75001774531193" lon="8.687045288285681"><ele>248.0</ele><time>2026-04-19T13:28:21.999Z</time></trkpt><trkpt lat="45.749971478311615" lon="8.686973724912725"><ele>248.2</ele><time>2026-04-19T13:28:23.999Z</time></trkpt><trkpt lat="45.74991347537632" lon="8.686906784889324"><ele>248.4</ele><time>2026-04-19T13:28:25.999Z</time></trkpt><trkpt lat="45.7498624049408" lon="8.68681769112772"><ele>248.59999999999997</ele><time>2026-04-19T13:28:27.999Z</time></trkpt><trkpt lat="45.74978615513233" lon="8.686703555943527"><ele>248.79999999999998</ele><time>2026-04-19T13:28:29.999Z</time></trkpt><trkpt lat="45.749703230442464" lon="8.686590016893023"><ele>249.0</ele><time>2026-04-19T13:28:31.999Z</time></trkpt><trkpt lat="45.749622774425966" lon="8.686477464042609"><ele>249.0</ele><time>2026-04-19T13:28:33.999Z</time></trkpt><trkpt lat="45.74953992450713" lon="8.6863718460362"><ele>248.99999999999997</ele><time>2026-04-19T13:28:35.999Z</time></trkpt><trkpt lat="45.749460119885896" lon="8.686263888386721"><ele>248.99999999999997</ele><time>2026-04-19T13:28:37.999Z</time></trkpt><trkpt lat="45.749381742663324" lon="8.686163641149097"><ele>249.0</ele><time>2026-04-19T13:28:39.999Z</time></trkpt><trkpt lat="45.749303901598495" lon="8.686066175543463"><ele>249.0</ele><time>2026-04-19T13:28:41.999Z</time></trkpt><trkpt lat="45.74923101744083" lon="8.685977535771757"><ele>249.0</ele><time>2026-04-19T13:28:43.999Z</time></trkpt><trkpt lat="45.749138913279666" lon="8.685915258146947"><ele>248.99999999999997</ele><time>2026-04-19T13:28:45.999Z</time></trkpt><trkpt lat="45.74904503079174" lon="8.685870025234156"><ele>248.99999999999997</ele><time>2026-04-19T13:28:47.999Z</time></trkpt><trkpt lat="45.748982970186916" lon="8.685765945165517"><ele>249.0</ele><time>2026-04-19T13:28:49.999Z</time></trkpt><trkpt lat="45.74894435289303" lon="8.685644892301463"><ele>249.0</ele><time>2026-04-19T13:28:51.999Z</time></trkpt><trkpt lat="45.748895971712514" lon="8.685530362284137"><ele>249.0</ele><time>2026-04-19T13:28:53.999Z</time></trkpt><trkpt lat="45.748857305285526" lon="8.685411800417763"><ele>249.0</ele><time>2026-04-19T13:28:55.999Z</time></trkpt><trkpt lat="45.74882078738631" lon="8.685327685808844"><ele>249.0</ele><time>2026-04-19T13:28:57.999Z</time></trkpt><trkpt lat="45.748768312529954" lon="8.685238901927129"><ele>249.0</ele><time>2026-04-19T13:29:00.999Z</time></trkpt><trkpt lat="45.74868487508072" lon="8.68518833769869"><ele>249.0</ele><time>2026-04-19T13:29:03.999Z</time></trkpt><trkpt lat="45.748628227507524" lon="8.685242182117978"><ele>249.0</ele><time>2026-04-19T13:29:05.999Z</time></trkpt><trkpt lat="45.74857994487581" lon="8.685301575799821"><ele>250.14285714285714</ele><time>2026-04-19T13:29:07.999Z</time></trkpt><trkpt lat="45.748530751445934" lon="8.685361072821486"><ele>251.28571428571428</ele><time>2026-04-19T13:29:09.999Z</time></trkpt><trkpt lat="45.748466464453955" lon="8.685444973241424"><ele>252.42857142857142</ele><time>2026-04-19T13:29:12.999Z</time></trkpt><trkpt lat="45.74841508886476" lon="8.685520482289968"><ele>253.57142857142856</ele><time>2026-04-19T13:29:15.999Z</time></trkpt><trkpt lat="45.74835548404826" lon="8.685578685698482"><ele>254.71428571428572</ele><time>2026-04-19T13:29:18.999Z</time></trkpt><trkpt lat="45.748294260948995" lon="8.685608407485205"><ele>255.85714285714283</ele><time>2026-04-19T13:29:21.999Z</time></trkpt><trkpt lat="45.748221852740414" lon="8.68562214206229"><ele>257.0</ele><time>2026-04-19T13:29:24.999Z</time></trkpt><trkpt lat="45.74814412841482" lon="8.685612554913043"><ele>257.0</ele><time>2026-04-19T13:29:28.999Z</time></trkpt><trkpt lat="45.7480715324302" lon="8.685539259567776"><ele>257.0</ele><time>2026-04-19T13:29:32.999Z</time></trkpt><trkpt lat="45.7480238990484" lon="8.685451448291115"><ele>257.0</ele><time>2026-04-19T13:29:34.999Z</time></trkpt><trkpt lat="45.747961701507315" lon="8.68535794267046"><ele>257.0</ele><time>2026-04-19T13:29:36.999Z</time></trkpt><trkpt lat="45.747894885415775" lon="8.685267593310925"><ele>257.0</ele><time>2026-04-19T13:29:38.999Z</time></trkpt><trkpt lat="45.74784176618015" lon="8.68517667820979"><ele>257.0</ele><time>2026-04-19T13:29:40.999Z</time></trkpt><trkpt lat="45.747776786901504" lon="8.6850981470608"><ele>257.0</ele><time>2026-04-19T13:29:42.999Z</time></trkpt><trkpt lat="45.747715512831476" lon="8.685003490557598"><ele>257.0</ele><time>2026-04-19T13:29:44.999Z</time></trkpt><trkpt lat="45.74765227134147" lon="8.684905398281042"><ele>257.0</ele><time>2026-04-19T13:29:46.999Z</time></trkpt><trkpt lat="45.74759286398211" lon="8.684822690348577"><ele>257.0</ele><time>2026-04-19T13:29:48.999Z</time></trkpt><trkpt lat="45.74753985076763" lon="8.684732296155058"><ele>257.0</ele><time>2026-04-19T13:29:50.999Z</time></trkpt><trkpt lat="45.74748584795672" lon="8.684658252184862"><ele>257.0</ele><time>2026-04-19T13:29:52.998Z</time></trkpt><trkpt lat="45.74742862896388" lon="8.684560867772097"><ele>257.0</ele><time>2026-04-19T13:29:55.998Z</time></trkpt><trkpt lat="45.747384210930456" lon="8.684477443353705"><ele>257.0</ele><time>2026-04-19T13:29:57.998Z</time></trkpt><trkpt lat="45.747333447923936" lon="8.684371932582664"><ele>257.0</ele><time>2026-04-19T13:29:59.998Z</time></trkpt><trkpt lat="45.74727871046201" lon="8.684285912432596"><ele>257.0</ele><time>2026-04-19T13:30:01.998Z</time></trkpt><trkpt lat="45.747222709917494" lon="8.684199828700384"><ele>257.0</ele><time>2026-04-19T13:30:03.998Z</time></trkpt><trkpt lat="45.74713957023558" lon="8.684139407428185"><ele>257.0</ele><time>2026-04-19T13:30:05.998Z</time></trkpt><trkpt lat="45.7470584040445" lon="8.68408557406081"><ele>256.83333333333337</ele><time>2026-04-19T13:30:07.998Z</time></trkpt><trkpt lat="45.74699642826924" lon="8.68401497894625"><ele>256.6666666666667</ele><time>2026-04-19T13:30:09.998Z</time></trkpt><trkpt lat="45.74693251289282" lon="8.683967152028462"><ele>256.5</ele><time>2026-04-19T13:30:11.998Z</time></trkpt><trkpt lat="45.74685118584049" lon="8.683930391004093"><ele>256.3333333333333</ele><time>2026-04-19T13:30:14.998Z</time></trkpt><trkpt lat="45.74682070249991" lon="8.683840111913986"><ele>256.16666666666663</ele><time>2026-04-19T13:30:20Z</time></trkpt><trkpt lat="45.746856447167076" lon="8.683717724724461"><ele>256.0</ele><time>2026-04-19T13:30:23Z</time></trkpt><trkpt lat="45.74689577266276" lon="8.683629850463353"><ele>256.1428571428571</ele><time>2026-04-19T13:30:25Z</time></trkpt><trkpt lat="45.74686220519079" lon="8.683527237299494"><ele>256.2857142857143</ele><time>2026-04-19T13:30:27Z</time></trkpt><trkpt lat="45.7467958633836" lon="8.683469819194329"><ele>256.42857142857144</ele><time>2026-04-19T13:30:29Z</time></trkpt><trkpt lat="45.74673929097815" lon="8.683396033835702"><ele>256.57142857142856</ele><time>2026-04-19T13:30:31Z</time></trkpt><trkpt lat="45.7466833342892" lon="8.683320852595102"><ele>256.7142857142857</ele><time>2026-04-19T13:30:33Z</time></trkpt><trkpt lat="45.74663086643971" lon="8.683254182592076"><ele>256.85714285714283</ele><time>2026-04-19T13:30:35Z</time></trkpt><trkpt lat="45.746577255692685" lon="8.683192828602579"><ele>257.0</ele><time>2026-04-19T13:30:36.999Z</time></trkpt><trkpt lat="45.74652381029616" lon="8.683133175805525"><ele>257.0</ele><time>2026-04-19T13:30:38.999Z</time></trkpt><trkpt lat="45.74647191466607" lon="8.683072427442768"><ele>257.0</ele><time>2026-04-19T13:30:40.999Z</time></trkpt><trkpt lat="45.7464094425082" lon="8.683004185233445"><ele>257.0</ele><time>2026-04-19T13:30:42.999Z</time></trkpt><trkpt lat="45.746347550597626" lon="8.682930617984505"><ele>257.0</ele><time>2026-04-19T13:30:44.999Z</time></trkpt><trkpt lat="45.746297307974466" lon="8.682849665151895"><ele>257.0</ele><time>2026-04-19T13:30:46.999Z</time></trkpt><trkpt lat="45.74624509402928" lon="8.682770528418336"><ele>257.0</ele><time>2026-04-19T13:30:48.999Z</time></trkpt><trkpt lat="45.74618695388528" lon="8.6827038501274"><ele>257.0</ele><time>2026-04-19T13:30:50.999Z</time></trkpt><trkpt lat="45.746128127085534" lon="8.682624937925201"><ele>257.0</ele><time>2026-04-19T13:30:52.999Z</time></trkpt><trkpt lat="45.74606871732341" lon="8.682547290691591"><ele>257.0</ele><time>2026-04-19T13:30:54.999Z</time></trkpt><trkpt lat="45.746028304336605" lon="8.682460427604752"><ele>257.0</ele><time>2026-04-19T13:30:56.999Z</time></trkpt><trkpt lat="45.74599812830418" lon="8.682371336353542"><ele>257.0</ele><time>2026-04-19T13:30:59.999Z</time></trkpt><trkpt lat="45.745971832873224" lon="8.682273082132882"><ele>257.0</ele><time>2026-04-19T13:31:03.999Z</time></trkpt><trkpt lat="45.74594419211844" lon="8.68216080679223"><ele>257.42857142857144</ele><time>2026-04-19T13:31:07.999Z</time></trkpt><trkpt lat="45.74590545356404" lon="8.682084681005303"><ele>257.8571428571429</ele><time>2026-04-19T13:31:10.999Z</time></trkpt><trkpt lat="45.74583898956391" lon="8.682058411377271"><ele>258.28571428571433</ele><time>2026-04-19T13:31:13.999Z</time></trkpt><trkpt lat="45.745774990016685" lon="8.682104295907452"><ele>258.7142857142857</ele><time>2026-04-19T13:31:16.999Z</time></trkpt><trkpt lat="45.74570762995478" lon="8.682149556728397"><ele>259.14285714285717</ele><time>2026-04-19T13:31:19.999Z</time></trkpt><trkpt lat="45.74564373260118" lon="8.682197998597525"><ele>259.5714285714286</ele><time>2026-04-19T13:31:22.999Z</time></trkpt><trkpt lat="45.74558555533768" lon="8.682251772827158"><ele>260.0</ele><time>2026-04-19T13:31:25.999Z</time></trkpt><trkpt lat="45.745509066192774" lon="8.682298823084619"><ele>260.0</ele><time>2026-04-19T13:31:28.999Z</time></trkpt><trkpt lat="45.74545111710477" lon="8.682346259536363"><ele>260.0</ele><time>2026-04-19T13:31:30.999Z</time></trkpt><trkpt lat="45.74537897148251" lon="8.682375890701676"><ele>260.0</ele><time>2026-04-19T13:31:32.999Z</time></trkpt><trkpt lat="45.74530168672323" lon="8.682402314861267"><ele>260.0</ele><time>2026-04-19T13:31:34.999Z</time></trkpt><trkpt lat="45.74522181706155" lon="8.68240537712717"><ele>260.0</ele><time>2026-04-19T13:31:36.999Z</time></trkpt><trkpt lat="45.74514395019959" lon="8.682388647230345"><ele>260.0</ele><time>2026-04-19T13:31:38.999Z</time></trkpt><trkpt lat="45.74506823518944" lon="8.682342840963258"><ele>260.0</ele><time>2026-04-19T13:31:40.999Z</time></trkpt><trkpt lat="45.74501026617802" lon="8.682289628332258"><ele>260.0</ele><time>2026-04-19T13:31:42.999Z</time></trkpt><trkpt lat="45.74494535358651" lon="8.682189638473584"><ele>260.0</ele><time>2026-04-19T13:31:44.999Z</time></trkpt><trkpt lat="45.74488781114904" lon="8.682098228939896"><ele>260.0</ele><time>2026-04-19T13:31:46.999Z</time></trkpt><trkpt lat="45.74483708096567" lon="8.681997747893382"><ele>260.0</ele><time>2026-04-19T13:31:48.999Z</time></trkpt><trkpt lat="45.74479169881483" lon="8.681895917356178"><ele>260.0</ele><time>2026-04-19T13:31:50.999Z</time></trkpt><trkpt lat="45.74476838697894" lon="8.68178464289444"><ele>260.0</ele><time>2026-04-19T13:31:52.999Z</time></trkpt><trkpt lat="45.744745442827565" lon="8.68167384084377"><ele>260.0</ele><time>2026-04-19T13:31:54.999Z</time></trkpt><trkpt lat="45.74473715491796" lon="8.681554546034922"><ele>260.0</ele><time>2026-04-19T13:31:56.999Z</time></trkpt><trkpt lat="45.74476434608489" lon="8.681458088731919"><ele>260.0</ele><time>2026-04-19T13:31:58.998Z</time></trkpt><trkpt lat="45.744783341082616" lon="8.681331555193873"><ele>260.0</ele><time>2026-04-19T13:32:00.998Z</time></trkpt><trkpt lat="45.74482864042104" lon="8.681247059860823"><ele>260.0</ele><time>2026-04-19T13:32:02.998Z</time></trkpt><trkpt lat="45.74488321673705" lon="8.681159162836035"><ele>260.1666666666667</ele><time>2026-04-19T13:32:04.998Z</time></trkpt><trkpt lat="45.74493221725866" lon="8.681064317676245"><ele>260.33333333333337</ele><time>2026-04-19T13:32:06.998Z</time></trkpt><trkpt lat="45.7449906557857" lon="8.680957245358924"><ele>260.5</ele><time>2026-04-19T13:32:08.998Z</time></trkpt><trkpt lat="45.74506079478278" lon="8.680833518160377"><ele>260.6666666666667</ele><time>2026-04-19T13:32:10.998Z</time></trkpt><trkpt lat="45.74509534124204" lon="8.680755683496153"><ele>260.8333333333333</ele><time>2026-04-19T13:32:11.998Z</time></trkpt><trkpt lat="45.745132592934574" lon="8.680671009635276"><ele>261.0</ele><time>2026-04-19T13:32:12.998Z</time></trkpt><trkpt lat="45.745171887595035" lon="8.680585022365507"><ele>261.0</ele><time>2026-04-19T13:32:13.998Z</time></trkpt><trkpt lat="45.745212164033376" lon="8.68050389344889"><ele>261.0</ele><time>2026-04-19T13:32:14.998Z</time></trkpt><trkpt lat="45.74525622195167" lon="8.680427004303864"><ele>261.0</ele><time>2026-04-19T13:32:15.998Z</time></trkpt><trkpt lat="45.745307808478636" lon="8.680348668189259"><ele>261.0</ele><time>2026-04-19T13:32:16.998Z</time></trkpt><trkpt lat="45.74532847287643" lon="8.68026267116535"><ele>261.0</ele><time>2026-04-19T13:32:17.998Z</time></trkpt><trkpt lat="45.74537380756374" lon="8.680152361767226"><ele>261.0</ele><time>2026-04-19T13:32:18.998Z</time></trkpt><trkpt lat="45.74540188790634" lon="8.680053647014502"><ele>261.0</ele><time>2026-04-19T13:32:19.998Z</time></trkpt><trkpt lat="45.7454562026636" lon="8.679919318903483"><ele>259.40000000000003</ele><time>2026-04-19T13:32:20.998Z</time></trkpt><trkpt lat="45.74551214445127" lon="8.679815385641675"><ele>257.8</ele><time>2026-04-19T13:32:21.998Z</time></trkpt><trkpt lat="45.745586992489415" lon="8.679695944233032"><ele>256.20000000000005</ele><time>2026-04-19T13:32:22.998Z</time></trkpt><trkpt lat="45.74565485685736" lon="8.679566478346787"><ele>254.60000000000002</ele><time>2026-04-19T13:32:23.998Z</time></trkpt><trkpt lat="45.745716411311115" lon="8.679421801300304"><ele>253.0</ele><time>2026-04-19T13:32:25Z</time></trkpt><trkpt lat="45.74576616966385" lon="8.679295172527057"><ele>252.83333333333331</ele><time>2026-04-19T13:32:26Z</time></trkpt><trkpt lat="45.745808655522104" lon="8.679199942660995"><ele>252.66666666666666</ele><time>2026-04-19T13:32:27Z</time></trkpt><trkpt lat="45.745844939404456" lon="8.679121332336884"><ele>252.5</ele><time>2026-04-19T13:32:28Z</time></trkpt><trkpt lat="45.745879141338406" lon="8.67904527503704"><ele>252.33333333333331</ele><time>2026-04-19T13:32:29Z</time></trkpt><trkpt lat="45.74591352471343" lon="8.67896880814006"><ele>252.16666666666666</ele><time>2026-04-19T13:32:30Z</time></trkpt><trkpt lat="45.7459764910575" lon="8.678830900115772"><ele>252.0</ele><time>2026-04-19T13:32:32Z</time></trkpt><trkpt lat="45.746043322137034" lon="8.67870552916107"><ele>252.0</ele><time>2026-04-19T13:32:34Z</time></trkpt><trkpt lat="45.746068031701206" lon="8.67856934907968"><ele>252.0</ele><time>2026-04-19T13:32:36Z</time></trkpt><trkpt lat="45.7459716483247" lon="8.678503713571292"><ele>252.0</ele><time>2026-04-19T13:32:37Z</time></trkpt><trkpt lat="45.74589021731167" lon="8.678476735626514"><ele>252.0</ele><time>2026-04-19T13:32:39Z</time></trkpt><trkpt lat="45.7458101082295" lon="8.678435944228553"><ele>252.0</ele><time>2026-04-19T13:32:42Z</time></trkpt><trkpt lat="45.74573416545689" lon="8.67839998296282"><ele>252.0</ele><time>2026-04-19T13:32:45Z</time></trkpt><trkpt lat="45.74566002633777" lon="8.678371130746639"><ele>252.0</ele><time>2026-04-19T13:32:48Z</time></trkpt><trkpt lat="45.74557406095931" lon="8.678380698246906"><ele>252.0</ele><time>2026-04-19T13:32:51Z</time></trkpt><trkpt lat="45.74553069867079" lon="8.67845030528553"><ele>252.0</ele><time>2026-04-19T13:32:53Z</time></trkpt><trkpt lat="45.74547757862807" lon="8.67852739561328"><ele>252.0</ele><time>2026-04-19T13:32:56Z</time></trkpt><trkpt lat="45.74538515555968" lon="8.67857853404579"><ele>252.0</ele><time>2026-04-19T13:33:00Z</time></trkpt><trkpt lat="45.74529667639555" lon="8.678568603352327"><ele>252.0</ele><time>2026-04-19T13:33:03Z</time></trkpt><trkpt lat="45.745215591743616" lon="8.678514334601449"><ele>252.0</ele><time>2026-04-19T13:33:06Z</time></trkpt><trkpt lat="45.74518230303672" lon="8.678419249682678"><ele>252.0</ele><time>2026-04-19T13:33:08Z</time></trkpt><trkpt lat="45.74518920468327" lon="8.67830848360122"><ele>252.0</ele><time>2026-04-19T13:33:10Z</time></trkpt><trkpt lat="45.74513809412222" lon="8.678203879245508"><ele>252.0</ele><time>2026-04-19T13:33:11.999Z</time></trkpt><trkpt lat="45.74505297906559" lon="8.67820723687539"><ele>252.0</ele><time>2026-04-19T13:33:13.999Z</time></trkpt><trkpt lat="45.744982841177816" lon="8.67823341401818"><ele>253.16666666666666</ele><time>2026-04-19T13:33:15.999Z</time></trkpt><trkpt lat="45.74492069307709" lon="8.678253378428538"><ele>254.33333333333331</ele><time>2026-04-19T13:33:17.999Z</time></trkpt><trkpt lat="45.74483986016959" lon="8.678269032144858"><ele>255.5</ele><time>2026-04-19T13:33:19.999Z</time></trkpt><trkpt lat="45.74477385453811" lon="8.678249201719579"><ele>256.66666666666663</ele><time>2026-04-19T13:33:21.999Z</time></trkpt><trkpt lat="45.74480807807814" lon="8.678145204842004"><ele>257.8333333333333</ele><time>2026-04-19T13:33:24.999Z</time></trkpt><trkpt lat="45.74485371054237" lon="8.67802751692647"><ele>259.0</ele><time>2026-04-19T13:33:27.999Z</time></trkpt><trkpt lat="45.744914399969" lon="8.67789477978299"><ele>259.59999999999997</ele><time>2026-04-19T13:33:29.999Z</time></trkpt><trkpt lat="45.74497456606776" lon="8.677768458172839"><ele>260.2</ele><time>2026-04-19T13:33:31.999Z</time></trkpt><trkpt lat="45.745040237225005" lon="8.677661116522062"><ele>260.79999999999995</ele><time>2026-04-19T13:33:33.999Z</time></trkpt><trkpt lat="45.74513419152689" lon="8.677544943465"><ele>261.4</ele><time>2026-04-19T13:33:35.999Z</time></trkpt><trkpt lat="45.74517995461926" lon="8.677479802822505"><ele>262.0</ele><time>2026-04-19T13:33:36.999Z</time></trkpt><trkpt lat="45.745227532296646" lon="8.677417353004602"><ele>260.5</ele><time>2026-04-19T13:33:37.999Z</time></trkpt><trkpt lat="45.745336633689206" lon="8.67731521863295"><ele>259.0</ele><time>2026-04-19T13:33:39.999Z</time></trkpt><trkpt lat="45.74541108655251" lon="8.677266926595477"><ele>257.5</ele><time>2026-04-19T13:33:40.999Z</time></trkpt><trkpt lat="45.74547699424376" lon="8.677217849853275"><ele>256.0</ele><time>2026-04-19T13:33:41.999Z</time></trkpt><trkpt lat="45.74554376994914" lon="8.677164535629931"><ele>254.49999999999997</ele><time>2026-04-19T13:33:42.999Z</time></trkpt><trkpt lat="45.74560709936105" lon="8.677102132119426"><ele>253.0</ele><time>2026-04-19T13:33:43.999Z</time></trkpt><trkpt lat="45.745664511141705" lon="8.677035616302112"><ele>253.00000000000003</ele><time>2026-04-19T13:33:44.999Z</time></trkpt><trkpt lat="45.745714230952494" lon="8.676961630139049"><ele>253.0</ele><time>2026-04-19T13:33:45.999Z</time></trkpt><trkpt lat="45.74577088010775" lon="8.676888210384721"><ele>253.00000000000003</ele><time>2026-04-19T13:33:46.999Z</time></trkpt><trkpt lat="45.74581872525539" lon="8.676816107164612"><ele>253.00000000000003</ele><time>2026-04-19T13:33:47.999Z</time></trkpt><trkpt lat="45.74585420503785" lon="8.676730885598932"><ele>253.0</ele><time>2026-04-19T13:33:48.999Z</time></trkpt><trkpt lat="45.74586387027157" lon="8.676637719825836"><ele>253.00000000000003</ele><time>2026-04-19T13:33:49.999Z</time></trkpt><trkpt lat="45.74588294040174" lon="8.676542088358087"><ele>253.00000000000003</ele><time>2026-04-19T13:33:50.999Z</time></trkpt><trkpt lat="45.74587943256494" lon="8.676374852835425"><ele>253.2</ele><time>2026-04-19T13:33:52.999Z</time></trkpt><trkpt lat="45.745865268087506" lon="8.67621941416665"><ele>253.4</ele><time>2026-04-19T13:33:54.999Z</time></trkpt><trkpt lat="45.74583499848533" lon="8.676082517843005"><ele>253.59999999999997</ele><time>2026-04-19T13:33:56.999Z</time></trkpt><trkpt lat="45.745879946342484" lon="8.675972634862761"><ele>253.79999999999998</ele><time>2026-04-19T13:33:58.999Z</time></trkpt><trkpt lat="45.74591374404432" lon="8.675872962628008"><ele>254.0</ele><time>2026-04-19T13:33:59.999Z</time></trkpt><trkpt lat="45.74597388936449" lon="8.67578464062766"><ele>254.0</ele><time>2026-04-19T13:34:00.999Z</time></trkpt><trkpt lat="45.746024442951565" lon="8.675678729289395"><ele>253.99999999999997</ele><time>2026-04-19T13:34:01.999Z</time></trkpt><trkpt lat="45.74607174599442" lon="8.675567188341788"><ele>253.99999999999997</ele><time>2026-04-19T13:34:02.999Z</time></trkpt><trkpt lat="45.746105004926235" lon="8.675431910088738"><ele>254.0</ele><time>2026-04-19T13:34:03.999Z</time></trkpt><trkpt lat="45.74609380305819" lon="8.675276790441671"><ele>254.0</ele><time>2026-04-19T13:34:04.999Z</time></trkpt><trkpt lat="45.746055281325965" lon="8.675140567462615"><ele>253.83333333333334</ele><time>2026-04-19T13:34:05.999Z</time></trkpt><trkpt lat="45.746024481128934" lon="8.675037732349269"><ele>253.66666666666669</ele><time>2026-04-19T13:34:06.999Z</time></trkpt><trkpt lat="45.74600203982251" lon="8.67493624101226"><ele>253.5</ele><time>2026-04-19T13:34:07.999Z</time></trkpt><trkpt lat="45.74599074199653" lon="8.674825569716726"><ele>253.33333333333331</ele><time>2026-04-19T13:34:09.999Z</time></trkpt><trkpt lat="45.74603102826006" lon="8.674742543981775"><ele>253.16666666666666</ele><time>2026-04-19T13:34:11.999Z</time></trkpt><trkpt lat="45.74613033450866" lon="8.674722649038616"><ele>253.0</ele><time>2026-04-19T13:34:13.999Z</time></trkpt><trkpt lat="45.746218208167576" lon="8.674675610002705"><ele>252.33333333333331</ele><time>2026-04-19T13:34:15.999Z</time></trkpt><trkpt lat="45.746287028068004" lon="8.67459299055644"><ele>251.66666666666666</ele><time>2026-04-19T13:34:17.999Z</time></trkpt><trkpt lat="45.74633808895561" lon="8.674521668719384"><ele>251.0</ele><time>2026-04-19T13:34:19.999Z</time></trkpt><trkpt lat="45.7463861111325" lon="8.674449962950845"><ele>250.33333333333331</ele><time>2026-04-19T13:34:21.999Z</time></trkpt><trkpt lat="45.746448446764404" lon="8.674356342770412"><ele>249.66666666666666</ele><time>2026-04-19T13:34:24.999Z</time></trkpt><trkpt lat="45.746509458156254" lon="8.674264260846407"><ele>249.0</ele><time>2026-04-19T13:34:27.999Z</time></trkpt><trkpt lat="45.74654572125471" lon="8.674175910015501"><ele>249.0</ele><time>2026-04-19T13:34:29.999Z</time></trkpt><trkpt lat="45.746595526494" lon="8.674110753340246"><ele>248.99999999999997</ele><time>2026-04-19T13:34:32Z</time></trkpt><trkpt lat="45.74664178244864" lon="8.674046435629819"><ele>249.0</ele><time>2026-04-19T13:34:34Z</time></trkpt><trkpt lat="45.746712371098475" lon="8.67396924392814"><ele>249.0</ele><time>2026-04-19T13:34:37Z</time></trkpt><trkpt lat="45.746760871978786" lon="8.67390615279345"><ele>248.99999999999997</ele><time>2026-04-19T13:34:40Z</time></trkpt><trkpt lat="45.74681252855041" lon="8.673837028675232"><ele>249.0</ele><time>2026-04-19T13:34:44Z</time></trkpt><trkpt lat="45.74686899150999" lon="8.673764131473355"><ele>249.0</ele><time>2026-04-19T13:34:48Z</time></trkpt><trkpt lat="45.74693041520037" lon="8.67371168781133"><ele>248.83333333333334</ele><time>2026-04-19T13:34:52Z</time></trkpt><trkpt lat="45.746973704331836" lon="8.673638669194702"><ele>248.66666666666669</ele><time>2026-04-19T13:34:55Z</time></trkpt><trkpt lat="45.74701319518692" lon="8.67355779527735"><ele>248.5</ele><time>2026-04-19T13:35:00Z</time></trkpt><trkpt lat="45.74698061804977" lon="8.673389762607224"><ele>248.33333333333334</ele><time>2026-04-19T13:35:05Z</time></trkpt><trkpt lat="45.746949096887334" lon="8.673283833782746"><ele>248.16666666666669</ele><time>2026-04-19T13:35:09Z</time></trkpt><trkpt lat="45.74692957788432" lon="8.673191070422625"><ele>248.0</ele><time>2026-04-19T13:35:12Z</time></trkpt><trkpt lat="45.74688138361395" lon="8.673096785441517"><ele>250.0</ele><time>2026-04-19T13:35:15Z</time></trkpt><trkpt lat="45.74684799156458" lon="8.673008601661618"><ele>253.0</ele><time>2026-04-19T13:35:19Z</time></trkpt><trkpt lat="45.74687831129136" lon="8.672907860656375"><ele>250.0</ele><time>2026-04-19T13:35:27Z</time></trkpt></trkseg></trk></gpx>